<?xml version="1.0" encoding="UTF-8" ?>
<gpx version="1.1" xmlns:xsi="http://www.w3.org/2001/XMLSchema-instance" 
    xmlns="http://www.topografix.com/GPX/1/1" 
    xsi:schemaLocation="http://www.topografix.com/GPX/1/1 http://www.topografix.com/GPX/1/1/gpx.xsd" 
    creator="Openrunner - https://www.openrunner.com" >	<trk>
						<name>Rallye Alex Singer 2023-16219774</name>
						<trkseg>
					<trkpt lat="48.877290" lon="2.284480">
						<ele>47</ele>
						<time>2023-03-02T15:49:19Z</time>
					</trkpt>
					<trkpt lat="48.877110" lon="2.284350">
						<ele>48</ele>
						<time>2023-03-02T15:49:23Z</time>
					</trkpt>
					<trkpt lat="48.877140" lon="2.284250">
						<ele>47</ele>
						<time>2023-03-02T15:49:24Z</time>
					</trkpt>
					<trkpt lat="48.877210" lon="2.284040">
						<ele>46</ele>
						<time>2023-03-02T15:49:27Z</time>
					</trkpt>
					<trkpt lat="48.877620" lon="2.282710">
						<ele>38</ele>
						<time>2023-03-02T15:49:44Z</time>
					</trkpt>
					<trkpt lat="48.877520" lon="2.282640">
						<ele>37</ele>
						<time>2023-03-02T15:49:46Z</time>
					</trkpt>
					<trkpt lat="48.877550" lon="2.282570">
						<ele>37</ele>
						<time>2023-03-02T15:49:47Z</time>
					</trkpt>
					<trkpt lat="48.877580" lon="2.282480">
						<ele>38</ele>
						<time>2023-03-02T15:49:48Z</time>
					</trkpt>
					<trkpt lat="48.877610" lon="2.282500">
						<ele>38</ele>
						<time>2023-03-02T15:49:48Z</time>
					</trkpt>
					<trkpt lat="48.878020" lon="2.281230">
						<ele>37</ele>
						<time>2023-03-02T15:50:05Z</time>
					</trkpt>
					<trkpt lat="48.877980" lon="2.281190">
						<ele>37</ele>
						<time>2023-03-02T15:50:06Z</time>
					</trkpt>
					<trkpt lat="48.878350" lon="2.280110">
						<ele>42</ele>
						<time>2023-03-02T15:50:20Z</time>
					</trkpt>
					<trkpt lat="48.878430" lon="2.279890">
						<ele>44</ele>
						<time>2023-03-02T15:50:23Z</time>
					</trkpt>
					<trkpt lat="48.878460" lon="2.279870">
						<ele>44</ele>
						<time>2023-03-02T15:50:24Z</time>
					</trkpt>
					<trkpt lat="48.878610" lon="2.279980">
						<ele>44</ele>
						<time>2023-03-02T15:50:27Z</time>
					</trkpt>
					<trkpt lat="48.878560" lon="2.280140">
						<ele>43</ele>
						<time>2023-03-02T15:50:29Z</time>
					</trkpt>
					<trkpt lat="48.878670" lon="2.280220">
						<ele>43</ele>
						<time>2023-03-02T15:50:31Z</time>
					</trkpt>
					<trkpt lat="48.878710" lon="2.280250">
						<ele>43</ele>
						<time>2023-03-02T15:50:32Z</time>
					</trkpt>
					<trkpt lat="48.878810" lon="2.280170">
						<ele>44</ele>
						<time>2023-03-02T15:50:34Z</time>
					</trkpt>
					<trkpt lat="48.878530" lon="2.279980">
						<ele>44</ele>
						<time>2023-03-02T15:50:39Z</time>
					</trkpt>
					<trkpt lat="48.878330" lon="2.279760">
						<ele>44</ele>
						<time>2023-03-02T15:50:44Z</time>
					</trkpt>
					<trkpt lat="48.877890" lon="2.279440">
						<ele>44</ele>
						<time>2023-03-02T15:50:52Z</time>
					</trkpt>
					<trkpt lat="48.877690" lon="2.279390">
						<ele>43</ele>
						<time>2023-03-02T15:50:56Z</time>
					</trkpt>
					<trkpt lat="48.877420" lon="2.279280">
						<ele>43</ele>
						<time>2023-03-02T15:51:01Z</time>
					</trkpt>
					<trkpt lat="48.877310" lon="2.279290">
						<ele>42</ele>
						<time>2023-03-02T15:51:03Z</time>
					</trkpt>
					<trkpt lat="48.877350" lon="2.279210">
						<ele>43</ele>
						<time>2023-03-02T15:51:04Z</time>
					</trkpt>
					<trkpt lat="48.877370" lon="2.279120">
						<ele>43</ele>
						<time>2023-03-02T15:51:05Z</time>
					</trkpt>
					<trkpt lat="48.877310" lon="2.278710">
						<ele>44</ele>
						<time>2023-03-02T15:51:10Z</time>
					</trkpt>
					<trkpt lat="48.877260" lon="2.278580">
						<ele>43</ele>
						<time>2023-03-02T15:51:12Z</time>
					</trkpt>
					<trkpt lat="48.877030" lon="2.277180">
						<ele>43</ele>
						<time>2023-03-02T15:51:29Z</time>
					</trkpt>
					<trkpt lat="48.877020" lon="2.276960">
						<ele>43</ele>
						<time>2023-03-02T15:51:31Z</time>
					</trkpt>
					<trkpt lat="48.876940" lon="2.276400">
						<ele>41</ele>
						<time>2023-03-02T15:51:38Z</time>
					</trkpt>
					<trkpt lat="48.876870" lon="2.275460">
						<ele>38</ele>
						<time>2023-03-02T15:51:49Z</time>
					</trkpt>
					<trkpt lat="48.876830" lon="2.275310">
						<ele>38</ele>
						<time>2023-03-02T15:51:51Z</time>
					</trkpt>
					<trkpt lat="48.876790" lon="2.275270">
						<ele>37</ele>
						<time>2023-03-02T15:51:52Z</time>
					</trkpt>
					<trkpt lat="48.876700" lon="2.275230">
						<ele>37</ele>
						<time>2023-03-02T15:51:53Z</time>
					</trkpt>
					<trkpt lat="48.876610" lon="2.275260">
						<ele>38</ele>
						<time>2023-03-02T15:51:55Z</time>
					</trkpt>
					<trkpt lat="48.876520" lon="2.275220">
						<ele>38</ele>
						<time>2023-03-02T15:51:57Z</time>
					</trkpt>
					<trkpt lat="48.876320" lon="2.274970">
						<ele>39</ele>
						<time>2023-03-02T15:52:01Z</time>
					</trkpt>
					<trkpt lat="48.874140" lon="2.268910">
						<ele>47</ele>
						<time>2023-03-02T15:53:22Z</time>
					</trkpt>
					<trkpt lat="48.871080" lon="2.260460">
						<ele>42</ele>
						<time>2023-03-02T15:55:15Z</time>
					</trkpt>
					<trkpt lat="48.870700" lon="2.259300">
						<ele>43</ele>
						<time>2023-03-02T15:55:30Z</time>
					</trkpt>
					<trkpt lat="48.870390" lon="2.258520">
						<ele>43</ele>
						<time>2023-03-02T15:55:41Z</time>
					</trkpt>
					<trkpt lat="48.869700" lon="2.256610">
						<ele>42</ele>
						<time>2023-03-02T15:56:06Z</time>
					</trkpt>
					<trkpt lat="48.869620" lon="2.256270">
						<ele>41</ele>
						<time>2023-03-02T15:56:11Z</time>
					</trkpt>
					<trkpt lat="48.869130" lon="2.254900">
						<ele>39</ele>
						<time>2023-03-02T15:56:29Z</time>
					</trkpt>
					<trkpt lat="48.868410" lon="2.252920">
						<ele>43</ele>
						<time>2023-03-02T15:56:55Z</time>
					</trkpt>
					<trkpt lat="48.868300" lon="2.252700">
						<ele>43</ele>
						<time>2023-03-02T15:56:59Z</time>
					</trkpt>
					<trkpt lat="48.867660" lon="2.250880">
						<ele>45</ele>
						<time>2023-03-02T15:57:23Z</time>
					</trkpt>
					<trkpt lat="48.867070" lon="2.249280">
						<ele>44</ele>
						<time>2023-03-02T15:57:44Z</time>
					</trkpt>
					<trkpt lat="48.864200" lon="2.241300">
						<ele>33</ele>
						<time>2023-03-02T15:59:31Z</time>
					</trkpt>
					<trkpt lat="48.864140" lon="2.241050">
						<ele>32</ele>
						<time>2023-03-02T15:59:34Z</time>
					</trkpt>
					<trkpt lat="48.863790" lon="2.240030">
						<ele>31</ele>
						<time>2023-03-02T15:59:47Z</time>
					</trkpt>
					<trkpt lat="48.863640" lon="2.239480">
						<ele>31</ele>
						<time>2023-03-02T15:59:54Z</time>
					</trkpt>
					<trkpt lat="48.863540" lon="2.238810">
						<ele>31</ele>
						<time>2023-03-02T16:00:02Z</time>
					</trkpt>
					<trkpt lat="48.863560" lon="2.238450">
						<ele>31</ele>
						<time>2023-03-02T16:00:06Z</time>
					</trkpt>
					<trkpt lat="48.863650" lon="2.237830">
						<ele>32</ele>
						<time>2023-03-02T16:00:14Z</time>
					</trkpt>
					<trkpt lat="48.863780" lon="2.237250">
						<ele>32</ele>
						<time>2023-03-02T16:00:21Z</time>
					</trkpt>
					<trkpt lat="48.864000" lon="2.236600">
						<ele>31</ele>
						<time>2023-03-02T16:00:30Z</time>
					</trkpt>
					<trkpt lat="48.864310" lon="2.235820">
						<ele>32</ele>
						<time>2023-03-02T16:00:40Z</time>
					</trkpt>
					<trkpt lat="48.864590" lon="2.235260">
						<ele>31</ele>
						<time>2023-03-02T16:00:48Z</time>
					</trkpt>
					<trkpt lat="48.865000" lon="2.234650">
						<ele>29</ele>
						<time>2023-03-02T16:00:59Z</time>
					</trkpt>
					<trkpt lat="48.865370" lon="2.233920">
						<ele>30</ele>
						<time>2023-03-02T16:01:09Z</time>
					</trkpt>
					<trkpt lat="48.865960" lon="2.232590">
						<ele>33</ele>
						<time>2023-03-02T16:01:28Z</time>
					</trkpt>
					<trkpt lat="48.866250" lon="2.231740">
						<ele>35</ele>
						<time>2023-03-02T16:01:39Z</time>
					</trkpt>
					<trkpt lat="48.866360" lon="2.231370">
						<ele>36</ele>
						<time>2023-03-02T16:01:44Z</time>
					</trkpt>
					<trkpt lat="48.866500" lon="2.230900">
						<ele>38</ele>
						<time>2023-03-02T16:01:50Z</time>
					</trkpt>
					<trkpt lat="48.867060" lon="2.228730">
						<ele>33</ele>
						<time>2023-03-02T16:02:18Z</time>
					</trkpt>
					<trkpt lat="48.867110" lon="2.228570">
						<ele>32</ele>
						<time>2023-03-02T16:02:20Z</time>
					</trkpt>
					<trkpt lat="48.867220" lon="2.228270">
						<ele>32</ele>
						<time>2023-03-02T16:02:24Z</time>
					</trkpt>
					<trkpt lat="48.867360" lon="2.227790">
						<ele>33</ele>
						<time>2023-03-02T16:02:30Z</time>
					</trkpt>
					<trkpt lat="48.867580" lon="2.226660">
						<ele>39</ele>
						<time>2023-03-02T16:02:44Z</time>
					</trkpt>
					<trkpt lat="48.867670" lon="2.226400">
						<ele>39</ele>
						<time>2023-03-02T16:02:47Z</time>
					</trkpt>
					<trkpt lat="48.867580" lon="2.226350">
						<ele>39</ele>
						<time>2023-03-02T16:02:49Z</time>
					</trkpt>
					<trkpt lat="48.867540" lon="2.226320">
						<ele>39</ele>
						<time>2023-03-02T16:02:49Z</time>
					</trkpt>
					<trkpt lat="48.867500" lon="2.226300">
						<ele>39</ele>
						<time>2023-03-02T16:02:50Z</time>
					</trkpt>
					<trkpt lat="48.867560" lon="2.226100">
						<ele>39</ele>
						<time>2023-03-02T16:02:53Z</time>
					</trkpt>
					<trkpt lat="48.867530" lon="2.225940">
						<ele>39</ele>
						<time>2023-03-02T16:02:55Z</time>
					</trkpt>
					<trkpt lat="48.867030" lon="2.225500">
						<ele>39</ele>
						<time>2023-03-02T16:03:05Z</time>
					</trkpt>
					<trkpt lat="48.866970" lon="2.225480">
						<ele>39</ele>
						<time>2023-03-02T16:03:06Z</time>
					</trkpt>
					<trkpt lat="48.866970" lon="2.225300">
						<ele>39</ele>
						<time>2023-03-02T16:03:08Z</time>
					</trkpt>
					<trkpt lat="48.866980" lon="2.225280">
						<ele>39</ele>
						<time>2023-03-02T16:03:09Z</time>
					</trkpt>
					<trkpt lat="48.867000" lon="2.225230">
						<ele>39</ele>
						<time>2023-03-02T16:03:09Z</time>
					</trkpt>
					<trkpt lat="48.866560" lon="2.224710">
						<ele>40</ele>
						<time>2023-03-02T16:03:19Z</time>
					</trkpt>
					<trkpt lat="48.866430" lon="2.224590">
						<ele>40</ele>
						<time>2023-03-02T16:03:22Z</time>
					</trkpt>
					<trkpt lat="48.866320" lon="2.224510">
						<ele>40</ele>
						<time>2023-03-02T16:03:24Z</time>
					</trkpt>
					<trkpt lat="48.866270" lon="2.224390">
						<ele>40</ele>
						<time>2023-03-02T16:03:26Z</time>
					</trkpt>
					<trkpt lat="48.866120" lon="2.224070">
						<ele>40</ele>
						<time>2023-03-02T16:03:30Z</time>
					</trkpt>
					<trkpt lat="48.866110" lon="2.224000">
						<ele>41</ele>
						<time>2023-03-02T16:03:31Z</time>
					</trkpt>
					<trkpt lat="48.866080" lon="2.223960">
						<ele>41</ele>
						<time>2023-03-02T16:03:32Z</time>
					</trkpt>
					<trkpt lat="48.866040" lon="2.223940">
						<ele>41</ele>
						<time>2023-03-02T16:03:33Z</time>
					</trkpt>
					<trkpt lat="48.866030" lon="2.223870">
						<ele>41</ele>
						<time>2023-03-02T16:03:33Z</time>
					</trkpt>
					<trkpt lat="48.865480" lon="2.222700">
						<ele>40</ele>
						<time>2023-03-02T16:03:50Z</time>
					</trkpt>
					<trkpt lat="48.865030" lon="2.221800">
						<ele>40</ele>
						<time>2023-03-02T16:04:03Z</time>
					</trkpt>
					<trkpt lat="48.864910" lon="2.221500">
						<ele>41</ele>
						<time>2023-03-02T16:04:08Z</time>
					</trkpt>
					<trkpt lat="48.864760" lon="2.221220">
						<ele>42</ele>
						<time>2023-03-02T16:04:12Z</time>
					</trkpt>
					<trkpt lat="48.864730" lon="2.221170">
						<ele>42</ele>
						<time>2023-03-02T16:04:13Z</time>
					</trkpt>
					<trkpt lat="48.864700" lon="2.221100">
						<ele>43</ele>
						<time>2023-03-02T16:04:14Z</time>
					</trkpt>
					<trkpt lat="48.864620" lon="2.220930">
						<ele>44</ele>
						<time>2023-03-02T16:04:16Z</time>
					</trkpt>
					<trkpt lat="48.864280" lon="2.220270">
						<ele>47</ele>
						<time>2023-03-02T16:04:26Z</time>
					</trkpt>
					<trkpt lat="48.864230" lon="2.220120">
						<ele>48</ele>
						<time>2023-03-02T16:04:28Z</time>
					</trkpt>
					<trkpt lat="48.864080" lon="2.219820">
						<ele>50</ele>
						<time>2023-03-02T16:04:32Z</time>
					</trkpt>
					<trkpt lat="48.863720" lon="2.219000">
						<ele>56</ele>
						<time>2023-03-02T16:04:44Z</time>
					</trkpt>
					<trkpt lat="48.863660" lon="2.218950">
						<ele>57</ele>
						<time>2023-03-02T16:04:45Z</time>
					</trkpt>
					<trkpt lat="48.863120" lon="2.218710">
						<ele>59</ele>
						<time>2023-03-02T16:04:55Z</time>
					</trkpt>
					<trkpt lat="48.862900" lon="2.218510">
						<ele>61</ele>
						<time>2023-03-02T16:05:00Z</time>
					</trkpt>
					<trkpt lat="48.862700" lon="2.218180">
						<ele>63</ele>
						<time>2023-03-02T16:05:05Z</time>
					</trkpt>
					<trkpt lat="48.862640" lon="2.218010">
						<ele>64</ele>
						<time>2023-03-02T16:05:07Z</time>
					</trkpt>
					<trkpt lat="48.862630" lon="2.217890">
						<ele>65</ele>
						<time>2023-03-02T16:05:08Z</time>
					</trkpt>
					<trkpt lat="48.862670" lon="2.217830">
						<ele>65</ele>
						<time>2023-03-02T16:05:09Z</time>
					</trkpt>
					<trkpt lat="48.862740" lon="2.217760">
						<ele>66</ele>
						<time>2023-03-02T16:05:11Z</time>
					</trkpt>
					<trkpt lat="48.862570" lon="2.216910">
						<ele>72</ele>
						<time>2023-03-02T16:05:21Z</time>
					</trkpt>
					<trkpt lat="48.862510" lon="2.216710">
						<ele>73</ele>
						<time>2023-03-02T16:05:24Z</time>
					</trkpt>
					<trkpt lat="48.862430" lon="2.216550">
						<ele>73</ele>
						<time>2023-03-02T16:05:26Z</time>
					</trkpt>
					<trkpt lat="48.862340" lon="2.216430">
						<ele>74</ele>
						<time>2023-03-02T16:05:28Z</time>
					</trkpt>
					<trkpt lat="48.862270" lon="2.216370">
						<ele>74</ele>
						<time>2023-03-02T16:05:30Z</time>
					</trkpt>
					<trkpt lat="48.860650" lon="2.215290">
						<ele>80</ele>
						<time>2023-03-02T16:06:01Z</time>
					</trkpt>
					<trkpt lat="48.860200" lon="2.214960">
						<ele>81</ele>
						<time>2023-03-02T16:06:10Z</time>
					</trkpt>
					<trkpt lat="48.860080" lon="2.214850">
						<ele>81</ele>
						<time>2023-03-02T16:06:13Z</time>
					</trkpt>
					<trkpt lat="48.859910" lon="2.214610">
						<ele>82</ele>
						<time>2023-03-02T16:06:17Z</time>
					</trkpt>
					<trkpt lat="48.859820" lon="2.214440">
						<ele>82</ele>
						<time>2023-03-02T16:06:19Z</time>
					</trkpt>
					<trkpt lat="48.859750" lon="2.214280">
						<ele>83</ele>
						<time>2023-03-02T16:06:22Z</time>
					</trkpt>
					<trkpt lat="48.859260" lon="2.212620">
						<ele>90</ele>
						<time>2023-03-02T16:06:43Z</time>
					</trkpt>
					<trkpt lat="48.859160" lon="2.212350">
						<ele>91</ele>
						<time>2023-03-02T16:06:47Z</time>
					</trkpt>
					<trkpt lat="48.858970" lon="2.211610">
						<ele>91</ele>
						<time>2023-03-02T16:06:56Z</time>
					</trkpt>
					<trkpt lat="48.858810" lon="2.211380">
						<ele>92</ele>
						<time>2023-03-02T16:07:00Z</time>
					</trkpt>
					<trkpt lat="48.858490" lon="2.211120">
						<ele>93</ele>
						<time>2023-03-02T16:07:06Z</time>
					</trkpt>
					<trkpt lat="48.858090" lon="2.210910">
						<ele>94</ele>
						<time>2023-03-02T16:07:14Z</time>
					</trkpt>
					<trkpt lat="48.857840" lon="2.210840">
						<ele>97</ele>
						<time>2023-03-02T16:07:18Z</time>
					</trkpt>
					<trkpt lat="48.857540" lon="2.210870">
						<ele>99</ele>
						<time>2023-03-02T16:07:24Z</time>
					</trkpt>
					<trkpt lat="48.856950" lon="2.211090">
						<ele>102</ele>
						<time>2023-03-02T16:07:34Z</time>
					</trkpt>
					<trkpt lat="48.856780" lon="2.211230">
						<ele>103</ele>
						<time>2023-03-02T16:07:38Z</time>
					</trkpt>
					<trkpt lat="48.853990" lon="2.212190">
						<ele>105</ele>
						<time>2023-03-02T16:08:29Z</time>
					</trkpt>
					<trkpt lat="48.852700" lon="2.212610">
						<ele>109</ele>
						<time>2023-03-02T16:08:52Z</time>
					</trkpt>
					<trkpt lat="48.852500" lon="2.212670">
						<ele>110</ele>
						<time>2023-03-02T16:08:56Z</time>
					</trkpt>
					<trkpt lat="48.852540" lon="2.212540">
						<ele>110</ele>
						<time>2023-03-02T16:08:58Z</time>
					</trkpt>
					<trkpt lat="48.852540" lon="2.212390">
						<ele>110</ele>
						<time>2023-03-02T16:08:59Z</time>
					</trkpt>
					<trkpt lat="48.852500" lon="2.212140">
						<ele>111</ele>
						<time>2023-03-02T16:09:02Z</time>
					</trkpt>
					<trkpt lat="48.852420" lon="2.211890">
						<ele>112</ele>
						<time>2023-03-02T16:09:06Z</time>
					</trkpt>
					<trkpt lat="48.852400" lon="2.211760">
						<ele>112</ele>
						<time>2023-03-02T16:09:07Z</time>
					</trkpt>
					<trkpt lat="48.852410" lon="2.211470">
						<ele>112</ele>
						<time>2023-03-02T16:09:11Z</time>
					</trkpt>
					<trkpt lat="48.849360" lon="2.210980">
						<ele>125</ele>
						<time>2023-03-02T16:10:05Z</time>
					</trkpt>
					<trkpt lat="48.847490" lon="2.210680">
						<ele>128</ele>
						<time>2023-03-02T16:10:39Z</time>
					</trkpt>
					<trkpt lat="48.847440" lon="2.211340">
						<ele>127</ele>
						<time>2023-03-02T16:10:46Z</time>
					</trkpt>
					<trkpt lat="48.847020" lon="2.211350">
						<ele>127</ele>
						<time>2023-03-02T16:10:54Z</time>
					</trkpt>
					<trkpt lat="48.846890" lon="2.211320">
						<ele>126</ele>
						<time>2023-03-02T16:10:56Z</time>
					</trkpt>
					<trkpt lat="48.846560" lon="2.211360">
						<ele>125</ele>
						<time>2023-03-02T16:11:02Z</time>
					</trkpt>
					<trkpt lat="48.845360" lon="2.211100">
						<ele>117</ele>
						<time>2023-03-02T16:11:24Z</time>
					</trkpt>
					<trkpt lat="48.845120" lon="2.211010">
						<ele>116</ele>
						<time>2023-03-02T16:11:28Z</time>
					</trkpt>
					<trkpt lat="48.844960" lon="2.211000">
						<ele>115</ele>
						<time>2023-03-02T16:11:31Z</time>
					</trkpt>
					<trkpt lat="48.844830" lon="2.211020">
						<ele>114</ele>
						<time>2023-03-02T16:11:33Z</time>
					</trkpt>
					<trkpt lat="48.844450" lon="2.211020">
						<ele>112</ele>
						<time>2023-03-02T16:11:40Z</time>
					</trkpt>
					<trkpt lat="48.844390" lon="2.208160">
						<ele>111</ele>
						<time>2023-03-02T16:12:13Z</time>
					</trkpt>
					<trkpt lat="48.844370" lon="2.207920">
						<ele>110</ele>
						<time>2023-03-02T16:12:16Z</time>
					</trkpt>
					<trkpt lat="48.844290" lon="2.207540">
						<ele>109</ele>
						<time>2023-03-02T16:12:21Z</time>
					</trkpt>
					<trkpt lat="48.844210" lon="2.207390">
						<ele>108</ele>
						<time>2023-03-02T16:12:23Z</time>
					</trkpt>
					<trkpt lat="48.844040" lon="2.207160">
						<ele>108</ele>
						<time>2023-03-02T16:12:27Z</time>
					</trkpt>
					<trkpt lat="48.843820" lon="2.206990">
						<ele>107</ele>
						<time>2023-03-02T16:12:32Z</time>
					</trkpt>
					<trkpt lat="48.843690" lon="2.206930">
						<ele>106</ele>
						<time>2023-03-02T16:12:34Z</time>
					</trkpt>
					<trkpt lat="48.843260" lon="2.206940">
						<ele>105</ele>
						<time>2023-03-02T16:12:42Z</time>
					</trkpt>
					<trkpt lat="48.842760" lon="2.206990">
						<ele>104</ele>
						<time>2023-03-02T16:12:51Z</time>
					</trkpt>
					<trkpt lat="48.842340" lon="2.206940">
						<ele>102</ele>
						<time>2023-03-02T16:12:58Z</time>
					</trkpt>
					<trkpt lat="48.842280" lon="2.206930">
						<ele>102</ele>
						<time>2023-03-02T16:12:59Z</time>
					</trkpt>
					<trkpt lat="48.842250" lon="2.206960">
						<ele>102</ele>
						<time>2023-03-02T16:13:00Z</time>
					</trkpt>
					<trkpt lat="48.842060" lon="2.206990">
						<ele>102</ele>
						<time>2023-03-02T16:13:03Z</time>
					</trkpt>
					<trkpt lat="48.841840" lon="2.207070">
						<ele>101</ele>
						<time>2023-03-02T16:13:07Z</time>
					</trkpt>
					<trkpt lat="48.840880" lon="2.207160">
						<ele>96</ele>
						<time>2023-03-02T16:13:24Z</time>
					</trkpt>
					<trkpt lat="48.840660" lon="2.207180">
						<ele>95</ele>
						<time>2023-03-02T16:13:28Z</time>
					</trkpt>
					<trkpt lat="48.840380" lon="2.207180">
						<ele>93</ele>
						<time>2023-03-02T16:13:33Z</time>
					</trkpt>
					<trkpt lat="48.840280" lon="2.207150">
						<ele>93</ele>
						<time>2023-03-02T16:13:35Z</time>
					</trkpt>
					<trkpt lat="48.840110" lon="2.207070">
						<ele>92</ele>
						<time>2023-03-02T16:13:38Z</time>
					</trkpt>
					<trkpt lat="48.840070" lon="2.207040">
						<ele>91</ele>
						<time>2023-03-02T16:13:39Z</time>
					</trkpt>
					<trkpt lat="48.839870" lon="2.206890">
						<ele>91</ele>
						<time>2023-03-02T16:13:43Z</time>
					</trkpt>
					<trkpt lat="48.839770" lon="2.206780">
						<ele>91</ele>
						<time>2023-03-02T16:13:45Z</time>
					</trkpt>
					<trkpt lat="48.839630" lon="2.206570">
						<ele>90</ele>
						<time>2023-03-02T16:13:49Z</time>
					</trkpt>
					<trkpt lat="48.839190" lon="2.205660">
						<ele>88</ele>
						<time>2023-03-02T16:14:02Z</time>
					</trkpt>
					<trkpt lat="48.838990" lon="2.205390">
						<ele>90</ele>
						<time>2023-03-02T16:14:07Z</time>
					</trkpt>
					<trkpt lat="48.838580" lon="2.204700">
						<ele>92</ele>
						<time>2023-03-02T16:14:18Z</time>
					</trkpt>
					<trkpt lat="48.837930" lon="2.203850">
						<ele>93</ele>
						<time>2023-03-02T16:14:33Z</time>
					</trkpt>
					<trkpt lat="48.837510" lon="2.203380">
						<ele>97</ele>
						<time>2023-03-02T16:14:42Z</time>
					</trkpt>
					<trkpt lat="48.837000" lon="2.202900">
						<ele>99</ele>
						<time>2023-03-02T16:14:53Z</time>
					</trkpt>
					<trkpt lat="48.835830" lon="2.201830">
						<ele>106</ele>
						<time>2023-03-02T16:15:17Z</time>
					</trkpt>
					<trkpt lat="48.834360" lon="2.200280">
						<ele>113</ele>
						<time>2023-03-02T16:15:49Z</time>
					</trkpt>
					<trkpt lat="48.834130" lon="2.200000">
						<ele>115</ele>
						<time>2023-03-02T16:15:54Z</time>
					</trkpt>
					<trkpt lat="48.830520" lon="2.195270">
						<ele>129</ele>
						<time>2023-03-02T16:17:19Z</time>
					</trkpt>
					<trkpt lat="48.830320" lon="2.195020">
						<ele>126</ele>
						<time>2023-03-02T16:17:24Z</time>
					</trkpt>
					<trkpt lat="48.829410" lon="2.193840">
						<ele>117</ele>
						<time>2023-03-02T16:17:45Z</time>
					</trkpt>
					<trkpt lat="48.829050" lon="2.193430">
						<ele>115</ele>
						<time>2023-03-02T16:17:53Z</time>
					</trkpt>
					<trkpt lat="48.828870" lon="2.193200">
						<ele>115</ele>
						<time>2023-03-02T16:17:57Z</time>
					</trkpt>
					<trkpt lat="48.828740" lon="2.192930">
						<ele>115</ele>
						<time>2023-03-02T16:18:01Z</time>
					</trkpt>
					<trkpt lat="48.828640" lon="2.192650">
						<ele>115</ele>
						<time>2023-03-02T16:18:05Z</time>
					</trkpt>
					<trkpt lat="48.828540" lon="2.192020">
						<ele>116</ele>
						<time>2023-03-02T16:18:12Z</time>
					</trkpt>
					<trkpt lat="48.828270" lon="2.190000">
						<ele>115</ele>
						<time>2023-03-02T16:18:37Z</time>
					</trkpt>
					<trkpt lat="48.828230" lon="2.189860">
						<ele>116</ele>
						<time>2023-03-02T16:18:38Z</time>
					</trkpt>
					<trkpt lat="48.828060" lon="2.189500">
						<ele>116</ele>
						<time>2023-03-02T16:18:43Z</time>
					</trkpt>
					<trkpt lat="48.827730" lon="2.189000">
						<ele>115</ele>
						<time>2023-03-02T16:18:52Z</time>
					</trkpt>
					<trkpt lat="48.827660" lon="2.188910">
						<ele>115</ele>
						<time>2023-03-02T16:18:53Z</time>
					</trkpt>
					<trkpt lat="48.827510" lon="2.188840">
						<ele>113</ele>
						<time>2023-03-02T16:18:56Z</time>
					</trkpt>
					<trkpt lat="48.827100" lon="2.188750">
						<ele>112</ele>
						<time>2023-03-02T16:19:04Z</time>
					</trkpt>
					<trkpt lat="48.827100" lon="2.188700">
						<ele>112</ele>
						<time>2023-03-02T16:19:04Z</time>
					</trkpt>
					<trkpt lat="48.827000" lon="2.188470">
						<ele>113</ele>
						<time>2023-03-02T16:19:07Z</time>
					</trkpt>
					<trkpt lat="48.826930" lon="2.188420">
						<ele>113</ele>
						<time>2023-03-02T16:19:09Z</time>
					</trkpt>
					<trkpt lat="48.826860" lon="2.188480">
						<ele>113</ele>
						<time>2023-03-02T16:19:10Z</time>
					</trkpt>
					<trkpt lat="48.826840" lon="2.188530">
						<ele>113</ele>
						<time>2023-03-02T16:19:11Z</time>
					</trkpt>
					<trkpt lat="48.826640" lon="2.188440">
						<ele>113</ele>
						<time>2023-03-02T16:19:15Z</time>
					</trkpt>
					<trkpt lat="48.826490" lon="2.188330">
						<ele>114</ele>
						<time>2023-03-02T16:19:18Z</time>
					</trkpt>
					<trkpt lat="48.826400" lon="2.188230">
						<ele>115</ele>
						<time>2023-03-02T16:19:20Z</time>
					</trkpt>
					<trkpt lat="48.826070" lon="2.187730">
						<ele>121</ele>
						<time>2023-03-02T16:19:28Z</time>
					</trkpt>
					<trkpt lat="48.825430" lon="2.187420">
						<ele>121</ele>
						<time>2023-03-02T16:19:40Z</time>
					</trkpt>
					<trkpt lat="48.825040" lon="2.186930">
						<ele>124</ele>
						<time>2023-03-02T16:19:49Z</time>
					</trkpt>
					<trkpt lat="48.824580" lon="2.186310">
						<ele>130</ele>
						<time>2023-03-02T16:20:00Z</time>
					</trkpt>
					<trkpt lat="48.822970" lon="2.184640">
						<ele>133</ele>
						<time>2023-03-02T16:20:34Z</time>
					</trkpt>
					<trkpt lat="48.822550" lon="2.184060">
						<ele>128</ele>
						<time>2023-03-02T16:20:45Z</time>
					</trkpt>
					<trkpt lat="48.822280" lon="2.183610">
						<ele>130</ele>
						<time>2023-03-02T16:20:52Z</time>
					</trkpt>
					<trkpt lat="48.822160" lon="2.183330">
						<ele>131</ele>
						<time>2023-03-02T16:20:56Z</time>
					</trkpt>
					<trkpt lat="48.821990" lon="2.182690">
						<ele>130</ele>
						<time>2023-03-02T16:21:04Z</time>
					</trkpt>
					<trkpt lat="48.821980" lon="2.182500">
						<ele>130</ele>
						<time>2023-03-02T16:21:06Z</time>
					</trkpt>
					<trkpt lat="48.821950" lon="2.182380">
						<ele>130</ele>
						<time>2023-03-02T16:21:07Z</time>
					</trkpt>
					<trkpt lat="48.821910" lon="2.182230">
						<ele>130</ele>
						<time>2023-03-02T16:21:09Z</time>
					</trkpt>
					<trkpt lat="48.821390" lon="2.179930">
						<ele>134</ele>
						<time>2023-03-02T16:21:38Z</time>
					</trkpt>
					<trkpt lat="48.821370" lon="2.179690">
						<ele>134</ele>
						<time>2023-03-02T16:21:41Z</time>
					</trkpt>
					<trkpt lat="48.821390" lon="2.178740">
						<ele>134</ele>
						<time>2023-03-02T16:21:52Z</time>
					</trkpt>
					<trkpt lat="48.821380" lon="2.178470">
						<ele>134</ele>
						<time>2023-03-02T16:21:55Z</time>
					</trkpt>
					<trkpt lat="48.821260" lon="2.177270">
						<ele>134</ele>
						<time>2023-03-02T16:22:09Z</time>
					</trkpt>
					<trkpt lat="48.821230" lon="2.175840">
						<ele>137</ele>
						<time>2023-03-02T16:22:26Z</time>
					</trkpt>
					<trkpt lat="48.821210" lon="2.175450">
						<ele>137</ele>
						<time>2023-03-02T16:22:30Z</time>
					</trkpt>
					<trkpt lat="48.821120" lon="2.174580">
						<ele>136</ele>
						<time>2023-03-02T16:22:41Z</time>
					</trkpt>
					<trkpt lat="48.821050" lon="2.174390">
						<ele>135</ele>
						<time>2023-03-02T16:22:43Z</time>
					</trkpt>
					<trkpt lat="48.821000" lon="2.174100">
						<ele>134</ele>
						<time>2023-03-02T16:22:47Z</time>
					</trkpt>
					<trkpt lat="48.820600" lon="2.172370">
						<ele>134</ele>
						<time>2023-03-02T16:23:08Z</time>
					</trkpt>
					<trkpt lat="48.820380" lon="2.171790">
						<ele>134</ele>
						<time>2023-03-02T16:23:16Z</time>
					</trkpt>
					<trkpt lat="48.820340" lon="2.171570">
						<ele>134</ele>
						<time>2023-03-02T16:23:19Z</time>
					</trkpt>
					<trkpt lat="48.820250" lon="2.171430">
						<ele>134</ele>
						<time>2023-03-02T16:23:21Z</time>
					</trkpt>
					<trkpt lat="48.819760" lon="2.170150">
						<ele>134</ele>
						<time>2023-03-02T16:23:38Z</time>
					</trkpt>
					<trkpt lat="48.819580" lon="2.169460">
						<ele>135</ele>
						<time>2023-03-02T16:23:47Z</time>
					</trkpt>
					<trkpt lat="48.819530" lon="2.169170">
						<ele>136</ele>
						<time>2023-03-02T16:23:51Z</time>
					</trkpt>
					<trkpt lat="48.819490" lon="2.169040">
						<ele>136</ele>
						<time>2023-03-02T16:23:52Z</time>
					</trkpt>
					<trkpt lat="48.819410" lon="2.168870">
						<ele>135</ele>
						<time>2023-03-02T16:23:55Z</time>
					</trkpt>
					<trkpt lat="48.818510" lon="2.166360">
						<ele>135</ele>
						<time>2023-03-02T16:24:28Z</time>
					</trkpt>
					<trkpt lat="48.818520" lon="2.166240">
						<ele>135</ele>
						<time>2023-03-02T16:24:30Z</time>
					</trkpt>
					<trkpt lat="48.818500" lon="2.166150">
						<ele>135</ele>
						<time>2023-03-02T16:24:31Z</time>
					</trkpt>
					<trkpt lat="48.818410" lon="2.165910">
						<ele>136</ele>
						<time>2023-03-02T16:24:34Z</time>
					</trkpt>
					<trkpt lat="48.818340" lon="2.165840">
						<ele>136</ele>
						<time>2023-03-02T16:24:36Z</time>
					</trkpt>
					<trkpt lat="48.818190" lon="2.165410">
						<ele>138</ele>
						<time>2023-03-02T16:24:41Z</time>
					</trkpt>
					<trkpt lat="48.817940" lon="2.164580">
						<ele>140</ele>
						<time>2023-03-02T16:24:52Z</time>
					</trkpt>
					<trkpt lat="48.817720" lon="2.163920">
						<ele>140</ele>
						<time>2023-03-02T16:25:01Z</time>
					</trkpt>
					<trkpt lat="48.817390" lon="2.163030">
						<ele>142</ele>
						<time>2023-03-02T16:25:13Z</time>
					</trkpt>
					<trkpt lat="48.817270" lon="2.162630">
						<ele>143</ele>
						<time>2023-03-02T16:25:18Z</time>
					</trkpt>
					<trkpt lat="48.816850" lon="2.161580">
						<ele>149</ele>
						<time>2023-03-02T16:25:32Z</time>
					</trkpt>
					<trkpt lat="48.816440" lon="2.160690">
						<ele>155</ele>
						<time>2023-03-02T16:25:45Z</time>
					</trkpt>
					<trkpt lat="48.815870" lon="2.159610">
						<ele>159</ele>
						<time>2023-03-02T16:26:01Z</time>
					</trkpt>
					<trkpt lat="48.815680" lon="2.159350">
						<ele>160</ele>
						<time>2023-03-02T16:26:06Z</time>
					</trkpt>
					<trkpt lat="48.814660" lon="2.157520">
						<ele>174</ele>
						<time>2023-03-02T16:26:34Z</time>
					</trkpt>
					<trkpt lat="48.811810" lon="2.152350">
						<ele>166</ele>
						<time>2023-03-02T16:27:53Z</time>
					</trkpt>
					<trkpt lat="48.811560" lon="2.151910">
						<ele>163</ele>
						<time>2023-03-02T16:28:00Z</time>
					</trkpt>
					<trkpt lat="48.811540" lon="2.151820">
						<ele>163</ele>
						<time>2023-03-02T16:28:01Z</time>
					</trkpt>
					<trkpt lat="48.811280" lon="2.151350">
						<ele>161</ele>
						<time>2023-03-02T16:28:08Z</time>
					</trkpt>
					<trkpt lat="48.810930" lon="2.150730">
						<ele>156</ele>
						<time>2023-03-02T16:28:17Z</time>
					</trkpt>
					<trkpt lat="48.810910" lon="2.150660">
						<ele>155</ele>
						<time>2023-03-02T16:28:18Z</time>
					</trkpt>
					<trkpt lat="48.810910" lon="2.150480">
						<ele>155</ele>
						<time>2023-03-02T16:28:20Z</time>
					</trkpt>
					<trkpt lat="48.810870" lon="2.150320">
						<ele>154</ele>
						<time>2023-03-02T16:28:22Z</time>
					</trkpt>
					<trkpt lat="48.810530" lon="2.149940">
						<ele>151</ele>
						<time>2023-03-02T16:28:30Z</time>
					</trkpt>
					<trkpt lat="48.810260" lon="2.149470">
						<ele>146</ele>
						<time>2023-03-02T16:28:37Z</time>
					</trkpt>
					<trkpt lat="48.810150" lon="2.149620">
						<ele>147</ele>
						<time>2023-03-02T16:28:40Z</time>
					</trkpt>
					<trkpt lat="48.809980" lon="2.149320">
						<ele>145</ele>
						<time>2023-03-02T16:28:44Z</time>
					</trkpt>
					<trkpt lat="48.809810" lon="2.148950">
						<ele>143</ele>
						<time>2023-03-02T16:28:50Z</time>
					</trkpt>
					<trkpt lat="48.809220" lon="2.147880">
						<ele>140</ele>
						<time>2023-03-02T16:29:06Z</time>
					</trkpt>
					<trkpt lat="48.809130" lon="2.147780">
						<ele>140</ele>
						<time>2023-03-02T16:29:08Z</time>
					</trkpt>
					<trkpt lat="48.809090" lon="2.147750">
						<ele>139</ele>
						<time>2023-03-02T16:29:09Z</time>
					</trkpt>
					<trkpt lat="48.809080" lon="2.147710">
						<ele>139</ele>
						<time>2023-03-02T16:29:09Z</time>
					</trkpt>
					<trkpt lat="48.808580" lon="2.146760">
						<ele>136</ele>
						<time>2023-03-02T16:29:24Z</time>
					</trkpt>
					<trkpt lat="48.808530" lon="2.146670">
						<ele>135</ele>
						<time>2023-03-02T16:29:25Z</time>
					</trkpt>
					<trkpt lat="48.808500" lon="2.146560">
						<ele>135</ele>
						<time>2023-03-02T16:29:26Z</time>
					</trkpt>
					<trkpt lat="48.808320" lon="2.146250">
						<ele>135</ele>
						<time>2023-03-02T16:29:31Z</time>
					</trkpt>
					<trkpt lat="48.808050" lon="2.145840">
						<ele>135</ele>
						<time>2023-03-02T16:29:38Z</time>
					</trkpt>
					<trkpt lat="48.807720" lon="2.145280">
						<ele>134</ele>
						<time>2023-03-02T16:29:47Z</time>
					</trkpt>
					<trkpt lat="48.805760" lon="2.141730">
						<ele>139</ele>
						<time>2023-03-02T16:30:41Z</time>
					</trkpt>
					<trkpt lat="48.805960" lon="2.141520">
						<ele>139</ele>
						<time>2023-03-02T16:30:45Z</time>
					</trkpt>
					<trkpt lat="48.805980" lon="2.141290">
						<ele>139</ele>
						<time>2023-03-02T16:30:48Z</time>
					</trkpt>
					<trkpt lat="48.805950" lon="2.141110">
						<ele>139</ele>
						<time>2023-03-02T16:30:50Z</time>
					</trkpt>
					<trkpt lat="48.805800" lon="2.140810">
						<ele>139</ele>
						<time>2023-03-02T16:30:55Z</time>
					</trkpt>
					<trkpt lat="48.805790" lon="2.140660">
						<ele>140</ele>
						<time>2023-03-02T16:30:57Z</time>
					</trkpt>
					<trkpt lat="48.805490" lon="2.136420">
						<ele>140</ele>
						<time>2023-03-02T16:31:47Z</time>
					</trkpt>
					<trkpt lat="48.805430" lon="2.135700">
						<ele>138</ele>
						<time>2023-03-02T16:31:55Z</time>
					</trkpt>
					<trkpt lat="48.805130" lon="2.131380">
						<ele>133</ele>
						<time>2023-03-02T16:32:46Z</time>
					</trkpt>
					<trkpt lat="48.805100" lon="2.131070">
						<ele>133</ele>
						<time>2023-03-02T16:32:50Z</time>
					</trkpt>
					<trkpt lat="48.804970" lon="2.131030">
						<ele>132</ele>
						<time>2023-03-02T16:32:52Z</time>
					</trkpt>
					<trkpt lat="48.804800" lon="2.130990">
						<ele>132</ele>
						<time>2023-03-02T16:32:55Z</time>
					</trkpt>
					<trkpt lat="48.804660" lon="2.131000">
						<ele>132</ele>
						<time>2023-03-02T16:32:58Z</time>
					</trkpt>
					<trkpt lat="48.804260" lon="2.130860">
						<ele>130</ele>
						<time>2023-03-02T16:33:05Z</time>
					</trkpt>
					<trkpt lat="48.804160" lon="2.130790">
						<ele>130</ele>
						<time>2023-03-02T16:33:07Z</time>
					</trkpt>
					<trkpt lat="48.804070" lon="2.130800">
						<ele>131</ele>
						<time>2023-03-02T16:33:08Z</time>
					</trkpt>
					<trkpt lat="48.803190" lon="2.130280">
						<ele>132</ele>
						<time>2023-03-02T16:33:25Z</time>
					</trkpt>
					<trkpt lat="48.802580" lon="2.129910">
						<ele>132</ele>
						<time>2023-03-02T16:33:37Z</time>
					</trkpt>
					<trkpt lat="48.802570" lon="2.129840">
						<ele>132</ele>
						<time>2023-03-02T16:33:38Z</time>
					</trkpt>
					<trkpt lat="48.802520" lon="2.129800">
						<ele>132</ele>
						<time>2023-03-02T16:33:39Z</time>
					</trkpt>
					<trkpt lat="48.800820" lon="2.128770">
						<ele>130</ele>
						<time>2023-03-02T16:34:11Z</time>
					</trkpt>
					<trkpt lat="48.800580" lon="2.128590">
						<ele>130</ele>
						<time>2023-03-02T16:34:16Z</time>
					</trkpt>
					<trkpt lat="48.800260" lon="2.128390">
						<ele>129</ele>
						<time>2023-03-02T16:34:22Z</time>
					</trkpt>
					<trkpt lat="48.799950" lon="2.128220">
						<ele>128</ele>
						<time>2023-03-02T16:34:28Z</time>
					</trkpt>
					<trkpt lat="48.799350" lon="2.127830">
						<ele>129</ele>
						<time>2023-03-02T16:34:40Z</time>
					</trkpt>
					<trkpt lat="48.799110" lon="2.127740">
						<ele>129</ele>
						<time>2023-03-02T16:34:44Z</time>
					</trkpt>
					<trkpt lat="48.798780" lon="2.127520">
						<ele>130</ele>
						<time>2023-03-02T16:34:51Z</time>
					</trkpt>
					<trkpt lat="48.799420" lon="2.125260">
						<ele>129</ele>
						<time>2023-03-02T16:35:19Z</time>
					</trkpt>
					<trkpt lat="48.799650" lon="2.124440">
						<ele>129</ele>
						<time>2023-03-02T16:35:30Z</time>
					</trkpt>
					<trkpt lat="48.794130" lon="2.120740">
						<ele>139</ele>
						<time>2023-03-02T16:37:17Z</time>
					</trkpt>
					<trkpt lat="48.793680" lon="2.120430">
						<ele>141</ele>
						<time>2023-03-02T16:37:26Z</time>
					</trkpt>
					<trkpt lat="48.793630" lon="2.120360">
						<ele>141</ele>
						<time>2023-03-02T16:37:27Z</time>
					</trkpt>
					<trkpt lat="48.793520" lon="2.120270">
						<ele>142</ele>
						<time>2023-03-02T16:37:29Z</time>
					</trkpt>
					<trkpt lat="48.793530" lon="2.120200">
						<ele>142</ele>
						<time>2023-03-02T16:37:30Z</time>
					</trkpt>
					<trkpt lat="48.793330" lon="2.120030">
						<ele>143</ele>
						<time>2023-03-02T16:37:34Z</time>
					</trkpt>
					<trkpt lat="48.793280" lon="2.119960">
						<ele>143</ele>
						<time>2023-03-02T16:37:36Z</time>
					</trkpt>
					<trkpt lat="48.792900" lon="2.118930">
						<ele>146</ele>
						<time>2023-03-02T16:37:49Z</time>
					</trkpt>
					<trkpt lat="48.792870" lon="2.118960">
						<ele>146</ele>
						<time>2023-03-02T16:37:50Z</time>
					</trkpt>
					<trkpt lat="48.792730" lon="2.118610">
						<ele>147</ele>
						<time>2023-03-02T16:37:55Z</time>
					</trkpt>
					<trkpt lat="48.792660" lon="2.118550">
						<ele>147</ele>
						<time>2023-03-02T16:37:56Z</time>
					</trkpt>
					<trkpt lat="48.792450" lon="2.117960">
						<ele>149</ele>
						<time>2023-03-02T16:38:04Z</time>
					</trkpt>
					<trkpt lat="48.792420" lon="2.117790">
						<ele>150</ele>
						<time>2023-03-02T16:38:06Z</time>
					</trkpt>
					<trkpt lat="48.791050" lon="2.114090">
						<ele>163</ele>
						<time>2023-03-02T16:38:56Z</time>
					</trkpt>
					<trkpt lat="48.790990" lon="2.113740">
						<ele>166</ele>
						<time>2023-03-02T16:39:00Z</time>
					</trkpt>
					<trkpt lat="48.790960" lon="2.113360">
						<ele>168</ele>
						<time>2023-03-02T16:39:05Z</time>
					</trkpt>
					<trkpt lat="48.790960" lon="2.111570">
						<ele>180</ele>
						<time>2023-03-02T16:39:26Z</time>
					</trkpt>
					<trkpt lat="48.790970" lon="2.110930">
						<ele>180</ele>
						<time>2023-03-02T16:39:33Z</time>
					</trkpt>
					<trkpt lat="48.791020" lon="2.110580">
						<ele>179</ele>
						<time>2023-03-02T16:39:37Z</time>
					</trkpt>
					<trkpt lat="48.791290" lon="2.109420">
						<ele>180</ele>
						<time>2023-03-02T16:39:52Z</time>
					</trkpt>
					<trkpt lat="48.791340" lon="2.109090">
						<ele>180</ele>
						<time>2023-03-02T16:39:56Z</time>
					</trkpt>
					<trkpt lat="48.791340" lon="2.108870">
						<ele>180</ele>
						<time>2023-03-02T16:39:58Z</time>
					</trkpt>
					<trkpt lat="48.791310" lon="2.108250">
						<ele>179</ele>
						<time>2023-03-02T16:40:06Z</time>
					</trkpt>
					<trkpt lat="48.791260" lon="2.107910">
						<ele>178</ele>
						<time>2023-03-02T16:40:10Z</time>
					</trkpt>
					<trkpt lat="48.791170" lon="2.107670">
						<ele>178</ele>
						<time>2023-03-02T16:40:13Z</time>
					</trkpt>
					<trkpt lat="48.791030" lon="2.107450">
						<ele>177</ele>
						<time>2023-03-02T16:40:16Z</time>
					</trkpt>
					<trkpt lat="48.790760" lon="2.107150">
						<ele>176</ele>
						<time>2023-03-02T16:40:22Z</time>
					</trkpt>
					<trkpt lat="48.790100" lon="2.106770">
						<ele>177</ele>
						<time>2023-03-02T16:40:35Z</time>
					</trkpt>
					<trkpt lat="48.789540" lon="2.106410">
						<ele>177</ele>
						<time>2023-03-02T16:40:46Z</time>
					</trkpt>
					<trkpt lat="48.788340" lon="2.105710">
						<ele>176</ele>
						<time>2023-03-02T16:41:09Z</time>
					</trkpt>
					<trkpt lat="48.788040" lon="2.105570">
						<ele>175</ele>
						<time>2023-03-02T16:41:14Z</time>
					</trkpt>
					<trkpt lat="48.787920" lon="2.105480">
						<ele>174</ele>
						<time>2023-03-02T16:41:17Z</time>
					</trkpt>
					<trkpt lat="48.787680" lon="2.105380">
						<ele>174</ele>
						<time>2023-03-02T16:41:21Z</time>
					</trkpt>
					<trkpt lat="48.787290" lon="2.105270">
						<ele>173</ele>
						<time>2023-03-02T16:41:28Z</time>
					</trkpt>
					<trkpt lat="48.786510" lon="2.105190">
						<ele>171</ele>
						<time>2023-03-02T16:41:42Z</time>
					</trkpt>
					<trkpt lat="48.786430" lon="2.105060">
						<ele>170</ele>
						<time>2023-03-02T16:41:44Z</time>
					</trkpt>
					<trkpt lat="48.786330" lon="2.104980">
						<ele>170</ele>
						<time>2023-03-02T16:41:46Z</time>
					</trkpt>
					<trkpt lat="48.786180" lon="2.104970">
						<ele>170</ele>
						<time>2023-03-02T16:41:49Z</time>
					</trkpt>
					<trkpt lat="48.786040" lon="2.105080">
						<ele>169</ele>
						<time>2023-03-02T16:41:52Z</time>
					</trkpt>
					<trkpt lat="48.785990" lon="2.105150">
						<ele>169</ele>
						<time>2023-03-02T16:41:53Z</time>
					</trkpt>
					<trkpt lat="48.785930" lon="2.105180">
						<ele>169</ele>
						<time>2023-03-02T16:41:54Z</time>
					</trkpt>
					<trkpt lat="48.785230" lon="2.105300">
						<ele>166</ele>
						<time>2023-03-02T16:42:06Z</time>
					</trkpt>
					<trkpt lat="48.785000" lon="2.105380">
						<ele>164</ele>
						<time>2023-03-02T16:42:11Z</time>
					</trkpt>
					<trkpt lat="48.784570" lon="2.105600">
						<ele>164</ele>
						<time>2023-03-02T16:42:19Z</time>
					</trkpt>
					<trkpt lat="48.784310" lon="2.105820">
						<ele>164</ele>
						<time>2023-03-02T16:42:24Z</time>
					</trkpt>
					<trkpt lat="48.783970" lon="2.106060">
						<ele>164</ele>
						<time>2023-03-02T16:42:31Z</time>
					</trkpt>
					<trkpt lat="48.783710" lon="2.106200">
						<ele>164</ele>
						<time>2023-03-02T16:42:36Z</time>
					</trkpt>
					<trkpt lat="48.783420" lon="2.106300">
						<ele>164</ele>
						<time>2023-03-02T16:42:41Z</time>
					</trkpt>
					<trkpt lat="48.783000" lon="2.106360">
						<ele>165</ele>
						<time>2023-03-02T16:42:48Z</time>
					</trkpt>
					<trkpt lat="48.782770" lon="2.106340">
						<ele>165</ele>
						<time>2023-03-02T16:42:53Z</time>
					</trkpt>
					<trkpt lat="48.782450" lon="2.106250">
						<ele>165</ele>
						<time>2023-03-02T16:42:58Z</time>
					</trkpt>
					<trkpt lat="48.782040" lon="2.106070">
						<ele>165</ele>
						<time>2023-03-02T16:43:06Z</time>
					</trkpt>
					<trkpt lat="48.781430" lon="2.105760">
						<ele>164</ele>
						<time>2023-03-02T16:43:17Z</time>
					</trkpt>
					<trkpt lat="48.780990" lon="2.105470">
						<ele>162</ele>
						<time>2023-03-02T16:43:26Z</time>
					</trkpt>
					<trkpt lat="48.780510" lon="2.105080">
						<ele>160</ele>
						<time>2023-03-02T16:43:36Z</time>
					</trkpt>
					<trkpt lat="48.780260" lon="2.104840">
						<ele>160</ele>
						<time>2023-03-02T16:43:41Z</time>
					</trkpt>
					<trkpt lat="48.780020" lon="2.104530">
						<ele>160</ele>
						<time>2023-03-02T16:43:46Z</time>
					</trkpt>
					<trkpt lat="48.779770" lon="2.104170">
						<ele>162</ele>
						<time>2023-03-02T16:43:53Z</time>
					</trkpt>
					<trkpt lat="48.779540" lon="2.103760">
						<ele>162</ele>
						<time>2023-03-02T16:43:59Z</time>
					</trkpt>
					<trkpt lat="48.779340" lon="2.103320">
						<ele>162</ele>
						<time>2023-03-02T16:44:05Z</time>
					</trkpt>
					<trkpt lat="48.779170" lon="2.102860">
						<ele>162</ele>
						<time>2023-03-02T16:44:11Z</time>
					</trkpt>
					<trkpt lat="48.779080" lon="2.102500">
						<ele>161</ele>
						<time>2023-03-02T16:44:16Z</time>
					</trkpt>
					<trkpt lat="48.779050" lon="2.102170">
						<ele>160</ele>
						<time>2023-03-02T16:44:20Z</time>
					</trkpt>
					<trkpt lat="48.779050" lon="2.101900">
						<ele>159</ele>
						<time>2023-03-02T16:44:23Z</time>
					</trkpt>
					<trkpt lat="48.779080" lon="2.101580">
						<ele>158</ele>
						<time>2023-03-02T16:44:27Z</time>
					</trkpt>
					<trkpt lat="48.779140" lon="2.101300">
						<ele>157</ele>
						<time>2023-03-02T16:44:30Z</time>
					</trkpt>
					<trkpt lat="48.779240" lon="2.101020">
						<ele>157</ele>
						<time>2023-03-02T16:44:34Z</time>
					</trkpt>
					<trkpt lat="48.779370" lon="2.100760">
						<ele>156</ele>
						<time>2023-03-02T16:44:38Z</time>
					</trkpt>
					<trkpt lat="48.779580" lon="2.100470">
						<ele>155</ele>
						<time>2023-03-02T16:44:43Z</time>
					</trkpt>
					<trkpt lat="48.779660" lon="2.100400">
						<ele>154</ele>
						<time>2023-03-02T16:44:44Z</time>
					</trkpt>
					<trkpt lat="48.780280" lon="2.100000">
						<ele>153</ele>
						<time>2023-03-02T16:44:56Z</time>
					</trkpt>
					<trkpt lat="48.780580" lon="2.099730">
						<ele>151</ele>
						<time>2023-03-02T16:45:03Z</time>
					</trkpt>
					<trkpt lat="48.780790" lon="2.099460">
						<ele>150</ele>
						<time>2023-03-02T16:45:08Z</time>
					</trkpt>
					<trkpt lat="48.780930" lon="2.099240">
						<ele>149</ele>
						<time>2023-03-02T16:45:11Z</time>
					</trkpt>
					<trkpt lat="48.781050" lon="2.099020">
						<ele>148</ele>
						<time>2023-03-02T16:45:14Z</time>
					</trkpt>
					<trkpt lat="48.781150" lon="2.098780">
						<ele>148</ele>
						<time>2023-03-02T16:45:18Z</time>
					</trkpt>
					<trkpt lat="48.781210" lon="2.098450">
						<ele>146</ele>
						<time>2023-03-02T16:45:22Z</time>
					</trkpt>
					<trkpt lat="48.781220" lon="2.098160">
						<ele>145</ele>
						<time>2023-03-02T16:45:25Z</time>
					</trkpt>
					<trkpt lat="48.781120" lon="2.096970">
						<ele>139</ele>
						<time>2023-03-02T16:45:39Z</time>
					</trkpt>
					<trkpt lat="48.781070" lon="2.096650">
						<ele>137</ele>
						<time>2023-03-02T16:45:43Z</time>
					</trkpt>
					<trkpt lat="48.780990" lon="2.096460">
						<ele>137</ele>
						<time>2023-03-02T16:45:46Z</time>
					</trkpt>
					<trkpt lat="48.780930" lon="2.096350">
						<ele>136</ele>
						<time>2023-03-02T16:45:47Z</time>
					</trkpt>
					<trkpt lat="48.780750" lon="2.096170">
						<ele>134</ele>
						<time>2023-03-02T16:45:51Z</time>
					</trkpt>
					<trkpt lat="48.780470" lon="2.096090">
						<ele>131</ele>
						<time>2023-03-02T16:45:56Z</time>
					</trkpt>
					<trkpt lat="48.779870" lon="2.096170">
						<ele>125</ele>
						<time>2023-03-02T16:46:07Z</time>
					</trkpt>
					<trkpt lat="48.779610" lon="2.096150">
						<ele>125</ele>
						<time>2023-03-02T16:46:12Z</time>
					</trkpt>
					<trkpt lat="48.779260" lon="2.096160">
						<ele>125</ele>
						<time>2023-03-02T16:46:18Z</time>
					</trkpt>
					<trkpt lat="48.779090" lon="2.096130">
						<ele>125</ele>
						<time>2023-03-02T16:46:21Z</time>
					</trkpt>
					<trkpt lat="48.779010" lon="2.096090">
						<ele>126</ele>
						<time>2023-03-02T16:46:22Z</time>
					</trkpt>
					<trkpt lat="48.778970" lon="2.096000">
						<ele>127</ele>
						<time>2023-03-02T16:46:24Z</time>
					</trkpt>
					<trkpt lat="48.778980" lon="2.095780">
						<ele>128</ele>
						<time>2023-03-02T16:46:26Z</time>
					</trkpt>
					<trkpt lat="48.779250" lon="2.095510">
						<ele>130</ele>
						<time>2023-03-02T16:46:32Z</time>
					</trkpt>
					<trkpt lat="48.779270" lon="2.095540">
						<ele>130</ele>
						<time>2023-03-02T16:46:33Z</time>
					</trkpt>
					<trkpt lat="48.779330" lon="2.095570">
						<ele>129</ele>
						<time>2023-03-02T16:46:34Z</time>
					</trkpt>
					<trkpt lat="48.779380" lon="2.095510">
						<ele>129</ele>
						<time>2023-03-02T16:46:35Z</time>
					</trkpt>
					<trkpt lat="48.779390" lon="2.095450">
						<ele>130</ele>
						<time>2023-03-02T16:46:36Z</time>
					</trkpt>
					<trkpt lat="48.779380" lon="2.095390">
						<ele>130</ele>
						<time>2023-03-02T16:46:36Z</time>
					</trkpt>
					<trkpt lat="48.779330" lon="2.095350">
						<ele>131</ele>
						<time>2023-03-02T16:46:37Z</time>
					</trkpt>
					<trkpt lat="48.779290" lon="2.095360">
						<ele>131</ele>
						<time>2023-03-02T16:46:38Z</time>
					</trkpt>
					<trkpt lat="48.779270" lon="2.095400">
						<ele>131</ele>
						<time>2023-03-02T16:46:39Z</time>
					</trkpt>
					<trkpt lat="48.779250" lon="2.095430">
						<ele>131</ele>
						<time>2023-03-02T16:46:39Z</time>
					</trkpt>
					<trkpt lat="48.779250" lon="2.095510">
						<ele>130</ele>
						<time>2023-03-02T16:46:40Z</time>
					</trkpt>
					<trkpt lat="48.778980" lon="2.095780">
						<ele>128</ele>
						<time>2023-03-02T16:46:46Z</time>
					</trkpt>
					<trkpt lat="48.778630" lon="2.096140">
						<ele>125</ele>
						<time>2023-03-02T16:46:53Z</time>
					</trkpt>
					<trkpt lat="48.778340" lon="2.096020">
						<ele>126</ele>
						<time>2023-03-02T16:46:59Z</time>
					</trkpt>
					<trkpt lat="48.777920" lon="2.095750">
						<ele>129</ele>
						<time>2023-03-02T16:47:07Z</time>
					</trkpt>
					<trkpt lat="48.777370" lon="2.095270">
						<ele>135</ele>
						<time>2023-03-02T16:47:18Z</time>
					</trkpt>
					<trkpt lat="48.776760" lon="2.094800">
						<ele>138</ele>
						<time>2023-03-02T16:47:30Z</time>
					</trkpt>
					<trkpt lat="48.776550" lon="2.094570">
						<ele>141</ele>
						<time>2023-03-02T16:47:35Z</time>
					</trkpt>
					<trkpt lat="48.775800" lon="2.093530">
						<ele>151</ele>
						<time>2023-03-02T16:47:53Z</time>
					</trkpt>
					<trkpt lat="48.775720" lon="2.093370">
						<ele>152</ele>
						<time>2023-03-02T16:47:55Z</time>
					</trkpt>
					<trkpt lat="48.775610" lon="2.093080">
						<ele>154</ele>
						<time>2023-03-02T16:47:59Z</time>
					</trkpt>
					<trkpt lat="48.775440" lon="2.092060">
						<ele>157</ele>
						<time>2023-03-02T16:48:12Z</time>
					</trkpt>
					<trkpt lat="48.775360" lon="2.091760">
						<ele>157</ele>
						<time>2023-03-02T16:48:15Z</time>
					</trkpt>
					<trkpt lat="48.774670" lon="2.090130">
						<ele>162</ele>
						<time>2023-03-02T16:48:38Z</time>
					</trkpt>
					<trkpt lat="48.774490" lon="2.089410">
						<ele>162</ele>
						<time>2023-03-02T16:48:47Z</time>
					</trkpt>
					<trkpt lat="48.773670" lon="2.085470">
						<ele>164</ele>
						<time>2023-03-02T16:49:36Z</time>
					</trkpt>
					<trkpt lat="48.773490" lon="2.084770">
						<ele>163</ele>
						<time>2023-03-02T16:49:44Z</time>
					</trkpt>
					<trkpt lat="48.773360" lon="2.084370">
						<ele>164</ele>
						<time>2023-03-02T16:49:50Z</time>
					</trkpt>
					<trkpt lat="48.773190" lon="2.084020">
						<ele>164</ele>
						<time>2023-03-02T16:49:55Z</time>
					</trkpt>
					<trkpt lat="48.772960" lon="2.083650">
						<ele>164</ele>
						<time>2023-03-02T16:50:01Z</time>
					</trkpt>
					<trkpt lat="48.772710" lon="2.083330">
						<ele>163</ele>
						<time>2023-03-02T16:50:06Z</time>
					</trkpt>
					<trkpt lat="48.772480" lon="2.083120">
						<ele>161</ele>
						<time>2023-03-02T16:50:11Z</time>
					</trkpt>
					<trkpt lat="48.772210" lon="2.082970">
						<ele>161</ele>
						<time>2023-03-02T16:50:16Z</time>
					</trkpt>
					<trkpt lat="48.771340" lon="2.082570">
						<ele>159</ele>
						<time>2023-03-02T16:50:33Z</time>
					</trkpt>
					<trkpt lat="48.771330" lon="2.082490">
						<ele>159</ele>
						<time>2023-03-02T16:50:33Z</time>
					</trkpt>
					<trkpt lat="48.771300" lon="2.082440">
						<ele>159</ele>
						<time>2023-03-02T16:50:34Z</time>
					</trkpt>
					<trkpt lat="48.771260" lon="2.082230">
						<ele>159</ele>
						<time>2023-03-02T16:50:37Z</time>
					</trkpt>
					<trkpt lat="48.771180" lon="2.082040">
						<ele>160</ele>
						<time>2023-03-02T16:50:39Z</time>
					</trkpt>
					<trkpt lat="48.771170" lon="2.081950">
						<ele>160</ele>
						<time>2023-03-02T16:50:41Z</time>
					</trkpt>
					<trkpt lat="48.770940" lon="2.081820">
						<ele>159</ele>
						<time>2023-03-02T16:50:45Z</time>
					</trkpt>
					<trkpt lat="48.770890" lon="2.081910">
						<ele>159</ele>
						<time>2023-03-02T16:50:46Z</time>
					</trkpt>
					<trkpt lat="48.770750" lon="2.081990">
						<ele>159</ele>
						<time>2023-03-02T16:50:49Z</time>
					</trkpt>
					<trkpt lat="48.770680" lon="2.082060">
						<ele>160</ele>
						<time>2023-03-02T16:50:50Z</time>
					</trkpt>
					<trkpt lat="48.770590" lon="2.082110">
						<ele>160</ele>
						<time>2023-03-02T16:50:52Z</time>
					</trkpt>
					<trkpt lat="48.770500" lon="2.082080">
						<ele>160</ele>
						<time>2023-03-02T16:50:54Z</time>
					</trkpt>
					<trkpt lat="48.770300" lon="2.081990">
						<ele>160</ele>
						<time>2023-03-02T16:50:58Z</time>
					</trkpt>
					<trkpt lat="48.770170" lon="2.081940">
						<ele>160</ele>
						<time>2023-03-02T16:51:00Z</time>
					</trkpt>
					<trkpt lat="48.766470" lon="2.080360">
						<ele>161</ele>
						<time>2023-03-02T16:52:08Z</time>
					</trkpt>
					<trkpt lat="48.766420" lon="2.080320">
						<ele>161</ele>
						<time>2023-03-02T16:52:09Z</time>
					</trkpt>
					<trkpt lat="48.766380" lon="2.080220">
						<ele>161</ele>
						<time>2023-03-02T16:52:11Z</time>
					</trkpt>
					<trkpt lat="48.766330" lon="2.080000">
						<ele>161</ele>
						<time>2023-03-02T16:52:13Z</time>
					</trkpt>
					<trkpt lat="48.766320" lon="2.079940">
						<ele>161</ele>
						<time>2023-03-02T16:52:14Z</time>
					</trkpt>
					<trkpt lat="48.766340" lon="2.079900">
						<ele>161</ele>
						<time>2023-03-02T16:52:15Z</time>
					</trkpt>
					<trkpt lat="48.766220" lon="2.079750">
						<ele>161</ele>
						<time>2023-03-02T16:52:17Z</time>
					</trkpt>
					<trkpt lat="48.766180" lon="2.079720">
						<ele>161</ele>
						<time>2023-03-02T16:52:18Z</time>
					</trkpt>
					<trkpt lat="48.766130" lon="2.079780">
						<ele>161</ele>
						<time>2023-03-02T16:52:19Z</time>
					</trkpt>
					<trkpt lat="48.765990" lon="2.079790">
						<ele>161</ele>
						<time>2023-03-02T16:52:22Z</time>
					</trkpt>
					<trkpt lat="48.765850" lon="2.079710">
						<ele>160</ele>
						<time>2023-03-02T16:52:25Z</time>
					</trkpt>
					<trkpt lat="48.765660" lon="2.079950">
						<ele>160</ele>
						<time>2023-03-02T16:52:29Z</time>
					</trkpt>
					<trkpt lat="48.765320" lon="2.079260">
						<ele>160</ele>
						<time>2023-03-02T16:52:39Z</time>
					</trkpt>
					<trkpt lat="48.763430" lon="2.075680">
						<ele>164</ele>
						<time>2023-03-02T16:53:33Z</time>
					</trkpt>
					<trkpt lat="48.762610" lon="2.074060">
						<ele>165</ele>
						<time>2023-03-02T16:53:57Z</time>
					</trkpt>
					<trkpt lat="48.762400" lon="2.073730">
						<ele>165</ele>
						<time>2023-03-02T16:54:02Z</time>
					</trkpt>
					<trkpt lat="48.762120" lon="2.073450">
						<ele>165</ele>
						<time>2023-03-02T16:54:08Z</time>
					</trkpt>
					<trkpt lat="48.762080" lon="2.073350">
						<ele>165</ele>
						<time>2023-03-02T16:54:10Z</time>
					</trkpt>
					<trkpt lat="48.761930" lon="2.073030">
						<ele>164</ele>
						<time>2023-03-02T16:54:14Z</time>
					</trkpt>
					<trkpt lat="48.761870" lon="2.073050">
						<ele>164</ele>
						<time>2023-03-02T16:54:15Z</time>
					</trkpt>
					<trkpt lat="48.761730" lon="2.073020">
						<ele>164</ele>
						<time>2023-03-02T16:54:18Z</time>
					</trkpt>
					<trkpt lat="48.761640" lon="2.072980">
						<ele>164</ele>
						<time>2023-03-02T16:54:19Z</time>
					</trkpt>
					<trkpt lat="48.761560" lon="2.072890">
						<ele>163</ele>
						<time>2023-03-02T16:54:21Z</time>
					</trkpt>
					<trkpt lat="48.761520" lon="2.072880">
						<ele>163</ele>
						<time>2023-03-02T16:54:22Z</time>
					</trkpt>
					<trkpt lat="48.761480" lon="2.072760">
						<ele>163</ele>
						<time>2023-03-02T16:54:23Z</time>
					</trkpt>
					<trkpt lat="48.761460" lon="2.072770">
						<ele>163</ele>
						<time>2023-03-02T16:54:24Z</time>
					</trkpt>
					<trkpt lat="48.761440" lon="2.072700">
						<ele>163</ele>
						<time>2023-03-02T16:54:25Z</time>
					</trkpt>
					<trkpt lat="48.761410" lon="2.072420">
						<ele>162</ele>
						<time>2023-03-02T16:54:28Z</time>
					</trkpt>
					<trkpt lat="48.761450" lon="2.072100">
						<ele>162</ele>
						<time>2023-03-02T16:54:32Z</time>
					</trkpt>
					<trkpt lat="48.761490" lon="2.072010">
						<ele>162</ele>
						<time>2023-03-02T16:54:33Z</time>
					</trkpt>
					<trkpt lat="48.761570" lon="2.071860">
						<ele>162</ele>
						<time>2023-03-02T16:54:35Z</time>
					</trkpt>
					<trkpt lat="48.761690" lon="2.071760">
						<ele>162</ele>
						<time>2023-03-02T16:54:38Z</time>
					</trkpt>
					<trkpt lat="48.761310" lon="2.071050">
						<ele>163</ele>
						<time>2023-03-02T16:54:49Z</time>
					</trkpt>
					<trkpt lat="48.761150" lon="2.070590">
						<ele>163</ele>
						<time>2023-03-02T16:54:55Z</time>
					</trkpt>
					<trkpt lat="48.761060" lon="2.069920">
						<ele>164</ele>
						<time>2023-03-02T16:55:03Z</time>
					</trkpt>
					<trkpt lat="48.761060" lon="2.069430">
						<ele>164</ele>
						<time>2023-03-02T16:55:08Z</time>
					</trkpt>
					<trkpt lat="48.761090" lon="2.069060">
						<ele>164</ele>
						<time>2023-03-02T16:55:13Z</time>
					</trkpt>
					<trkpt lat="48.761170" lon="2.068650">
						<ele>164</ele>
						<time>2023-03-02T16:55:18Z</time>
					</trkpt>
					<trkpt lat="48.762190" lon="2.065110">
						<ele>162</ele>
						<time>2023-03-02T16:56:03Z</time>
					</trkpt>
					<trkpt lat="48.762260" lon="2.064760">
						<ele>161</ele>
						<time>2023-03-02T16:56:07Z</time>
					</trkpt>
					<trkpt lat="48.762360" lon="2.063780">
						<ele>160</ele>
						<time>2023-03-02T16:56:19Z</time>
					</trkpt>
					<trkpt lat="48.762430" lon="2.063670">
						<ele>159</ele>
						<time>2023-03-02T16:56:21Z</time>
					</trkpt>
					<trkpt lat="48.762460" lon="2.063520">
						<ele>159</ele>
						<time>2023-03-02T16:56:23Z</time>
					</trkpt>
					<trkpt lat="48.762440" lon="2.063360">
						<ele>159</ele>
						<time>2023-03-02T16:56:25Z</time>
					</trkpt>
					<trkpt lat="48.762400" lon="2.063280">
						<ele>159</ele>
						<time>2023-03-02T16:56:26Z</time>
					</trkpt>
					<trkpt lat="48.762350" lon="2.063220">
						<ele>159</ele>
						<time>2023-03-02T16:56:27Z</time>
					</trkpt>
					<trkpt lat="48.762290" lon="2.063180">
						<ele>159</ele>
						<time>2023-03-02T16:56:28Z</time>
					</trkpt>
					<trkpt lat="48.762070" lon="2.062380">
						<ele>160</ele>
						<time>2023-03-02T16:56:38Z</time>
					</trkpt>
					<trkpt lat="48.761730" lon="2.061630">
						<ele>159</ele>
						<time>2023-03-02T16:56:49Z</time>
					</trkpt>
					<trkpt lat="48.759250" lon="2.056740">
						<ele>161</ele>
						<time>2023-03-02T16:58:01Z</time>
					</trkpt>
					<trkpt lat="48.759180" lon="2.056510">
						<ele>161</ele>
						<time>2023-03-02T16:58:04Z</time>
					</trkpt>
					<trkpt lat="48.758960" lon="2.055800">
						<ele>163</ele>
						<time>2023-03-02T16:58:13Z</time>
					</trkpt>
					<trkpt lat="48.758980" lon="2.055760">
						<ele>163</ele>
						<time>2023-03-02T16:58:14Z</time>
					</trkpt>
					<trkpt lat="48.758970" lon="2.055660">
						<ele>163</ele>
						<time>2023-03-02T16:58:15Z</time>
					</trkpt>
					<trkpt lat="48.758930" lon="2.055590">
						<ele>163</ele>
						<time>2023-03-02T16:58:16Z</time>
					</trkpt>
					<trkpt lat="48.758870" lon="2.055420">
						<ele>163</ele>
						<time>2023-03-02T16:58:19Z</time>
					</trkpt>
					<trkpt lat="48.758740" lon="2.054970">
						<ele>163</ele>
						<time>2023-03-02T16:58:24Z</time>
					</trkpt>
					<trkpt lat="48.758730" lon="2.054870">
						<ele>163</ele>
						<time>2023-03-02T16:58:26Z</time>
					</trkpt>
					<trkpt lat="48.758750" lon="2.054780">
						<ele>163</ele>
						<time>2023-03-02T16:58:27Z</time>
					</trkpt>
					<trkpt lat="48.758720" lon="2.054730">
						<ele>163</ele>
						<time>2023-03-02T16:58:27Z</time>
					</trkpt>
					<trkpt lat="48.758670" lon="2.054750">
						<ele>163</ele>
						<time>2023-03-02T16:58:28Z</time>
					</trkpt>
					<trkpt lat="48.758620" lon="2.054610">
						<ele>163</ele>
						<time>2023-03-02T16:58:30Z</time>
					</trkpt>
					<trkpt lat="48.758590" lon="2.054430">
						<ele>163</ele>
						<time>2023-03-02T16:58:32Z</time>
					</trkpt>
					<trkpt lat="48.758360" lon="2.051350">
						<ele>164</ele>
						<time>2023-03-02T16:59:09Z</time>
					</trkpt>
					<trkpt lat="48.758060" lon="2.050210">
						<ele>164</ele>
						<time>2023-03-02T16:59:23Z</time>
					</trkpt>
					<trkpt lat="48.757150" lon="2.050740">
						<ele>165</ele>
						<time>2023-03-02T16:59:41Z</time>
					</trkpt>
					<trkpt lat="48.757000" lon="2.050840">
						<ele>165</ele>
						<time>2023-03-02T16:59:43Z</time>
					</trkpt>
					<trkpt lat="48.756890" lon="2.050990">
						<ele>165</ele>
						<time>2023-03-02T16:59:46Z</time>
					</trkpt>
					<trkpt lat="48.756800" lon="2.051180">
						<ele>165</ele>
						<time>2023-03-02T16:59:49Z</time>
					</trkpt>
					<trkpt lat="48.756710" lon="2.051640">
						<ele>165</ele>
						<time>2023-03-02T16:59:54Z</time>
					</trkpt>
					<trkpt lat="48.754690" lon="2.051350">
						<ele>166</ele>
						<time>2023-03-02T17:00:31Z</time>
					</trkpt>
					<trkpt lat="48.754680" lon="2.051280">
						<ele>166</ele>
						<time>2023-03-02T17:00:31Z</time>
					</trkpt>
					<trkpt lat="48.754630" lon="2.051230">
						<ele>166</ele>
						<time>2023-03-02T17:00:32Z</time>
					</trkpt>
					<trkpt lat="48.754570" lon="2.051270">
						<ele>165</ele>
						<time>2023-03-02T17:00:34Z</time>
					</trkpt>
					<trkpt lat="48.754550" lon="2.051330">
						<ele>165</ele>
						<time>2023-03-02T17:00:34Z</time>
					</trkpt>
					<trkpt lat="48.753310" lon="2.051140">
						<ele>164</ele>
						<time>2023-03-02T17:00:57Z</time>
					</trkpt>
					<trkpt lat="48.752150" lon="2.050790">
						<ele>164</ele>
						<time>2023-03-02T17:01:18Z</time>
					</trkpt>
					<trkpt lat="48.750870" lon="2.050480">
						<ele>160</ele>
						<time>2023-03-02T17:01:41Z</time>
					</trkpt>
					<trkpt lat="48.750770" lon="2.050510">
						<ele>159</ele>
						<time>2023-03-02T17:01:43Z</time>
					</trkpt>
					<trkpt lat="48.750730" lon="2.050570">
						<ele>159</ele>
						<time>2023-03-02T17:01:44Z</time>
					</trkpt>
					<trkpt lat="48.750700" lon="2.050680">
						<ele>158</ele>
						<time>2023-03-02T17:01:45Z</time>
					</trkpt>
					<trkpt lat="48.750670" lon="2.051010">
						<ele>157</ele>
						<time>2023-03-02T17:01:49Z</time>
					</trkpt>
					<trkpt lat="48.750590" lon="2.051310">
						<ele>156</ele>
						<time>2023-03-02T17:01:53Z</time>
					</trkpt>
					<trkpt lat="48.750560" lon="2.051360">
						<ele>155</ele>
						<time>2023-03-02T17:01:53Z</time>
					</trkpt>
					<trkpt lat="48.750520" lon="2.051390">
						<ele>155</ele>
						<time>2023-03-02T17:01:54Z</time>
					</trkpt>
					<trkpt lat="48.750290" lon="2.051360">
						<ele>152</ele>
						<time>2023-03-02T17:01:58Z</time>
					</trkpt>
					<trkpt lat="48.749870" lon="2.050990">
						<ele>147</ele>
						<time>2023-03-02T17:02:07Z</time>
					</trkpt>
					<trkpt lat="48.749680" lon="2.050670">
						<ele>145</ele>
						<time>2023-03-02T17:02:12Z</time>
					</trkpt>
					<trkpt lat="48.749170" lon="2.049460">
						<ele>142</ele>
						<time>2023-03-02T17:02:29Z</time>
					</trkpt>
					<trkpt lat="48.748890" lon="2.049220">
						<ele>139</ele>
						<time>2023-03-02T17:02:35Z</time>
					</trkpt>
					<trkpt lat="48.748650" lon="2.049080">
						<ele>137</ele>
						<time>2023-03-02T17:02:39Z</time>
					</trkpt>
					<trkpt lat="48.748530" lon="2.049090">
						<ele>135</ele>
						<time>2023-03-02T17:02:41Z</time>
					</trkpt>
					<trkpt lat="48.748340" lon="2.049430">
						<ele>131</ele>
						<time>2023-03-02T17:02:47Z</time>
					</trkpt>
					<trkpt lat="48.748310" lon="2.049490">
						<ele>131</ele>
						<time>2023-03-02T17:02:47Z</time>
					</trkpt>
					<trkpt lat="48.747760" lon="2.050530">
						<ele>134</ele>
						<time>2023-03-02T17:03:03Z</time>
					</trkpt>
					<trkpt lat="48.747760" lon="2.050960">
						<ele>135</ele>
						<time>2023-03-02T17:03:08Z</time>
					</trkpt>
					<trkpt lat="48.747720" lon="2.053240">
						<ele>141</ele>
						<time>2023-03-02T17:03:35Z</time>
					</trkpt>
					<trkpt lat="48.747610" lon="2.053870">
						<ele>142</ele>
						<time>2023-03-02T17:03:42Z</time>
					</trkpt>
					<trkpt lat="48.747460" lon="2.054360">
						<ele>143</ele>
						<time>2023-03-02T17:03:49Z</time>
					</trkpt>
					<trkpt lat="48.746610" lon="2.056260">
						<ele>146</ele>
						<time>2023-03-02T17:04:16Z</time>
					</trkpt>
					<trkpt lat="48.746410" lon="2.056520">
						<ele>144</ele>
						<time>2023-03-02T17:04:20Z</time>
					</trkpt>
					<trkpt lat="48.746160" lon="2.056540">
						<ele>144</ele>
						<time>2023-03-02T17:04:25Z</time>
					</trkpt>
					<trkpt lat="48.745820" lon="2.056190">
						<ele>146</ele>
						<time>2023-03-02T17:04:32Z</time>
					</trkpt>
					<trkpt lat="48.745090" lon="2.055200">
						<ele>150</ele>
						<time>2023-03-02T17:04:50Z</time>
					</trkpt>
					<trkpt lat="48.744960" lon="2.055070">
						<ele>151</ele>
						<time>2023-03-02T17:04:52Z</time>
					</trkpt>
					<trkpt lat="48.744850" lon="2.055000">
						<ele>152</ele>
						<time>2023-03-02T17:04:55Z</time>
					</trkpt>
					<trkpt lat="48.744470" lon="2.054880">
						<ele>151</ele>
						<time>2023-03-02T17:05:01Z</time>
					</trkpt>
					<trkpt lat="48.743870" lon="2.054860">
						<ele>152</ele>
						<time>2023-03-02T17:05:12Z</time>
					</trkpt>
					<trkpt lat="48.743710" lon="2.054870">
						<ele>152</ele>
						<time>2023-03-02T17:05:15Z</time>
					</trkpt>
					<trkpt lat="48.743520" lon="2.054940">
						<ele>153</ele>
						<time>2023-03-02T17:05:18Z</time>
					</trkpt>
					<trkpt lat="48.743320" lon="2.055110">
						<ele>153</ele>
						<time>2023-03-02T17:05:23Z</time>
					</trkpt>
					<trkpt lat="48.743140" lon="2.055340">
						<ele>154</ele>
						<time>2023-03-02T17:05:27Z</time>
					</trkpt>
					<trkpt lat="48.742960" lon="2.055560">
						<ele>154</ele>
						<time>2023-03-02T17:05:31Z</time>
					</trkpt>
					<trkpt lat="48.742660" lon="2.056050">
						<ele>156</ele>
						<time>2023-03-02T17:05:39Z</time>
					</trkpt>
					<trkpt lat="48.742600" lon="2.056080">
						<ele>157</ele>
						<time>2023-03-02T17:05:40Z</time>
					</trkpt>
					<trkpt lat="48.742520" lon="2.056780">
						<ele>156</ele>
						<time>2023-03-02T17:05:48Z</time>
					</trkpt>
					<trkpt lat="48.742490" lon="2.057720">
						<ele>157</ele>
						<time>2023-03-02T17:05:59Z</time>
					</trkpt>
					<trkpt lat="48.742550" lon="2.058930">
						<ele>157</ele>
						<time>2023-03-02T17:06:13Z</time>
					</trkpt>
					<trkpt lat="48.742530" lon="2.059080">
						<ele>157</ele>
						<time>2023-03-02T17:06:15Z</time>
					</trkpt>
					<trkpt lat="48.742440" lon="2.059160">
						<ele>157</ele>
						<time>2023-03-02T17:06:17Z</time>
					</trkpt>
					<trkpt lat="48.742050" lon="2.059230">
						<ele>157</ele>
						<time>2023-03-02T17:06:24Z</time>
					</trkpt>
					<trkpt lat="48.740950" lon="2.059540">
						<ele>158</ele>
						<time>2023-03-02T17:06:44Z</time>
					</trkpt>
					<trkpt lat="48.740740" lon="2.059670">
						<ele>158</ele>
						<time>2023-03-02T17:06:48Z</time>
					</trkpt>
					<trkpt lat="48.740660" lon="2.059650">
						<ele>158</ele>
						<time>2023-03-02T17:06:49Z</time>
					</trkpt>
					<trkpt lat="48.740580" lon="2.059530">
						<ele>158</ele>
						<time>2023-03-02T17:06:51Z</time>
					</trkpt>
					<trkpt lat="48.739720" lon="2.061230">
						<ele>158</ele>
						<time>2023-03-02T17:07:17Z</time>
					</trkpt>
					<trkpt lat="48.739430" lon="2.061850">
						<ele>160</ele>
						<time>2023-03-02T17:07:26Z</time>
					</trkpt>
					<trkpt lat="48.739300" lon="2.062240">
						<ele>159</ele>
						<time>2023-03-02T17:07:31Z</time>
					</trkpt>
					<trkpt lat="48.739210" lon="2.062580">
						<ele>159</ele>
						<time>2023-03-02T17:07:35Z</time>
					</trkpt>
					<trkpt lat="48.739020" lon="2.063610">
						<ele>157</ele>
						<time>2023-03-02T17:07:47Z</time>
					</trkpt>
					<trkpt lat="48.738940" lon="2.063910">
						<ele>157</ele>
						<time>2023-03-02T17:07:51Z</time>
					</trkpt>
					<trkpt lat="48.738670" lon="2.064750">
						<ele>157</ele>
						<time>2023-03-02T17:08:02Z</time>
					</trkpt>
					<trkpt lat="48.738430" lon="2.065440">
						<ele>158</ele>
						<time>2023-03-02T17:08:11Z</time>
					</trkpt>
					<trkpt lat="48.738320" lon="2.065710">
						<ele>159</ele>
						<time>2023-03-02T17:08:15Z</time>
					</trkpt>
					<trkpt lat="48.738060" lon="2.066170">
						<ele>160</ele>
						<time>2023-03-02T17:08:22Z</time>
					</trkpt>
					<trkpt lat="48.737780" lon="2.066550">
						<ele>161</ele>
						<time>2023-03-02T17:08:29Z</time>
					</trkpt>
					<trkpt lat="48.737560" lon="2.066780">
						<ele>162</ele>
						<time>2023-03-02T17:08:34Z</time>
					</trkpt>
					<trkpt lat="48.736850" lon="2.067340">
						<ele>163</ele>
						<time>2023-03-02T17:08:48Z</time>
					</trkpt>
					<trkpt lat="48.736620" lon="2.067560">
						<ele>163</ele>
						<time>2023-03-02T17:08:53Z</time>
					</trkpt>
					<trkpt lat="48.736300" lon="2.067980">
						<ele>161</ele>
						<time>2023-03-02T17:09:00Z</time>
					</trkpt>
					<trkpt lat="48.736120" lon="2.068320">
						<ele>159</ele>
						<time>2023-03-02T17:09:05Z</time>
					</trkpt>
					<trkpt lat="48.736040" lon="2.068370">
						<ele>159</ele>
						<time>2023-03-02T17:09:07Z</time>
					</trkpt>
					<trkpt lat="48.735970" lon="2.068490">
						<ele>159</ele>
						<time>2023-03-02T17:09:09Z</time>
					</trkpt>
					<trkpt lat="48.735900" lon="2.068580">
						<ele>159</ele>
						<time>2023-03-02T17:09:10Z</time>
					</trkpt>
					<trkpt lat="48.735860" lon="2.068600">
						<ele>159</ele>
						<time>2023-03-02T17:09:11Z</time>
					</trkpt>
					<trkpt lat="48.735720" lon="2.068580">
						<ele>159</ele>
						<time>2023-03-02T17:09:14Z</time>
					</trkpt>
					<trkpt lat="48.735460" lon="2.068450">
						<ele>160</ele>
						<time>2023-03-02T17:09:19Z</time>
					</trkpt>
					<trkpt lat="48.734940" lon="2.068070">
						<ele>162</ele>
						<time>2023-03-02T17:09:29Z</time>
					</trkpt>
					<trkpt lat="48.734750" lon="2.067970">
						<ele>162</ele>
						<time>2023-03-02T17:09:32Z</time>
					</trkpt>
					<trkpt lat="48.734640" lon="2.067960">
						<ele>163</ele>
						<time>2023-03-02T17:09:34Z</time>
					</trkpt>
					<trkpt lat="48.734520" lon="2.068020">
						<ele>163</ele>
						<time>2023-03-02T17:09:37Z</time>
					</trkpt>
					<trkpt lat="48.734480" lon="2.068130">
						<ele>163</ele>
						<time>2023-03-02T17:09:38Z</time>
					</trkpt>
					<trkpt lat="48.734120" lon="2.070650">
						<ele>163</ele>
						<time>2023-03-02T17:10:08Z</time>
					</trkpt>
					<trkpt lat="48.734030" lon="2.070970">
						<ele>163</ele>
						<time>2023-03-02T17:10:12Z</time>
					</trkpt>
					<trkpt lat="48.733890" lon="2.071300">
						<ele>162</ele>
						<time>2023-03-02T17:10:17Z</time>
					</trkpt>
					<trkpt lat="48.733860" lon="2.071460">
						<ele>161</ele>
						<time>2023-03-02T17:10:19Z</time>
					</trkpt>
					<trkpt lat="48.733090" lon="2.072040">
						<ele>161</ele>
						<time>2023-03-02T17:10:34Z</time>
					</trkpt>
					<trkpt lat="48.731830" lon="2.072710">
						<ele>162</ele>
						<time>2023-03-02T17:10:58Z</time>
					</trkpt>
					<trkpt lat="48.731450" lon="2.072960">
						<ele>162</ele>
						<time>2023-03-02T17:11:05Z</time>
					</trkpt>
					<trkpt lat="48.731110" lon="2.073340">
						<ele>162</ele>
						<time>2023-03-02T17:11:13Z</time>
					</trkpt>
					<trkpt lat="48.730910" lon="2.073690">
						<ele>162</ele>
						<time>2023-03-02T17:11:18Z</time>
					</trkpt>
					<trkpt lat="48.730490" lon="2.074780">
						<ele>162</ele>
						<time>2023-03-02T17:11:33Z</time>
					</trkpt>
					<trkpt lat="48.729970" lon="2.076020">
						<ele>162</ele>
						<time>2023-03-02T17:11:50Z</time>
					</trkpt>
					<trkpt lat="48.729830" lon="2.076350">
						<ele>161</ele>
						<time>2023-03-02T17:11:55Z</time>
					</trkpt>
					<trkpt lat="48.729390" lon="2.077760">
						<ele>162</ele>
						<time>2023-03-02T17:12:13Z</time>
					</trkpt>
					<trkpt lat="48.729260" lon="2.078280">
						<ele>163</ele>
						<time>2023-03-02T17:12:20Z</time>
					</trkpt>
					<trkpt lat="48.729160" lon="2.078560">
						<ele>163</ele>
						<time>2023-03-02T17:12:24Z</time>
					</trkpt>
					<trkpt lat="48.729150" lon="2.078670">
						<ele>163</ele>
						<time>2023-03-02T17:12:25Z</time>
					</trkpt>
					<trkpt lat="48.729170" lon="2.079030">
						<ele>164</ele>
						<time>2023-03-02T17:12:29Z</time>
					</trkpt>
					<trkpt lat="48.729140" lon="2.079390">
						<ele>164</ele>
						<time>2023-03-02T17:12:33Z</time>
					</trkpt>
					<trkpt lat="48.729080" lon="2.079660">
						<ele>163</ele>
						<time>2023-03-02T17:12:37Z</time>
					</trkpt>
					<trkpt lat="48.728620" lon="2.080810">
						<ele>163</ele>
						<time>2023-03-02T17:12:53Z</time>
					</trkpt>
					<trkpt lat="48.728600" lon="2.080890">
						<ele>163</ele>
						<time>2023-03-02T17:12:54Z</time>
					</trkpt>
					<trkpt lat="48.728620" lon="2.081030">
						<ele>163</ele>
						<time>2023-03-02T17:12:55Z</time>
					</trkpt>
					<trkpt lat="48.728610" lon="2.081220">
						<ele>163</ele>
						<time>2023-03-02T17:12:57Z</time>
					</trkpt>
					<trkpt lat="48.728470" lon="2.081440">
						<ele>164</ele>
						<time>2023-03-02T17:13:01Z</time>
					</trkpt>
					<trkpt lat="48.727180" lon="2.081920">
						<ele>165</ele>
						<time>2023-03-02T17:13:25Z</time>
					</trkpt>
					<trkpt lat="48.727130" lon="2.081800">
						<ele>165</ele>
						<time>2023-03-02T17:13:26Z</time>
					</trkpt>
					<trkpt lat="48.727040" lon="2.081780">
						<ele>165</ele>
						<time>2023-03-02T17:13:28Z</time>
					</trkpt>
					<trkpt lat="48.727010" lon="2.081810">
						<ele>165</ele>
						<time>2023-03-02T17:13:29Z</time>
					</trkpt>
					<trkpt lat="48.726960" lon="2.081890">
						<ele>165</ele>
						<time>2023-03-02T17:13:30Z</time>
					</trkpt>
					<trkpt lat="48.726950" lon="2.081990">
						<ele>165</ele>
						<time>2023-03-02T17:13:31Z</time>
					</trkpt>
					<trkpt lat="48.727010" lon="2.082110">
						<ele>165</ele>
						<time>2023-03-02T17:13:33Z</time>
					</trkpt>
					<trkpt lat="48.727100" lon="2.082130">
						<ele>165</ele>
						<time>2023-03-02T17:13:34Z</time>
					</trkpt>
					<trkpt lat="48.727170" lon="2.082530">
						<ele>164</ele>
						<time>2023-03-02T17:13:39Z</time>
					</trkpt>
					<trkpt lat="48.727160" lon="2.082610">
						<ele>164</ele>
						<time>2023-03-02T17:13:40Z</time>
					</trkpt>
					<trkpt lat="48.727130" lon="2.082680">
						<ele>164</ele>
						<time>2023-03-02T17:13:41Z</time>
					</trkpt>
					<trkpt lat="48.726260" lon="2.083000">
						<ele>165</ele>
						<time>2023-03-02T17:13:57Z</time>
					</trkpt>
					<trkpt lat="48.726190" lon="2.083060">
						<ele>165</ele>
						<time>2023-03-02T17:13:59Z</time>
					</trkpt>
					<trkpt lat="48.725800" lon="2.083680">
						<ele>164</ele>
						<time>2023-03-02T17:14:09Z</time>
					</trkpt>
					<trkpt lat="48.725400" lon="2.084430">
						<ele>164</ele>
						<time>2023-03-02T17:14:20Z</time>
					</trkpt>
					<trkpt lat="48.725230" lon="2.084810">
						<ele>164</ele>
						<time>2023-03-02T17:14:25Z</time>
					</trkpt>
					<trkpt lat="48.724980" lon="2.085490">
						<ele>163</ele>
						<time>2023-03-02T17:14:35Z</time>
					</trkpt>
					<trkpt lat="48.724920" lon="2.085500">
						<ele>163</ele>
						<time>2023-03-02T17:14:36Z</time>
					</trkpt>
					<trkpt lat="48.724890" lon="2.085540">
						<ele>163</ele>
						<time>2023-03-02T17:14:36Z</time>
					</trkpt>
					<trkpt lat="48.724890" lon="2.085640">
						<ele>163</ele>
						<time>2023-03-02T17:14:38Z</time>
					</trkpt>
					<trkpt lat="48.724920" lon="2.085680">
						<ele>163</ele>
						<time>2023-03-02T17:14:38Z</time>
					</trkpt>
					<trkpt lat="48.724760" lon="2.086110">
						<ele>163</ele>
						<time>2023-03-02T17:14:44Z</time>
					</trkpt>
					<trkpt lat="48.724380" lon="2.086940">
						<ele>163</ele>
						<time>2023-03-02T17:14:56Z</time>
					</trkpt>
					<trkpt lat="48.724060" lon="2.087710">
						<ele>164</ele>
						<time>2023-03-02T17:15:07Z</time>
					</trkpt>
					<trkpt lat="48.723770" lon="2.088530">
						<ele>164</ele>
						<time>2023-03-02T17:15:17Z</time>
					</trkpt>
					<trkpt lat="48.723670" lon="2.088750">
						<ele>164</ele>
						<time>2023-03-02T17:15:21Z</time>
					</trkpt>
					<trkpt lat="48.723200" lon="2.089640">
						<ele>163</ele>
						<time>2023-03-02T17:15:34Z</time>
					</trkpt>
					<trkpt lat="48.723740" lon="2.090200">
						<ele>162</ele>
						<time>2023-03-02T17:15:46Z</time>
					</trkpt>
					<trkpt lat="48.723870" lon="2.090390">
						<ele>162</ele>
						<time>2023-03-02T17:15:49Z</time>
					</trkpt>
					<trkpt lat="48.723990" lon="2.090620">
						<ele>162</ele>
						<time>2023-03-02T17:15:52Z</time>
					</trkpt>
					<trkpt lat="48.724070" lon="2.090880">
						<ele>162</ele>
						<time>2023-03-02T17:15:56Z</time>
					</trkpt>
					<trkpt lat="48.724150" lon="2.091250">
						<ele>161</ele>
						<time>2023-03-02T17:16:00Z</time>
					</trkpt>
					<trkpt lat="48.724180" lon="2.091580">
						<ele>160</ele>
						<time>2023-03-02T17:16:04Z</time>
					</trkpt>
					<trkpt lat="48.724610" lon="2.093860">
						<ele>158</ele>
						<time>2023-03-02T17:16:32Z</time>
					</trkpt>
					<trkpt lat="48.724690" lon="2.094180">
						<ele>157</ele>
						<time>2023-03-02T17:16:36Z</time>
					</trkpt>
					<trkpt lat="48.724770" lon="2.094340">
						<ele>157</ele>
						<time>2023-03-02T17:16:38Z</time>
					</trkpt>
					<trkpt lat="48.724890" lon="2.094490">
						<ele>157</ele>
						<time>2023-03-02T17:16:41Z</time>
					</trkpt>
					<trkpt lat="48.725040" lon="2.094610">
						<ele>156</ele>
						<time>2023-03-02T17:16:44Z</time>
					</trkpt>
					<trkpt lat="48.725160" lon="2.094670">
						<ele>156</ele>
						<time>2023-03-02T17:16:46Z</time>
					</trkpt>
					<trkpt lat="48.725700" lon="2.094720">
						<ele>155</ele>
						<time>2023-03-02T17:16:56Z</time>
					</trkpt>
					<trkpt lat="48.725890" lon="2.094800">
						<ele>153</ele>
						<time>2023-03-02T17:17:00Z</time>
					</trkpt>
					<trkpt lat="48.726240" lon="2.094990">
						<ele>149</ele>
						<time>2023-03-02T17:17:06Z</time>
					</trkpt>
					<trkpt lat="48.726440" lon="2.095050">
						<ele>147</ele>
						<time>2023-03-02T17:17:10Z</time>
					</trkpt>
					<trkpt lat="48.726570" lon="2.095050">
						<ele>145</ele>
						<time>2023-03-02T17:17:12Z</time>
					</trkpt>
					<trkpt lat="48.726830" lon="2.094980">
						<ele>144</ele>
						<time>2023-03-02T17:17:17Z</time>
					</trkpt>
					<trkpt lat="48.727020" lon="2.094890">
						<ele>143</ele>
						<time>2023-03-02T17:17:20Z</time>
					</trkpt>
					<trkpt lat="48.727190" lon="2.094760">
						<ele>142</ele>
						<time>2023-03-02T17:17:24Z</time>
					</trkpt>
					<trkpt lat="48.727420" lon="2.094510">
						<ele>142</ele>
						<time>2023-03-02T17:17:29Z</time>
					</trkpt>
					<trkpt lat="48.727920" lon="2.093870">
						<ele>138</ele>
						<time>2023-03-02T17:17:40Z</time>
					</trkpt>
					<trkpt lat="48.728220" lon="2.093580">
						<ele>135</ele>
						<time>2023-03-02T17:17:47Z</time>
					</trkpt>
					<trkpt lat="48.728360" lon="2.093520">
						<ele>133</ele>
						<time>2023-03-02T17:17:49Z</time>
					</trkpt>
					<trkpt lat="48.728680" lon="2.093510">
						<ele>130</ele>
						<time>2023-03-02T17:17:55Z</time>
					</trkpt>
					<trkpt lat="48.728800" lon="2.093540">
						<ele>129</ele>
						<time>2023-03-02T17:17:57Z</time>
					</trkpt>
					<trkpt lat="48.729020" lon="2.093640">
						<ele>126</ele>
						<time>2023-03-02T17:18:01Z</time>
					</trkpt>
					<trkpt lat="48.729190" lon="2.093630">
						<ele>125</ele>
						<time>2023-03-02T17:18:04Z</time>
					</trkpt>
					<trkpt lat="48.729360" lon="2.093580">
						<ele>124</ele>
						<time>2023-03-02T17:18:07Z</time>
					</trkpt>
					<trkpt lat="48.729510" lon="2.093510">
						<ele>123</ele>
						<time>2023-03-02T17:18:10Z</time>
					</trkpt>
					<trkpt lat="48.729650" lon="2.093380">
						<ele>122</ele>
						<time>2023-03-02T17:18:13Z</time>
					</trkpt>
					<trkpt lat="48.730260" lon="2.092620">
						<ele>113</ele>
						<time>2023-03-02T17:18:27Z</time>
					</trkpt>
					<trkpt lat="48.730520" lon="2.092360">
						<ele>110</ele>
						<time>2023-03-02T17:18:33Z</time>
					</trkpt>
					<trkpt lat="48.731010" lon="2.092020">
						<ele>105</ele>
						<time>2023-03-02T17:18:42Z</time>
					</trkpt>
					<trkpt lat="48.731230" lon="2.091910">
						<ele>104</ele>
						<time>2023-03-02T17:18:46Z</time>
					</trkpt>
					<trkpt lat="48.730510" lon="2.094010">
						<ele>108</ele>
						<time>2023-03-02T17:19:14Z</time>
					</trkpt>
					<trkpt lat="48.730070" lon="2.095400">
						<ele>106</ele>
						<time>2023-03-02T17:19:32Z</time>
					</trkpt>
					<trkpt lat="48.729930" lon="2.096240">
						<ele>103</ele>
						<time>2023-03-02T17:19:42Z</time>
					</trkpt>
					<trkpt lat="48.729860" lon="2.096500">
						<ele>103</ele>
						<time>2023-03-02T17:19:46Z</time>
					</trkpt>
					<trkpt lat="48.728920" lon="2.098540">
						<ele>101</ele>
						<time>2023-03-02T17:20:15Z</time>
					</trkpt>
					<trkpt lat="48.728620" lon="2.099200">
						<ele>100</ele>
						<time>2023-03-02T17:20:24Z</time>
					</trkpt>
					<trkpt lat="48.729430" lon="2.099850">
						<ele>99</ele>
						<time>2023-03-02T17:20:41Z</time>
					</trkpt>
					<trkpt lat="48.729480" lon="2.099890">
						<ele>99</ele>
						<time>2023-03-02T17:20:42Z</time>
					</trkpt>
					<trkpt lat="48.729780" lon="2.100130">
						<ele>101</ele>
						<time>2023-03-02T17:20:48Z</time>
					</trkpt>
					<trkpt lat="48.730180" lon="2.100470">
						<ele>106</ele>
						<time>2023-03-02T17:20:56Z</time>
					</trkpt>
					<trkpt lat="48.730190" lon="2.100470">
						<ele>107</ele>
						<time>2023-03-02T17:20:56Z</time>
					</trkpt>
					<trkpt lat="48.730230" lon="2.100480">
						<ele>107</ele>
						<time>2023-03-02T17:20:57Z</time>
					</trkpt>
					<trkpt lat="48.730290" lon="2.100450">
						<ele>108</ele>
						<time>2023-03-02T17:20:58Z</time>
					</trkpt>
					<trkpt lat="48.730580" lon="2.099970">
						<ele>108</ele>
						<time>2023-03-02T17:21:05Z</time>
					</trkpt>
					<trkpt lat="48.730730" lon="2.099690">
						<ele>109</ele>
						<time>2023-03-02T17:21:10Z</time>
					</trkpt>
					<trkpt lat="48.731070" lon="2.099210">
						<ele>112</ele>
						<time>2023-03-02T17:21:18Z</time>
					</trkpt>
					<trkpt lat="48.731530" lon="2.098050">
						<ele>111</ele>
						<time>2023-03-02T17:21:34Z</time>
					</trkpt>
					<trkpt lat="48.731540" lon="2.097950">
						<ele>111</ele>
						<time>2023-03-02T17:21:35Z</time>
					</trkpt>
					<trkpt lat="48.731570" lon="2.097250">
						<ele>109</ele>
						<time>2023-03-02T17:21:43Z</time>
					</trkpt>
					<trkpt lat="48.731710" lon="2.096540">
						<ele>109</ele>
						<time>2023-03-02T17:21:52Z</time>
					</trkpt>
					<trkpt lat="48.731820" lon="2.096300">
						<ele>109</ele>
						<time>2023-03-02T17:21:55Z</time>
					</trkpt>
					<trkpt lat="48.732160" lon="2.095800">
						<ele>109</ele>
						<time>2023-03-02T17:22:04Z</time>
					</trkpt>
					<trkpt lat="48.732250" lon="2.095540">
						<ele>110</ele>
						<time>2023-03-02T17:22:07Z</time>
					</trkpt>
					<trkpt lat="48.732270" lon="2.095380">
						<ele>110</ele>
						<time>2023-03-02T17:22:09Z</time>
					</trkpt>
					<trkpt lat="48.732250" lon="2.095280">
						<ele>109</ele>
						<time>2023-03-02T17:22:10Z</time>
					</trkpt>
					<trkpt lat="48.732070" lon="2.094940">
						<ele>107</ele>
						<time>2023-03-02T17:22:16Z</time>
					</trkpt>
					<trkpt lat="48.732050" lon="2.094760">
						<ele>107</ele>
						<time>2023-03-02T17:22:18Z</time>
					</trkpt>
					<trkpt lat="48.732080" lon="2.094570">
						<ele>107</ele>
						<time>2023-03-02T17:22:20Z</time>
					</trkpt>
					<trkpt lat="48.732240" lon="2.094000">
						<ele>108</ele>
						<time>2023-03-02T17:22:27Z</time>
					</trkpt>
					<trkpt lat="48.732380" lon="2.093320">
						<ele>107</ele>
						<time>2023-03-02T17:22:36Z</time>
					</trkpt>
					<trkpt lat="48.732490" lon="2.093180">
						<ele>107</ele>
						<time>2023-03-02T17:22:38Z</time>
					</trkpt>
					<trkpt lat="48.732990" lon="2.093020">
						<ele>110</ele>
						<time>2023-03-02T17:22:47Z</time>
					</trkpt>
					<trkpt lat="48.733310" lon="2.092810">
						<ele>111</ele>
						<time>2023-03-02T17:22:53Z</time>
					</trkpt>
					<trkpt lat="48.733370" lon="2.092770">
						<ele>111</ele>
						<time>2023-03-02T17:22:55Z</time>
					</trkpt>
					<trkpt lat="48.733400" lon="2.092960">
						<ele>112</ele>
						<time>2023-03-02T17:22:57Z</time>
					</trkpt>
					<trkpt lat="48.733370" lon="2.093150">
						<ele>113</ele>
						<time>2023-03-02T17:22:59Z</time>
					</trkpt>
					<trkpt lat="48.733260" lon="2.093390">
						<ele>113</ele>
						<time>2023-03-02T17:23:03Z</time>
					</trkpt>
					<trkpt lat="48.733160" lon="2.093480">
						<ele>113</ele>
						<time>2023-03-02T17:23:05Z</time>
					</trkpt>
					<trkpt lat="48.732840" lon="2.093660">
						<ele>112</ele>
						<time>2023-03-02T17:23:11Z</time>
					</trkpt>
					<trkpt lat="48.732730" lon="2.093790">
						<ele>112</ele>
						<time>2023-03-02T17:23:13Z</time>
					</trkpt>
					<trkpt lat="48.732670" lon="2.093980">
						<ele>112</ele>
						<time>2023-03-02T17:23:16Z</time>
					</trkpt>
					<trkpt lat="48.732650" lon="2.094080">
						<ele>112</ele>
						<time>2023-03-02T17:23:17Z</time>
					</trkpt>
					<trkpt lat="48.732650" lon="2.094290">
						<ele>113</ele>
						<time>2023-03-02T17:23:19Z</time>
					</trkpt>
					<trkpt lat="48.732680" lon="2.094480">
						<ele>114</ele>
						<time>2023-03-02T17:23:22Z</time>
					</trkpt>
					<trkpt lat="48.732730" lon="2.094610">
						<ele>115</ele>
						<time>2023-03-02T17:23:23Z</time>
					</trkpt>
					<trkpt lat="48.732920" lon="2.094980">
						<ele>120</ele>
						<time>2023-03-02T17:23:29Z</time>
					</trkpt>
					<trkpt lat="48.733010" lon="2.095260">
						<ele>123</ele>
						<time>2023-03-02T17:23:33Z</time>
					</trkpt>
					<trkpt lat="48.733040" lon="2.095550">
						<ele>126</ele>
						<time>2023-03-02T17:23:36Z</time>
					</trkpt>
					<trkpt lat="48.733030" lon="2.095820">
						<ele>127</ele>
						<time>2023-03-02T17:23:39Z</time>
					</trkpt>
					<trkpt lat="48.732960" lon="2.096120">
						<ele>128</ele>
						<time>2023-03-02T17:23:43Z</time>
					</trkpt>
					<trkpt lat="48.732470" lon="2.097570">
						<ele>131</ele>
						<time>2023-03-02T17:24:02Z</time>
					</trkpt>
					<trkpt lat="48.731990" lon="2.099420">
						<ele>136</ele>
						<time>2023-03-02T17:24:25Z</time>
					</trkpt>
					<trkpt lat="48.731940" lon="2.099670">
						<ele>137</ele>
						<time>2023-03-02T17:24:29Z</time>
					</trkpt>
					<trkpt lat="48.731890" lon="2.100150">
						<ele>139</ele>
						<time>2023-03-02T17:24:34Z</time>
					</trkpt>
					<trkpt lat="48.731830" lon="2.101930">
						<ele>151</ele>
						<time>2023-03-02T17:24:55Z</time>
					</trkpt>
					<trkpt lat="48.731850" lon="2.102180">
						<ele>152</ele>
						<time>2023-03-02T17:24:58Z</time>
					</trkpt>
					<trkpt lat="48.731940" lon="2.102510">
						<ele>153</ele>
						<time>2023-03-02T17:25:02Z</time>
					</trkpt>
					<trkpt lat="48.732030" lon="2.102700">
						<ele>153</ele>
						<time>2023-03-02T17:25:05Z</time>
					</trkpt>
					<trkpt lat="48.732280" lon="2.103070">
						<ele>154</ele>
						<time>2023-03-02T17:25:11Z</time>
					</trkpt>
					<trkpt lat="48.732430" lon="2.103240">
						<ele>155</ele>
						<time>2023-03-02T17:25:15Z</time>
					</trkpt>
					<trkpt lat="48.732710" lon="2.103500">
						<ele>155</ele>
						<time>2023-03-02T17:25:20Z</time>
					</trkpt>
					<trkpt lat="48.732980" lon="2.103720">
						<ele>155</ele>
						<time>2023-03-02T17:25:26Z</time>
					</trkpt>
					<trkpt lat="48.733050" lon="2.103840">
						<ele>155</ele>
						<time>2023-03-02T17:25:28Z</time>
					</trkpt>
					<trkpt lat="48.733680" lon="2.104410">
						<ele>155</ele>
						<time>2023-03-02T17:25:41Z</time>
					</trkpt>
					<trkpt lat="48.733760" lon="2.104440">
						<ele>155</ele>
						<time>2023-03-02T17:25:42Z</time>
					</trkpt>
					<trkpt lat="48.733990" lon="2.104650">
						<ele>155</ele>
						<time>2023-03-02T17:25:47Z</time>
					</trkpt>
					<trkpt lat="48.736120" lon="2.106590">
						<ele>158</ele>
						<time>2023-03-02T17:26:31Z</time>
					</trkpt>
					<trkpt lat="48.739340" lon="2.109080">
						<ele>156</ele>
						<time>2023-03-02T17:27:36Z</time>
					</trkpt>
					<trkpt lat="48.739730" lon="2.109570">
						<ele>158</ele>
						<time>2023-03-02T17:27:45Z</time>
					</trkpt>
					<trkpt lat="48.739900" lon="2.109840">
						<ele>157</ele>
						<time>2023-03-02T17:27:49Z</time>
					</trkpt>
					<trkpt lat="48.740130" lon="2.110370">
						<ele>157</ele>
						<time>2023-03-02T17:27:56Z</time>
					</trkpt>
					<trkpt lat="48.740310" lon="2.110940">
						<ele>156</ele>
						<time>2023-03-02T17:28:04Z</time>
					</trkpt>
					<trkpt lat="48.740380" lon="2.111250">
						<ele>157</ele>
						<time>2023-03-02T17:28:08Z</time>
					</trkpt>
					<trkpt lat="48.740600" lon="2.112610">
						<ele>157</ele>
						<time>2023-03-02T17:28:24Z</time>
					</trkpt>
					<trkpt lat="48.741070" lon="2.116460">
						<ele>155</ele>
						<time>2023-03-02T17:29:10Z</time>
					</trkpt>
					<trkpt lat="48.741230" lon="2.117370">
						<ele>154</ele>
						<time>2023-03-02T17:29:21Z</time>
					</trkpt>
					<trkpt lat="48.741470" lon="2.118050">
						<ele>154</ele>
						<time>2023-03-02T17:29:30Z</time>
					</trkpt>
					<trkpt lat="48.741650" lon="2.118410">
						<ele>154</ele>
						<time>2023-03-02T17:29:35Z</time>
					</trkpt>
					<trkpt lat="48.741920" lon="2.118930">
						<ele>154</ele>
						<time>2023-03-02T17:29:43Z</time>
					</trkpt>
					<trkpt lat="48.742070" lon="2.119170">
						<ele>154</ele>
						<time>2023-03-02T17:29:47Z</time>
					</trkpt>
					<trkpt lat="48.742160" lon="2.119430">
						<ele>153</ele>
						<time>2023-03-02T17:29:51Z</time>
					</trkpt>
					<trkpt lat="48.742160" lon="2.119600">
						<ele>153</ele>
						<time>2023-03-02T17:29:53Z</time>
					</trkpt>
					<trkpt lat="48.742180" lon="2.119710">
						<ele>153</ele>
						<time>2023-03-02T17:29:54Z</time>
					</trkpt>
					<trkpt lat="48.742220" lon="2.119800">
						<ele>153</ele>
						<time>2023-03-02T17:29:55Z</time>
					</trkpt>
					<trkpt lat="48.742280" lon="2.119870">
						<ele>153</ele>
						<time>2023-03-02T17:29:56Z</time>
					</trkpt>
					<trkpt lat="48.742340" lon="2.119920">
						<ele>152</ele>
						<time>2023-03-02T17:29:58Z</time>
					</trkpt>
					<trkpt lat="48.742460" lon="2.119930">
						<ele>152</ele>
						<time>2023-03-02T17:30:00Z</time>
					</trkpt>
					<trkpt lat="48.742540" lon="2.119980">
						<ele>152</ele>
						<time>2023-03-02T17:30:01Z</time>
					</trkpt>
					<trkpt lat="48.742640" lon="2.120090">
						<ele>153</ele>
						<time>2023-03-02T17:30:04Z</time>
					</trkpt>
					<trkpt lat="48.742970" lon="2.120570">
						<ele>154</ele>
						<time>2023-03-02T17:30:12Z</time>
					</trkpt>
					<trkpt lat="48.743220" lon="2.120950">
						<ele>154</ele>
						<time>2023-03-02T17:30:18Z</time>
					</trkpt>
					<trkpt lat="48.743580" lon="2.121350">
						<ele>154</ele>
						<time>2023-03-02T17:30:26Z</time>
					</trkpt>
					<trkpt lat="48.743840" lon="2.121550">
						<ele>155</ele>
						<time>2023-03-02T17:30:31Z</time>
					</trkpt>
					<trkpt lat="48.744540" lon="2.121980">
						<ele>155</ele>
						<time>2023-03-02T17:30:45Z</time>
					</trkpt>
					<trkpt lat="48.744920" lon="2.122140">
						<ele>155</ele>
						<time>2023-03-02T17:30:52Z</time>
					</trkpt>
					<trkpt lat="48.745300" lon="2.122260">
						<ele>155</ele>
						<time>2023-03-02T17:30:58Z</time>
					</trkpt>
					<trkpt lat="48.745910" lon="2.122360">
						<ele>155</ele>
						<time>2023-03-02T17:31:09Z</time>
					</trkpt>
					<trkpt lat="48.746390" lon="2.122380">
						<ele>155</ele>
						<time>2023-03-02T17:31:18Z</time>
					</trkpt>
					<trkpt lat="48.747020" lon="2.122330">
						<ele>155</ele>
						<time>2023-03-02T17:31:29Z</time>
					</trkpt>
					<trkpt lat="48.747330" lon="2.122280">
						<ele>154</ele>
						<time>2023-03-02T17:31:35Z</time>
					</trkpt>
					<trkpt lat="48.747890" lon="2.122130">
						<ele>153</ele>
						<time>2023-03-02T17:31:45Z</time>
					</trkpt>
					<trkpt lat="48.748350" lon="2.121950">
						<ele>153</ele>
						<time>2023-03-02T17:31:53Z</time>
					</trkpt>
					<trkpt lat="48.748940" lon="2.121630">
						<ele>150</ele>
						<time>2023-03-02T17:32:04Z</time>
					</trkpt>
					<trkpt lat="48.749120" lon="2.121500">
						<ele>149</ele>
						<time>2023-03-02T17:32:08Z</time>
					</trkpt>
					<trkpt lat="48.749430" lon="2.121220">
						<ele>148</ele>
						<time>2023-03-02T17:32:14Z</time>
					</trkpt>
					<trkpt lat="48.749480" lon="2.121220">
						<ele>148</ele>
						<time>2023-03-02T17:32:15Z</time>
					</trkpt>
					<trkpt lat="48.749980" lon="2.120700">
						<ele>147</ele>
						<time>2023-03-02T17:32:26Z</time>
					</trkpt>
					<trkpt lat="48.750050" lon="2.120720">
						<ele>147</ele>
						<time>2023-03-02T17:32:27Z</time>
					</trkpt>
					<trkpt lat="48.750120" lon="2.120700">
						<ele>147</ele>
						<time>2023-03-02T17:32:29Z</time>
					</trkpt>
					<trkpt lat="48.750190" lon="2.120650">
						<ele>147</ele>
						<time>2023-03-02T17:32:30Z</time>
					</trkpt>
					<trkpt lat="48.750240" lon="2.120580">
						<ele>148</ele>
						<time>2023-03-02T17:32:31Z</time>
					</trkpt>
					<trkpt lat="48.750280" lon="2.120480">
						<ele>148</ele>
						<time>2023-03-02T17:32:33Z</time>
					</trkpt>
					<trkpt lat="48.750300" lon="2.120360">
						<ele>148</ele>
						<time>2023-03-02T17:32:34Z</time>
					</trkpt>
					<trkpt lat="48.750360" lon="2.120170">
						<ele>149</ele>
						<time>2023-03-02T17:32:37Z</time>
					</trkpt>
					<trkpt lat="48.750390" lon="2.120130">
						<ele>149</ele>
						<time>2023-03-02T17:32:37Z</time>
					</trkpt>
					<trkpt lat="48.750450" lon="2.120070">
						<ele>149</ele>
						<time>2023-03-02T17:32:39Z</time>
					</trkpt>
					<trkpt lat="48.750650" lon="2.120020">
						<ele>150</ele>
						<time>2023-03-02T17:32:42Z</time>
					</trkpt>
					<trkpt lat="48.753280" lon="2.120390">
						<ele>144</ele>
						<time>2023-03-02T17:33:29Z</time>
					</trkpt>
					<trkpt lat="48.754860" lon="2.120640">
						<ele>147</ele>
						<time>2023-03-02T17:33:57Z</time>
					</trkpt>
					<trkpt lat="48.755350" lon="2.120810">
						<ele>148</ele>
						<time>2023-03-02T17:34:06Z</time>
					</trkpt>
					<trkpt lat="48.755650" lon="2.120980">
						<ele>148</ele>
						<time>2023-03-02T17:34:12Z</time>
					</trkpt>
					<trkpt lat="48.756900" lon="2.121870">
						<ele>150</ele>
						<time>2023-03-02T17:34:37Z</time>
					</trkpt>
					<trkpt lat="48.758790" lon="2.123250">
						<ele>154</ele>
						<time>2023-03-02T17:35:14Z</time>
					</trkpt>
					<trkpt lat="48.759260" lon="2.123690">
						<ele>155</ele>
						<time>2023-03-02T17:35:24Z</time>
					</trkpt>
					<trkpt lat="48.759870" lon="2.124150">
						<ele>156</ele>
						<time>2023-03-02T17:35:36Z</time>
					</trkpt>
					<trkpt lat="48.760390" lon="2.124490">
						<ele>157</ele>
						<time>2023-03-02T17:35:46Z</time>
					</trkpt>
					<trkpt lat="48.760690" lon="2.124720">
						<ele>157</ele>
						<time>2023-03-02T17:35:52Z</time>
					</trkpt>
					<trkpt lat="48.760710" lon="2.124870">
						<ele>158</ele>
						<time>2023-03-02T17:35:54Z</time>
					</trkpt>
					<trkpt lat="48.760660" lon="2.125150">
						<ele>158</ele>
						<time>2023-03-02T17:35:57Z</time>
					</trkpt>
					<trkpt lat="48.760580" lon="2.125220">
						<ele>158</ele>
						<time>2023-03-02T17:35:59Z</time>
					</trkpt>
					<trkpt lat="48.760480" lon="2.125220">
						<ele>158</ele>
						<time>2023-03-02T17:36:01Z</time>
					</trkpt>
					<trkpt lat="48.760390" lon="2.125180">
						<ele>158</ele>
						<time>2023-03-02T17:36:02Z</time>
					</trkpt>
					<trkpt lat="48.760150" lon="2.124850">
						<ele>158</ele>
						<time>2023-03-02T17:36:08Z</time>
					</trkpt>
					<trkpt lat="48.760040" lon="2.124800">
						<ele>158</ele>
						<time>2023-03-02T17:36:10Z</time>
					</trkpt>
					<trkpt lat="48.759950" lon="2.124810">
						<ele>157</ele>
						<time>2023-03-02T17:36:12Z</time>
					</trkpt>
					<trkpt lat="48.759860" lon="2.124880">
						<ele>158</ele>
						<time>2023-03-02T17:36:13Z</time>
					</trkpt>
					<trkpt lat="48.759810" lon="2.125020">
						<ele>158</ele>
						<time>2023-03-02T17:36:15Z</time>
					</trkpt>
					<trkpt lat="48.759650" lon="2.127120">
						<ele>157</ele>
						<time>2023-03-02T17:36:40Z</time>
					</trkpt>
					<trkpt lat="48.759510" lon="2.128640">
						<ele>158</ele>
						<time>2023-03-02T17:36:58Z</time>
					</trkpt>
					<trkpt lat="48.759500" lon="2.129290">
						<ele>156</ele>
						<time>2023-03-02T17:37:06Z</time>
					</trkpt>
					<trkpt lat="48.759510" lon="2.129470">
						<ele>157</ele>
						<time>2023-03-02T17:37:08Z</time>
					</trkpt>
					<trkpt lat="48.759620" lon="2.130080">
						<ele>157</ele>
						<time>2023-03-02T17:37:15Z</time>
					</trkpt>
					<trkpt lat="48.759850" lon="2.130820">
						<ele>156</ele>
						<time>2023-03-02T17:37:25Z</time>
					</trkpt>
					<trkpt lat="48.761220" lon="2.133490">
						<ele>155</ele>
						<time>2023-03-02T17:38:05Z</time>
					</trkpt>
					<trkpt lat="48.761480" lon="2.133910">
						<ele>154</ele>
						<time>2023-03-02T17:38:11Z</time>
					</trkpt>
					<trkpt lat="48.762380" lon="2.134950">
						<ele>155</ele>
						<time>2023-03-02T17:38:31Z</time>
					</trkpt>
					<trkpt lat="48.762430" lon="2.135050">
						<ele>155</ele>
						<time>2023-03-02T17:38:33Z</time>
					</trkpt>
					<trkpt lat="48.762470" lon="2.135340">
						<ele>155</ele>
						<time>2023-03-02T17:38:36Z</time>
					</trkpt>
					<trkpt lat="48.762400" lon="2.135570">
						<ele>154</ele>
						<time>2023-03-02T17:38:39Z</time>
					</trkpt>
					<trkpt lat="48.761960" lon="2.138630">
						<ele>153</ele>
						<time>2023-03-02T17:39:16Z</time>
					</trkpt>
					<trkpt lat="48.761940" lon="2.139050">
						<ele>153</ele>
						<time>2023-03-02T17:39:21Z</time>
					</trkpt>
					<trkpt lat="48.761960" lon="2.139160">
						<ele>153</ele>
						<time>2023-03-02T17:39:22Z</time>
					</trkpt>
					<trkpt lat="48.762070" lon="2.139650">
						<ele>153</ele>
						<time>2023-03-02T17:39:28Z</time>
					</trkpt>
					<trkpt lat="48.762160" lon="2.139870">
						<ele>152</ele>
						<time>2023-03-02T17:39:31Z</time>
					</trkpt>
					<trkpt lat="48.762150" lon="2.139970">
						<ele>152</ele>
						<time>2023-03-02T17:39:33Z</time>
					</trkpt>
					<trkpt lat="48.762360" lon="2.140930">
						<ele>151</ele>
						<time>2023-03-02T17:39:44Z</time>
					</trkpt>
					<trkpt lat="48.762470" lon="2.141530">
						<ele>152</ele>
						<time>2023-03-02T17:39:52Z</time>
					</trkpt>
					<trkpt lat="48.762560" lon="2.142920">
						<ele>149</ele>
						<time>2023-03-02T17:40:08Z</time>
					</trkpt>
					<trkpt lat="48.762490" lon="2.142940">
						<ele>149</ele>
						<time>2023-03-02T17:40:09Z</time>
					</trkpt>
					<trkpt lat="48.762470" lon="2.142980">
						<ele>149</ele>
						<time>2023-03-02T17:40:10Z</time>
					</trkpt>
					<trkpt lat="48.762420" lon="2.143110">
						<ele>149</ele>
						<time>2023-03-02T17:40:12Z</time>
					</trkpt>
					<trkpt lat="48.762430" lon="2.143230">
						<ele>148</ele>
						<time>2023-03-02T17:40:13Z</time>
					</trkpt>
					<trkpt lat="48.762460" lon="2.143290">
						<ele>148</ele>
						<time>2023-03-02T17:40:14Z</time>
					</trkpt>
					<trkpt lat="48.762670" lon="2.143520">
						<ele>148</ele>
						<time>2023-03-02T17:40:19Z</time>
					</trkpt>
					<trkpt lat="48.762660" lon="2.143630">
						<ele>148</ele>
						<time>2023-03-02T17:40:20Z</time>
					</trkpt>
					<trkpt lat="48.762670" lon="2.143740">
						<ele>148</ele>
						<time>2023-03-02T17:40:21Z</time>
					</trkpt>
					<trkpt lat="48.762880" lon="2.145380">
						<ele>146</ele>
						<time>2023-03-02T17:40:41Z</time>
					</trkpt>
					<trkpt lat="48.762910" lon="2.145950">
						<ele>145</ele>
						<time>2023-03-02T17:40:48Z</time>
					</trkpt>
					<trkpt lat="48.762960" lon="2.146120">
						<ele>144</ele>
						<time>2023-03-02T17:40:50Z</time>
					</trkpt>
					<trkpt lat="48.763020" lon="2.146220">
						<ele>144</ele>
						<time>2023-03-02T17:40:51Z</time>
					</trkpt>
					<trkpt lat="48.763130" lon="2.146280">
						<ele>144</ele>
						<time>2023-03-02T17:40:53Z</time>
					</trkpt>
					<trkpt lat="48.763260" lon="2.146670">
						<ele>142</ele>
						<time>2023-03-02T17:40:59Z</time>
					</trkpt>
					<trkpt lat="48.763300" lon="2.146730">
						<ele>142</ele>
						<time>2023-03-02T17:41:00Z</time>
					</trkpt>
					<trkpt lat="48.763360" lon="2.146900">
						<ele>142</ele>
						<time>2023-03-02T17:41:02Z</time>
					</trkpt>
					<trkpt lat="48.763380" lon="2.146990">
						<ele>142</ele>
						<time>2023-03-02T17:41:03Z</time>
					</trkpt>
					<trkpt lat="48.763480" lon="2.147270">
						<ele>142</ele>
						<time>2023-03-02T17:41:07Z</time>
					</trkpt>
					<trkpt lat="48.763600" lon="2.147650">
						<ele>141</ele>
						<time>2023-03-02T17:41:12Z</time>
					</trkpt>
					<trkpt lat="48.763760" lon="2.147990">
						<ele>140</ele>
						<time>2023-03-02T17:41:17Z</time>
					</trkpt>
					<trkpt lat="48.763900" lon="2.148240">
						<ele>140</ele>
						<time>2023-03-02T17:41:20Z</time>
					</trkpt>
					<trkpt lat="48.764320" lon="2.148820">
						<ele>139</ele>
						<time>2023-03-02T17:41:30Z</time>
					</trkpt>
					<trkpt lat="48.764620" lon="2.149180">
						<ele>135</ele>
						<time>2023-03-02T17:41:37Z</time>
					</trkpt>
					<trkpt lat="48.764970" lon="2.149460">
						<ele>132</ele>
						<time>2023-03-02T17:41:44Z</time>
					</trkpt>
					<trkpt lat="48.765160" lon="2.149560">
						<ele>129</ele>
						<time>2023-03-02T17:41:48Z</time>
					</trkpt>
					<trkpt lat="48.765230" lon="2.149630">
						<ele>128</ele>
						<time>2023-03-02T17:41:49Z</time>
					</trkpt>
					<trkpt lat="48.765290" lon="2.149730">
						<ele>127</ele>
						<time>2023-03-02T17:41:51Z</time>
					</trkpt>
					<trkpt lat="48.765360" lon="2.149930">
						<ele>127</ele>
						<time>2023-03-02T17:41:54Z</time>
					</trkpt>
					<trkpt lat="48.765380" lon="2.150060">
						<ele>127</ele>
						<time>2023-03-02T17:41:55Z</time>
					</trkpt>
					<trkpt lat="48.765360" lon="2.150350">
						<ele>126</ele>
						<time>2023-03-02T17:41:59Z</time>
					</trkpt>
					<trkpt lat="48.765240" lon="2.150760">
						<ele>128</ele>
						<time>2023-03-02T17:42:04Z</time>
					</trkpt>
					<trkpt lat="48.765210" lon="2.150910">
						<ele>128</ele>
						<time>2023-03-02T17:42:06Z</time>
					</trkpt>
					<trkpt lat="48.765240" lon="2.151470">
						<ele>125</ele>
						<time>2023-03-02T17:42:12Z</time>
					</trkpt>
					<trkpt lat="48.765250" lon="2.152820">
						<ele>119</ele>
						<time>2023-03-02T17:42:28Z</time>
					</trkpt>
					<trkpt lat="48.765230" lon="2.153420">
						<ele>116</ele>
						<time>2023-03-02T17:42:35Z</time>
					</trkpt>
					<trkpt lat="48.765180" lon="2.154470">
						<ele>111</ele>
						<time>2023-03-02T17:42:48Z</time>
					</trkpt>
					<trkpt lat="48.765130" lon="2.154760">
						<ele>110</ele>
						<time>2023-03-02T17:42:51Z</time>
					</trkpt>
					<trkpt lat="48.765010" lon="2.155140">
						<ele>110</ele>
						<time>2023-03-02T17:42:56Z</time>
					</trkpt>
					<trkpt lat="48.764180" lon="2.156760">
						<ele>114</ele>
						<time>2023-03-02T17:43:20Z</time>
					</trkpt>
					<trkpt lat="48.763790" lon="2.158100">
						<ele>116</ele>
						<time>2023-03-02T17:43:37Z</time>
					</trkpt>
					<trkpt lat="48.763740" lon="2.158570">
						<ele>114</ele>
						<time>2023-03-02T17:43:43Z</time>
					</trkpt>
					<trkpt lat="48.763690" lon="2.160170">
						<ele>101</ele>
						<time>2023-03-02T17:44:02Z</time>
					</trkpt>
					<trkpt lat="48.763700" lon="2.160260">
						<ele>100</ele>
						<time>2023-03-02T17:44:03Z</time>
					</trkpt>
					<trkpt lat="48.763720" lon="2.160300">
						<ele>100</ele>
						<time>2023-03-02T17:44:03Z</time>
					</trkpt>
					<trkpt lat="48.763800" lon="2.160380">
						<ele>99</ele>
						<time>2023-03-02T17:44:05Z</time>
					</trkpt>
					<trkpt lat="48.764150" lon="2.161010">
						<ele>93</ele>
						<time>2023-03-02T17:44:15Z</time>
					</trkpt>
					<trkpt lat="48.764220" lon="2.161110">
						<ele>93</ele>
						<time>2023-03-02T17:44:16Z</time>
					</trkpt>
					<trkpt lat="48.764180" lon="2.161170">
						<ele>93</ele>
						<time>2023-03-02T17:44:17Z</time>
					</trkpt>
					<trkpt lat="48.764160" lon="2.161250">
						<ele>93</ele>
						<time>2023-03-02T17:44:18Z</time>
					</trkpt>
					<trkpt lat="48.764180" lon="2.161340">
						<ele>93</ele>
						<time>2023-03-02T17:44:19Z</time>
					</trkpt>
					<trkpt lat="48.764210" lon="2.161370">
						<ele>93</ele>
						<time>2023-03-02T17:44:20Z</time>
					</trkpt>
					<trkpt lat="48.764280" lon="2.161410">
						<ele>93</ele>
						<time>2023-03-02T17:44:21Z</time>
					</trkpt>
					<trkpt lat="48.764340" lon="2.161370">
						<ele>93</ele>
						<time>2023-03-02T17:44:23Z</time>
					</trkpt>
					<trkpt lat="48.764370" lon="2.161300">
						<ele>93</ele>
						<time>2023-03-02T17:44:24Z</time>
					</trkpt>
					<trkpt lat="48.764370" lon="2.161210">
						<ele>93</ele>
						<time>2023-03-02T17:44:25Z</time>
					</trkpt>
					<trkpt lat="48.764570" lon="2.161120">
						<ele>92</ele>
						<time>2023-03-02T17:44:28Z</time>
					</trkpt>
					<trkpt lat="48.764830" lon="2.160920">
						<ele>92</ele>
						<time>2023-03-02T17:44:34Z</time>
					</trkpt>
					<trkpt lat="48.765060" lon="2.160930">
						<ele>92</ele>
						<time>2023-03-02T17:44:38Z</time>
					</trkpt>
					<trkpt lat="48.765100" lon="2.160980">
						<ele>92</ele>
						<time>2023-03-02T17:44:39Z</time>
					</trkpt>
					<trkpt lat="48.765210" lon="2.161250">
						<ele>92</ele>
						<time>2023-03-02T17:44:42Z</time>
					</trkpt>
					<trkpt lat="48.765170" lon="2.164040">
						<ele>91</ele>
						<time>2023-03-02T17:45:15Z</time>
					</trkpt>
					<trkpt lat="48.764970" lon="2.166420">
						<ele>89</ele>
						<time>2023-03-02T17:45:43Z</time>
					</trkpt>
					<trkpt lat="48.764900" lon="2.167390">
						<ele>88</ele>
						<time>2023-03-02T17:45:55Z</time>
					</trkpt>
					<trkpt lat="48.764860" lon="2.168750">
						<ele>88</ele>
						<time>2023-03-02T17:46:11Z</time>
					</trkpt>
					<trkpt lat="48.764910" lon="2.168750">
						<ele>88</ele>
						<time>2023-03-02T17:46:11Z</time>
					</trkpt>
					<trkpt lat="48.764960" lon="2.168790">
						<ele>88</ele>
						<time>2023-03-02T17:46:12Z</time>
					</trkpt>
					<trkpt lat="48.765800" lon="2.169490">
						<ele>92</ele>
						<time>2023-03-02T17:46:30Z</time>
					</trkpt>
					<trkpt lat="48.765920" lon="2.169630">
						<ele>94</ele>
						<time>2023-03-02T17:46:32Z</time>
					</trkpt>
					<trkpt lat="48.766450" lon="2.170070">
						<ele>100</ele>
						<time>2023-03-02T17:46:43Z</time>
					</trkpt>
					<trkpt lat="48.766860" lon="2.170670">
						<ele>105</ele>
						<time>2023-03-02T17:46:53Z</time>
					</trkpt>
					<trkpt lat="48.767170" lon="2.171120">
						<ele>108</ele>
						<time>2023-03-02T17:47:01Z</time>
					</trkpt>
					<trkpt lat="48.767360" lon="2.171330">
						<ele>110</ele>
						<time>2023-03-02T17:47:05Z</time>
					</trkpt>
					<trkpt lat="48.771120" lon="2.173820">
						<ele>130</ele>
						<time>2023-03-02T17:48:18Z</time>
					</trkpt>
					<trkpt lat="48.771270" lon="2.173910">
						<ele>131</ele>
						<time>2023-03-02T17:48:21Z</time>
					</trkpt>
					<trkpt lat="48.771420" lon="2.173880">
						<ele>132</ele>
						<time>2023-03-02T17:48:23Z</time>
					</trkpt>
					<trkpt lat="48.771520" lon="2.173810">
						<ele>133</ele>
						<time>2023-03-02T17:48:25Z</time>
					</trkpt>
					<trkpt lat="48.771590" lon="2.173710">
						<ele>133</ele>
						<time>2023-03-02T17:48:27Z</time>
					</trkpt>
					<trkpt lat="48.771660" lon="2.173540">
						<ele>132</ele>
						<time>2023-03-02T17:48:29Z</time>
					</trkpt>
					<trkpt lat="48.771870" lon="2.173000">
						<ele>134</ele>
						<time>2023-03-02T17:48:37Z</time>
					</trkpt>
					<trkpt lat="48.771920" lon="2.172920">
						<ele>134</ele>
						<time>2023-03-02T17:48:38Z</time>
					</trkpt>
					<trkpt lat="48.772070" lon="2.172770">
						<ele>135</ele>
						<time>2023-03-02T17:48:41Z</time>
					</trkpt>
					<trkpt lat="48.772250" lon="2.172670">
						<ele>135</ele>
						<time>2023-03-02T17:48:45Z</time>
					</trkpt>
					<trkpt lat="48.772430" lon="2.172660">
						<ele>135</ele>
						<time>2023-03-02T17:48:48Z</time>
					</trkpt>
					<trkpt lat="48.772700" lon="2.172730">
						<ele>137</ele>
						<time>2023-03-02T17:48:53Z</time>
					</trkpt>
					<trkpt lat="48.773450" lon="2.173030">
						<ele>142</ele>
						<time>2023-03-02T17:49:07Z</time>
					</trkpt>
					<trkpt lat="48.773640" lon="2.173030">
						<ele>143</ele>
						<time>2023-03-02T17:49:10Z</time>
					</trkpt>
					<trkpt lat="48.773830" lon="2.172970">
						<ele>143</ele>
						<time>2023-03-02T17:49:13Z</time>
					</trkpt>
					<trkpt lat="48.774170" lon="2.172760">
						<ele>144</ele>
						<time>2023-03-02T17:49:20Z</time>
					</trkpt>
					<trkpt lat="48.774350" lon="2.172600">
						<ele>146</ele>
						<time>2023-03-02T17:49:24Z</time>
					</trkpt>
					<trkpt lat="48.774440" lon="2.172490">
						<ele>147</ele>
						<time>2023-03-02T17:49:26Z</time>
					</trkpt>
					<trkpt lat="48.774890" lon="2.171650">
						<ele>156</ele>
						<time>2023-03-02T17:49:38Z</time>
					</trkpt>
					<trkpt lat="48.775030" lon="2.171480">
						<ele>158</ele>
						<time>2023-03-02T17:49:42Z</time>
					</trkpt>
					<trkpt lat="48.775290" lon="2.171250">
						<ele>160</ele>
						<time>2023-03-02T17:49:47Z</time>
					</trkpt>
					<trkpt lat="48.775650" lon="2.171030">
						<ele>164</ele>
						<time>2023-03-02T17:49:54Z</time>
					</trkpt>
					<trkpt lat="48.775770" lon="2.170980">
						<ele>165</ele>
						<time>2023-03-02T17:49:56Z</time>
					</trkpt>
					<trkpt lat="48.776010" lon="2.170990">
						<ele>165</ele>
						<time>2023-03-02T17:50:00Z</time>
					</trkpt>
					<trkpt lat="48.776610" lon="2.171210">
						<ele>165</ele>
						<time>2023-03-02T17:50:11Z</time>
					</trkpt>
					<trkpt lat="48.776750" lon="2.171220">
						<ele>166</ele>
						<time>2023-03-02T17:50:14Z</time>
					</trkpt>
					<trkpt lat="48.776920" lon="2.171140">
						<ele>166</ele>
						<time>2023-03-02T17:50:17Z</time>
					</trkpt>
					<trkpt lat="48.778700" lon="2.169270">
						<ele>170</ele>
						<time>2023-03-02T17:50:56Z</time>
					</trkpt>
					<trkpt lat="48.778830" lon="2.169170">
						<ele>171</ele>
						<time>2023-03-02T17:50:58Z</time>
					</trkpt>
					<trkpt lat="48.779030" lon="2.169110">
						<ele>171</ele>
						<time>2023-03-02T17:51:02Z</time>
					</trkpt>
					<trkpt lat="48.780280" lon="2.169070">
						<ele>174</ele>
						<time>2023-03-02T17:51:24Z</time>
					</trkpt>
					<trkpt lat="48.780300" lon="2.169150">
						<ele>174</ele>
						<time>2023-03-02T17:51:25Z</time>
					</trkpt>
					<trkpt lat="48.780350" lon="2.169220">
						<ele>174</ele>
						<time>2023-03-02T17:51:26Z</time>
					</trkpt>
					<trkpt lat="48.780420" lon="2.169480">
						<ele>174</ele>
						<time>2023-03-02T17:51:30Z</time>
					</trkpt>
					<trkpt lat="48.780430" lon="2.169790">
						<ele>174</ele>
						<time>2023-03-02T17:51:33Z</time>
					</trkpt>
					<trkpt lat="48.780410" lon="2.169950">
						<ele>174</ele>
						<time>2023-03-02T17:51:35Z</time>
					</trkpt>
					<trkpt lat="48.780330" lon="2.170270">
						<ele>173</ele>
						<time>2023-03-02T17:51:39Z</time>
					</trkpt>
					<trkpt lat="48.780260" lon="2.170500">
						<ele>173</ele>
						<time>2023-03-02T17:51:42Z</time>
					</trkpt>
					<trkpt lat="48.780140" lon="2.170780">
						<ele>173</ele>
						<time>2023-03-02T17:51:46Z</time>
					</trkpt>
					<trkpt lat="48.780050" lon="2.170940">
						<ele>172</ele>
						<time>2023-03-02T17:51:48Z</time>
					</trkpt>
					<trkpt lat="48.779870" lon="2.171210">
						<ele>173</ele>
						<time>2023-03-02T17:51:53Z</time>
					</trkpt>
					<trkpt lat="48.779550" lon="2.171640">
						<ele>175</ele>
						<time>2023-03-02T17:52:01Z</time>
					</trkpt>
					<trkpt lat="48.779490" lon="2.171740">
						<ele>176</ele>
						<time>2023-03-02T17:52:02Z</time>
					</trkpt>
					<trkpt lat="48.779420" lon="2.171880">
						<ele>176</ele>
						<time>2023-03-02T17:52:04Z</time>
					</trkpt>
					<trkpt lat="48.779320" lon="2.172180">
						<ele>177</ele>
						<time>2023-03-02T17:52:08Z</time>
					</trkpt>
					<trkpt lat="48.779260" lon="2.172490">
						<ele>178</ele>
						<time>2023-03-02T17:52:12Z</time>
					</trkpt>
					<trkpt lat="48.779220" lon="2.172840">
						<ele>178</ele>
						<time>2023-03-02T17:52:16Z</time>
					</trkpt>
					<trkpt lat="48.779240" lon="2.174070">
						<ele>177</ele>
						<time>2023-03-02T17:52:31Z</time>
					</trkpt>
					<trkpt lat="48.779210" lon="2.174560">
						<ele>176</ele>
						<time>2023-03-02T17:52:36Z</time>
					</trkpt>
					<trkpt lat="48.779320" lon="2.174780">
						<ele>176</ele>
						<time>2023-03-02T17:52:40Z</time>
					</trkpt>
					<trkpt lat="48.779350" lon="2.174800">
						<ele>176</ele>
						<time>2023-03-02T17:52:40Z</time>
					</trkpt>
					<trkpt lat="48.779540" lon="2.174820">
						<ele>175</ele>
						<time>2023-03-02T17:52:43Z</time>
					</trkpt>
					<trkpt lat="48.779710" lon="2.174730">
						<ele>175</ele>
						<time>2023-03-02T17:52:47Z</time>
					</trkpt>
					<trkpt lat="48.780120" lon="2.174340">
						<ele>174</ele>
						<time>2023-03-02T17:52:55Z</time>
					</trkpt>
					<trkpt lat="48.780290" lon="2.174170">
						<ele>175</ele>
						<time>2023-03-02T17:52:59Z</time>
					</trkpt>
					<trkpt lat="48.780350" lon="2.174120">
						<ele>175</ele>
						<time>2023-03-02T17:53:00Z</time>
					</trkpt>
					<trkpt lat="48.780450" lon="2.174050">
						<ele>176</ele>
						<time>2023-03-02T17:53:02Z</time>
					</trkpt>
					<trkpt lat="48.780570" lon="2.174050">
						<ele>176</ele>
						<time>2023-03-02T17:53:04Z</time>
					</trkpt>
					<trkpt lat="48.780710" lon="2.174040">
						<ele>176</ele>
						<time>2023-03-02T17:53:07Z</time>
					</trkpt>
					<trkpt lat="48.781150" lon="2.174120">
						<ele>178</ele>
						<time>2023-03-02T17:53:15Z</time>
					</trkpt>
					<trkpt lat="48.781280" lon="2.174110">
						<ele>178</ele>
						<time>2023-03-02T17:53:17Z</time>
					</trkpt>
					<trkpt lat="48.781400" lon="2.174060">
						<ele>178</ele>
						<time>2023-03-02T17:53:19Z</time>
					</trkpt>
					<trkpt lat="48.781850" lon="2.173740">
						<ele>177</ele>
						<time>2023-03-02T17:53:28Z</time>
					</trkpt>
					<trkpt lat="48.781960" lon="2.173720">
						<ele>177</ele>
						<time>2023-03-02T17:53:30Z</time>
					</trkpt>
					<trkpt lat="48.782170" lon="2.173780">
						<ele>177</ele>
						<time>2023-03-02T17:53:34Z</time>
					</trkpt>
					<trkpt lat="48.782270" lon="2.173860">
						<ele>177</ele>
						<time>2023-03-02T17:53:36Z</time>
					</trkpt>
					<trkpt lat="48.782340" lon="2.173980">
						<ele>177</ele>
						<time>2023-03-02T17:53:38Z</time>
					</trkpt>
					<trkpt lat="48.782390" lon="2.174120">
						<ele>176</ele>
						<time>2023-03-02T17:53:40Z</time>
					</trkpt>
					<trkpt lat="48.782450" lon="2.174250">
						<ele>176</ele>
						<time>2023-03-02T17:53:41Z</time>
					</trkpt>
					<trkpt lat="48.782610" lon="2.174810">
						<ele>175</ele>
						<time>2023-03-02T17:53:49Z</time>
					</trkpt>
					<trkpt lat="48.782700" lon="2.175040">
						<ele>176</ele>
						<time>2023-03-02T17:53:52Z</time>
					</trkpt>
					<trkpt lat="48.783840" lon="2.176970">
						<ele>177</ele>
						<time>2023-03-02T17:54:22Z</time>
					</trkpt>
					<trkpt lat="48.785180" lon="2.179290">
						<ele>178</ele>
						<time>2023-03-02T17:54:58Z</time>
					</trkpt>
					<trkpt lat="48.785300" lon="2.179450">
						<ele>178</ele>
						<time>2023-03-02T17:55:01Z</time>
					</trkpt>
					<trkpt lat="48.785320" lon="2.179550">
						<ele>178</ele>
						<time>2023-03-02T17:55:02Z</time>
					</trkpt>
					<trkpt lat="48.785400" lon="2.179660">
						<ele>177</ele>
						<time>2023-03-02T17:55:04Z</time>
					</trkpt>
					<trkpt lat="48.785390" lon="2.179750">
						<ele>177</ele>
						<time>2023-03-02T17:55:05Z</time>
					</trkpt>
					<trkpt lat="48.785460" lon="2.179770">
						<ele>177</ele>
						<time>2023-03-02T17:55:07Z</time>
					</trkpt>
					<trkpt lat="48.785540" lon="2.179760">
						<ele>177</ele>
						<time>2023-03-02T17:55:08Z</time>
					</trkpt>
					<trkpt lat="48.788180" lon="2.179440">
						<ele>174</ele>
						<time>2023-03-02T17:55:55Z</time>
					</trkpt>
					<trkpt lat="48.788280" lon="2.179430">
						<ele>174</ele>
						<time>2023-03-02T17:55:57Z</time>
					</trkpt>
					<trkpt lat="48.788330" lon="2.179190">
						<ele>173</ele>
						<time>2023-03-02T17:56:00Z</time>
					</trkpt>
					<trkpt lat="48.788410" lon="2.179220">
						<ele>173</ele>
						<time>2023-03-02T17:56:01Z</time>
					</trkpt>
					<trkpt lat="48.788570" lon="2.179330">
						<ele>174</ele>
						<time>2023-03-02T17:56:04Z</time>
					</trkpt>
					<trkpt lat="48.788710" lon="2.179590">
						<ele>174</ele>
						<time>2023-03-02T17:56:08Z</time>
					</trkpt>
					<trkpt lat="48.788780" lon="2.179670">
						<ele>174</ele>
						<time>2023-03-02T17:56:10Z</time>
					</trkpt>
					<trkpt lat="48.788880" lon="2.179740">
						<ele>175</ele>
						<time>2023-03-02T17:56:12Z</time>
					</trkpt>
					<trkpt lat="48.790030" lon="2.180030">
						<ele>169</ele>
						<time>2023-03-02T17:56:33Z</time>
					</trkpt>
					<trkpt lat="48.790500" lon="2.180110">
						<ele>165</ele>
						<time>2023-03-02T17:56:41Z</time>
					</trkpt>
					<trkpt lat="48.790860" lon="2.180100">
						<ele>162</ele>
						<time>2023-03-02T17:56:47Z</time>
					</trkpt>
					<trkpt lat="48.791310" lon="2.179980">
						<ele>159</ele>
						<time>2023-03-02T17:56:56Z</time>
					</trkpt>
					<trkpt lat="48.792780" lon="2.179310">
						<ele>144</ele>
						<time>2023-03-02T17:57:23Z</time>
					</trkpt>
					<trkpt lat="48.792960" lon="2.179260">
						<ele>142</ele>
						<time>2023-03-02T17:57:26Z</time>
					</trkpt>
					<trkpt lat="48.793280" lon="2.179220">
						<ele>141</ele>
						<time>2023-03-02T17:57:32Z</time>
					</trkpt>
					<trkpt lat="48.793570" lon="2.179260">
						<ele>138</ele>
						<time>2023-03-02T17:57:37Z</time>
					</trkpt>
					<trkpt lat="48.793940" lon="2.179380">
						<ele>135</ele>
						<time>2023-03-02T17:57:44Z</time>
					</trkpt>
					<trkpt lat="48.794240" lon="2.179550">
						<ele>132</ele>
						<time>2023-03-02T17:57:49Z</time>
					</trkpt>
					<trkpt lat="48.794610" lon="2.179890">
						<ele>130</ele>
						<time>2023-03-02T17:57:57Z</time>
					</trkpt>
					<trkpt lat="48.795720" lon="2.181130">
						<ele>123</ele>
						<time>2023-03-02T17:58:22Z</time>
					</trkpt>
					<trkpt lat="48.795810" lon="2.181010">
						<ele>123</ele>
						<time>2023-03-02T17:58:24Z</time>
					</trkpt>
					<trkpt lat="48.795770" lon="2.180910">
						<ele>124</ele>
						<time>2023-03-02T17:58:25Z</time>
					</trkpt>
					<trkpt lat="48.795680" lon="2.180720">
						<ele>126</ele>
						<time>2023-03-02T17:58:28Z</time>
					</trkpt>
					<trkpt lat="48.795610" lon="2.180790">
						<ele>126</ele>
						<time>2023-03-02T17:58:29Z</time>
					</trkpt>
					<trkpt lat="48.795590" lon="2.180860">
						<ele>126</ele>
						<time>2023-03-02T17:58:30Z</time>
					</trkpt>
					<trkpt lat="48.795590" lon="2.180990">
						<ele>125</ele>
						<time>2023-03-02T17:58:32Z</time>
					</trkpt>
					<trkpt lat="48.796000" lon="2.181440">
						<ele>119</ele>
						<time>2023-03-02T17:58:41Z</time>
					</trkpt>
					<trkpt lat="48.796250" lon="2.181790">
						<ele>118</ele>
						<time>2023-03-02T17:58:47Z</time>
					</trkpt>
					<trkpt lat="48.797620" lon="2.183400">
						<ele>110</ele>
						<time>2023-03-02T17:59:18Z</time>
					</trkpt>
					<trkpt lat="48.799490" lon="2.185550">
						<ele>102</ele>
						<time>2023-03-02T17:59:59Z</time>
					</trkpt>
					<trkpt lat="48.800280" lon="2.186420">
						<ele>101</ele>
						<time>2023-03-02T18:00:17Z</time>
					</trkpt>
					<trkpt lat="48.800530" lon="2.186720">
						<ele>99</ele>
						<time>2023-03-02T18:00:22Z</time>
					</trkpt>
					<trkpt lat="48.800650" lon="2.186910">
						<ele>98</ele>
						<time>2023-03-02T18:00:26Z</time>
					</trkpt>
					<trkpt lat="48.801570" lon="2.187950">
						<ele>100</ele>
						<time>2023-03-02T18:00:46Z</time>
					</trkpt>
					<trkpt lat="48.801880" lon="2.188190">
						<ele>102</ele>
						<time>2023-03-02T18:00:52Z</time>
					</trkpt>
					<trkpt lat="48.802070" lon="2.188290">
						<ele>102</ele>
						<time>2023-03-02T18:00:56Z</time>
					</trkpt>
					<trkpt lat="48.802300" lon="2.188350">
						<ele>103</ele>
						<time>2023-03-02T18:01:00Z</time>
					</trkpt>
					<trkpt lat="48.803000" lon="2.188340">
						<ele>103</ele>
						<time>2023-03-02T18:01:12Z</time>
					</trkpt>
					<trkpt lat="48.804090" lon="2.188240">
						<ele>103</ele>
						<time>2023-03-02T18:01:32Z</time>
					</trkpt>
					<trkpt lat="48.804480" lon="2.188190">
						<ele>102</ele>
						<time>2023-03-02T18:01:39Z</time>
					</trkpt>
					<trkpt lat="48.804740" lon="2.188180">
						<ele>100</ele>
						<time>2023-03-02T18:01:43Z</time>
					</trkpt>
					<trkpt lat="48.805600" lon="2.188030">
						<ele>100</ele>
						<time>2023-03-02T18:01:59Z</time>
					</trkpt>
					<trkpt lat="48.806750" lon="2.187870">
						<ele>98</ele>
						<time>2023-03-02T18:02:19Z</time>
					</trkpt>
					<trkpt lat="48.807260" lon="2.187900">
						<ele>96</ele>
						<time>2023-03-02T18:02:28Z</time>
					</trkpt>
					<trkpt lat="48.807750" lon="2.187830">
						<ele>93</ele>
						<time>2023-03-02T18:02:37Z</time>
					</trkpt>
					<trkpt lat="48.808010" lon="2.187830">
						<ele>91</ele>
						<time>2023-03-02T18:02:42Z</time>
					</trkpt>
					<trkpt lat="48.808300" lon="2.187800">
						<ele>89</ele>
						<time>2023-03-02T18:02:47Z</time>
					</trkpt>
					<trkpt lat="48.808720" lon="2.187690">
						<ele>89</ele>
						<time>2023-03-02T18:02:55Z</time>
					</trkpt>
					<trkpt lat="48.808820" lon="2.187830">
						<ele>88</ele>
						<time>2023-03-02T18:02:57Z</time>
					</trkpt>
					<trkpt lat="48.809790" lon="2.189820">
						<ele>91</ele>
						<time>2023-03-02T18:03:26Z</time>
					</trkpt>
					<trkpt lat="48.809850" lon="2.189860">
						<ele>91</ele>
						<time>2023-03-02T18:03:27Z</time>
					</trkpt>
					<trkpt lat="48.810560" lon="2.191340">
						<ele>91</ele>
						<time>2023-03-02T18:03:49Z</time>
					</trkpt>
					<trkpt lat="48.810600" lon="2.191470">
						<ele>91</ele>
						<time>2023-03-02T18:03:50Z</time>
					</trkpt>
					<trkpt lat="48.810710" lon="2.191590">
						<ele>90</ele>
						<time>2023-03-02T18:03:53Z</time>
					</trkpt>
					<trkpt lat="48.810910" lon="2.191680">
						<ele>90</ele>
						<time>2023-03-02T18:03:56Z</time>
					</trkpt>
					<trkpt lat="48.811210" lon="2.191750">
						<ele>90</ele>
						<time>2023-03-02T18:04:02Z</time>
					</trkpt>
					<trkpt lat="48.811410" lon="2.191750">
						<ele>90</ele>
						<time>2023-03-02T18:04:05Z</time>
					</trkpt>
					<trkpt lat="48.811580" lon="2.191780">
						<ele>91</ele>
						<time>2023-03-02T18:04:08Z</time>
					</trkpt>
					<trkpt lat="48.811820" lon="2.191870">
						<ele>89</ele>
						<time>2023-03-02T18:04:13Z</time>
					</trkpt>
					<trkpt lat="48.812120" lon="2.191940">
						<ele>88</ele>
						<time>2023-03-02T18:04:18Z</time>
					</trkpt>
					<trkpt lat="48.812590" lon="2.192000">
						<ele>85</ele>
						<time>2023-03-02T18:04:27Z</time>
					</trkpt>
					<trkpt lat="48.812770" lon="2.191980">
						<ele>85</ele>
						<time>2023-03-02T18:04:30Z</time>
					</trkpt>
					<trkpt lat="48.812920" lon="2.192000">
						<ele>84</ele>
						<time>2023-03-02T18:04:33Z</time>
					</trkpt>
					<trkpt lat="48.813130" lon="2.192040">
						<ele>83</ele>
						<time>2023-03-02T18:04:36Z</time>
					</trkpt>
					<trkpt lat="48.813350" lon="2.192140">
						<ele>82</ele>
						<time>2023-03-02T18:04:40Z</time>
					</trkpt>
					<trkpt lat="48.814250" lon="2.192790">
						<ele>79</ele>
						<time>2023-03-02T18:04:58Z</time>
					</trkpt>
					<trkpt lat="48.815800" lon="2.193880">
						<ele>77</ele>
						<time>2023-03-02T18:05:28Z</time>
					</trkpt>
					<trkpt lat="48.815970" lon="2.194030">
						<ele>77</ele>
						<time>2023-03-02T18:05:32Z</time>
					</trkpt>
					<trkpt lat="48.818820" lon="2.198190">
						<ele>75</ele>
						<time>2023-03-02T18:06:42Z</time>
					</trkpt>
					<trkpt lat="48.819550" lon="2.199430">
						<ele>76</ele>
						<time>2023-03-02T18:07:02Z</time>
					</trkpt>
					<trkpt lat="48.819530" lon="2.199510">
						<ele>76</ele>
						<time>2023-03-02T18:07:03Z</time>
					</trkpt>
					<trkpt lat="48.819550" lon="2.199570">
						<ele>76</ele>
						<time>2023-03-02T18:07:04Z</time>
					</trkpt>
					<trkpt lat="48.819580" lon="2.199590">
						<ele>76</ele>
						<time>2023-03-02T18:07:04Z</time>
					</trkpt>
					<trkpt lat="48.819630" lon="2.199570">
						<ele>76</ele>
						<time>2023-03-02T18:07:05Z</time>
					</trkpt>
					<trkpt lat="48.820050" lon="2.200260">
						<ele>74</ele>
						<time>2023-03-02T18:07:16Z</time>
					</trkpt>
					<trkpt lat="48.820880" lon="2.201670">
						<ele>68</ele>
						<time>2023-03-02T18:07:38Z</time>
					</trkpt>
					<trkpt lat="48.821070" lon="2.202010">
						<ele>70</ele>
						<time>2023-03-02T18:07:43Z</time>
					</trkpt>
					<trkpt lat="48.821150" lon="2.202210">
						<ele>70</ele>
						<time>2023-03-02T18:07:46Z</time>
					</trkpt>
					<trkpt lat="48.821240" lon="2.202490">
						<ele>70</ele>
						<time>2023-03-02T18:07:50Z</time>
					</trkpt>
					<trkpt lat="48.821540" lon="2.203560">
						<ele>68</ele>
						<time>2023-03-02T18:08:03Z</time>
					</trkpt>
					<trkpt lat="48.821590" lon="2.203800">
						<ele>67</ele>
						<time>2023-03-02T18:08:06Z</time>
					</trkpt>
					<trkpt lat="48.821770" lon="2.205160">
						<ele>65</ele>
						<time>2023-03-02T18:08:23Z</time>
					</trkpt>
					<trkpt lat="48.821830" lon="2.205510">
						<ele>64</ele>
						<time>2023-03-02T18:08:27Z</time>
					</trkpt>
					<trkpt lat="48.821870" lon="2.205920">
						<ele>63</ele>
						<time>2023-03-02T18:08:32Z</time>
					</trkpt>
					<trkpt lat="48.821930" lon="2.206230">
						<ele>62</ele>
						<time>2023-03-02T18:08:36Z</time>
					</trkpt>
					<trkpt lat="48.821940" lon="2.206380">
						<ele>62</ele>
						<time>2023-03-02T18:08:37Z</time>
					</trkpt>
					<trkpt lat="48.821930" lon="2.206430">
						<ele>62</ele>
						<time>2023-03-02T18:08:38Z</time>
					</trkpt>
					<trkpt lat="48.821930" lon="2.206500">
						<ele>61</ele>
						<time>2023-03-02T18:08:39Z</time>
					</trkpt>
					<trkpt lat="48.821990" lon="2.206580">
						<ele>61</ele>
						<time>2023-03-02T18:08:40Z</time>
					</trkpt>
					<trkpt lat="48.822010" lon="2.206590">
						<ele>61</ele>
						<time>2023-03-02T18:08:41Z</time>
					</trkpt>
					<trkpt lat="48.822290" lon="2.207760">
						<ele>62</ele>
						<time>2023-03-02T18:08:55Z</time>
					</trkpt>
					<trkpt lat="48.823180" lon="2.209900">
						<ele>55</ele>
						<time>2023-03-02T18:09:25Z</time>
					</trkpt>
					<trkpt lat="48.824070" lon="2.212120">
						<ele>52</ele>
						<time>2023-03-02T18:09:55Z</time>
					</trkpt>
					<trkpt lat="48.824040" lon="2.212200">
						<ele>52</ele>
						<time>2023-03-02T18:09:56Z</time>
					</trkpt>
					<trkpt lat="48.824050" lon="2.212300">
						<ele>52</ele>
						<time>2023-03-02T18:09:58Z</time>
					</trkpt>
					<trkpt lat="48.824110" lon="2.212370">
						<ele>52</ele>
						<time>2023-03-02T18:09:59Z</time>
					</trkpt>
					<trkpt lat="48.824150" lon="2.212380">
						<ele>51</ele>
						<time>2023-03-02T18:10:00Z</time>
					</trkpt>
					<trkpt lat="48.824210" lon="2.212330">
						<ele>52</ele>
						<time>2023-03-02T18:10:01Z</time>
					</trkpt>
					<trkpt lat="48.824380" lon="2.212740">
						<ele>53</ele>
						<time>2023-03-02T18:10:06Z</time>
					</trkpt>
					<trkpt lat="48.824920" lon="2.214360">
						<ele>52</ele>
						<time>2023-03-02T18:10:28Z</time>
					</trkpt>
					<trkpt lat="48.825270" lon="2.215530">
						<ele>53</ele>
						<time>2023-03-02T18:10:43Z</time>
					</trkpt>
					<trkpt lat="48.825390" lon="2.215820">
						<ele>52</ele>
						<time>2023-03-02T18:10:47Z</time>
					</trkpt>
					<trkpt lat="48.825480" lon="2.216130">
						<ele>52</ele>
						<time>2023-03-02T18:10:51Z</time>
					</trkpt>
					<trkpt lat="48.825550" lon="2.216430">
						<ele>51</ele>
						<time>2023-03-02T18:10:55Z</time>
					</trkpt>
					<trkpt lat="48.826190" lon="2.218430">
						<ele>48</ele>
						<time>2023-03-02T18:11:21Z</time>
					</trkpt>
					<trkpt lat="48.826520" lon="2.219110">
						<ele>46</ele>
						<time>2023-03-02T18:11:30Z</time>
					</trkpt>
					<trkpt lat="48.826520" lon="2.219170">
						<ele>46</ele>
						<time>2023-03-02T18:11:31Z</time>
					</trkpt>
					<trkpt lat="48.826510" lon="2.219230">
						<ele>45</ele>
						<time>2023-03-02T18:11:32Z</time>
					</trkpt>
					<trkpt lat="48.826420" lon="2.219310">
						<ele>45</ele>
						<time>2023-03-02T18:11:34Z</time>
					</trkpt>
					<trkpt lat="48.826710" lon="2.220060">
						<ele>40</ele>
						<time>2023-03-02T18:11:44Z</time>
					</trkpt>
					<trkpt lat="48.826980" lon="2.221510">
						<ele>37</ele>
						<time>2023-03-02T18:12:02Z</time>
					</trkpt>
					<trkpt lat="48.827230" lon="2.222930">
						<ele>40</ele>
						<time>2023-03-02T18:12:19Z</time>
					</trkpt>
					<trkpt lat="48.827170" lon="2.223480">
						<ele>43</ele>
						<time>2023-03-02T18:12:25Z</time>
					</trkpt>
					<trkpt lat="48.827100" lon="2.223890">
						<ele>44</ele>
						<time>2023-03-02T18:12:30Z</time>
					</trkpt>
					<trkpt lat="48.826800" lon="2.224990">
						<ele>42</ele>
						<time>2023-03-02T18:12:44Z</time>
					</trkpt>
					<trkpt lat="48.826760" lon="2.225200">
						<ele>41</ele>
						<time>2023-03-02T18:12:47Z</time>
					</trkpt>
					<trkpt lat="48.826580" lon="2.225800">
						<ele>36</ele>
						<time>2023-03-02T18:12:55Z</time>
					</trkpt>
					<trkpt lat="48.826570" lon="2.225930">
						<ele>34</ele>
						<time>2023-03-02T18:12:56Z</time>
					</trkpt>
					<trkpt lat="48.826600" lon="2.226060">
						<ele>33</ele>
						<time>2023-03-02T18:12:58Z</time>
					</trkpt>
					<trkpt lat="48.826760" lon="2.226110">
						<ele>31</ele>
						<time>2023-03-02T18:13:01Z</time>
					</trkpt>
					<trkpt lat="48.826940" lon="2.226040">
						<ele>31</ele>
						<time>2023-03-02T18:13:04Z</time>
					</trkpt>
					<trkpt lat="48.827400" lon="2.225760">
						<ele>31</ele>
						<time>2023-03-02T18:13:13Z</time>
					</trkpt>
					<trkpt lat="48.828150" lon="2.225190">
						<ele>31</ele>
						<time>2023-03-02T18:13:28Z</time>
					</trkpt>
					<trkpt lat="48.828330" lon="2.224980">
						<ele>31</ele>
						<time>2023-03-02T18:13:32Z</time>
					</trkpt>
					<trkpt lat="48.828620" lon="2.224690">
						<ele>31</ele>
						<time>2023-03-02T18:13:38Z</time>
					</trkpt>
					<trkpt lat="48.828920" lon="2.224500">
						<ele>31</ele>
						<time>2023-03-02T18:13:44Z</time>
					</trkpt>
					<trkpt lat="48.829160" lon="2.224400">
						<ele>31</ele>
						<time>2023-03-02T18:13:48Z</time>
					</trkpt>
					<trkpt lat="48.830120" lon="2.223460">
						<ele>29</ele>
						<time>2023-03-02T18:14:08Z</time>
					</trkpt>
					<trkpt lat="48.830740" lon="2.222920">
						<ele>29</ele>
						<time>2023-03-02T18:14:21Z</time>
					</trkpt>
					<trkpt lat="48.831000" lon="2.222760">
						<ele>30</ele>
						<time>2023-03-02T18:14:26Z</time>
					</trkpt>
					<trkpt lat="48.831390" lon="2.222600">
						<ele>30</ele>
						<time>2023-03-02T18:14:33Z</time>
					</trkpt>
					<trkpt lat="48.832100" lon="2.222390">
						<ele>28</ele>
						<time>2023-03-02T18:14:46Z</time>
					</trkpt>
					<trkpt lat="48.832510" lon="2.222310">
						<ele>27</ele>
						<time>2023-03-02T18:14:53Z</time>
					</trkpt>
					<trkpt lat="48.832860" lon="2.222260">
						<ele>27</ele>
						<time>2023-03-02T18:15:00Z</time>
					</trkpt>
					<trkpt lat="48.834060" lon="2.222240">
						<ele>27</ele>
						<time>2023-03-02T18:15:21Z</time>
					</trkpt>
					<trkpt lat="48.834060" lon="2.222180">
						<ele>27</ele>
						<time>2023-03-02T18:15:22Z</time>
					</trkpt>
					<trkpt lat="48.834090" lon="2.222180">
						<ele>27</ele>
						<time>2023-03-02T18:15:22Z</time>
					</trkpt>
					<trkpt lat="48.834090" lon="2.222110">
						<ele>27</ele>
						<time>2023-03-02T18:15:23Z</time>
					</trkpt>
					<trkpt lat="48.832860" lon="2.222130">
						<ele>27</ele>
						<time>2023-03-02T18:15:45Z</time>
					</trkpt>
					<trkpt lat="48.832450" lon="2.222190">
						<ele>27</ele>
						<time>2023-03-02T18:15:52Z</time>
					</trkpt>
					<trkpt lat="48.831380" lon="2.222460">
						<ele>30</ele>
						<time>2023-03-02T18:16:12Z</time>
					</trkpt>
					<trkpt lat="48.830970" lon="2.222630">
						<ele>30</ele>
						<time>2023-03-02T18:16:19Z</time>
					</trkpt>
					<trkpt lat="48.830710" lon="2.222800">
						<ele>30</ele>
						<time>2023-03-02T18:16:24Z</time>
					</trkpt>
					<trkpt lat="48.829490" lon="2.223900">
						<ele>32</ele>
						<time>2023-03-02T18:16:50Z</time>
					</trkpt>
					<trkpt lat="48.829250" lon="2.224060">
						<ele>32</ele>
						<time>2023-03-02T18:16:54Z</time>
					</trkpt>
					<trkpt lat="48.829280" lon="2.224130">
						<ele>32</ele>
						<time>2023-03-02T18:16:55Z</time>
					</trkpt>
					<trkpt lat="48.829400" lon="2.224050">
						<ele>32</ele>
						<time>2023-03-02T18:16:57Z</time>
					</trkpt>
					<trkpt lat="48.829470" lon="2.224100">
						<ele>32</ele>
						<time>2023-03-02T18:16:59Z</time>
					</trkpt>
					<trkpt lat="48.830120" lon="2.223460">
						<ele>29</ele>
						<time>2023-03-02T18:17:13Z</time>
					</trkpt>
					<trkpt lat="48.830440" lon="2.223180">
						<ele>29</ele>
						<time>2023-03-02T18:17:19Z</time>
					</trkpt>
					<trkpt lat="48.830740" lon="2.222920">
						<ele>29</ele>
						<time>2023-03-02T18:17:25Z</time>
					</trkpt>
					<trkpt lat="48.831000" lon="2.222760">
						<ele>30</ele>
						<time>2023-03-02T18:17:30Z</time>
					</trkpt>
					<trkpt lat="48.831390" lon="2.222600">
						<ele>30</ele>
						<time>2023-03-02T18:17:38Z</time>
					</trkpt>
					<trkpt lat="48.832100" lon="2.222390">
						<ele>28</ele>
						<time>2023-03-02T18:17:50Z</time>
					</trkpt>
					<trkpt lat="48.832510" lon="2.222310">
						<ele>27</ele>
						<time>2023-03-02T18:17:58Z</time>
					</trkpt>
					<trkpt lat="48.832860" lon="2.222260">
						<ele>27</ele>
						<time>2023-03-02T18:18:04Z</time>
					</trkpt>
					<trkpt lat="48.835090" lon="2.222240">
						<ele>29</ele>
						<time>2023-03-02T18:18:44Z</time>
					</trkpt>
					<trkpt lat="48.835310" lon="2.222210">
						<ele>29</ele>
						<time>2023-03-02T18:18:48Z</time>
					</trkpt>
					<trkpt lat="48.838130" lon="2.221610">
						<ele>27</ele>
						<time>2023-03-02T18:19:38Z</time>
					</trkpt>
					<trkpt lat="48.838520" lon="2.221550">
						<ele>28</ele>
						<time>2023-03-02T18:19:45Z</time>
					</trkpt>
					<trkpt lat="48.838910" lon="2.221520">
						<ele>30</ele>
						<time>2023-03-02T18:19:52Z</time>
					</trkpt>
					<trkpt lat="48.839200" lon="2.221550">
						<ele>31</ele>
						<time>2023-03-02T18:19:57Z</time>
					</trkpt>
					<trkpt lat="48.839760" lon="2.221680">
						<ele>33</ele>
						<time>2023-03-02T18:20:07Z</time>
					</trkpt>
					<trkpt lat="48.839970" lon="2.221810">
						<ele>33</ele>
						<time>2023-03-02T18:20:11Z</time>
					</trkpt>
					<trkpt lat="48.840360" lon="2.222140">
						<ele>31</ele>
						<time>2023-03-02T18:20:19Z</time>
					</trkpt>
					<trkpt lat="48.840500" lon="2.222230">
						<ele>30</ele>
						<time>2023-03-02T18:20:22Z</time>
					</trkpt>
					<trkpt lat="48.841210" lon="2.222460">
						<ele>30</ele>
						<time>2023-03-02T18:20:35Z</time>
					</trkpt>
					<trkpt lat="48.841550" lon="2.222580">
						<ele>30</ele>
						<time>2023-03-02T18:20:41Z</time>
					</trkpt>
					<trkpt lat="48.843130" lon="2.223090">
						<ele>29</ele>
						<time>2023-03-02T18:21:10Z</time>
					</trkpt>
					<trkpt lat="48.844400" lon="2.223480">
						<ele>29</ele>
						<time>2023-03-02T18:21:33Z</time>
					</trkpt>
					<trkpt lat="48.844550" lon="2.223480">
						<ele>29</ele>
						<time>2023-03-02T18:21:36Z</time>
					</trkpt>
					<trkpt lat="48.845750" lon="2.223820">
						<ele>27</ele>
						<time>2023-03-02T18:21:57Z</time>
					</trkpt>
					<trkpt lat="48.846110" lon="2.223900">
						<ele>28</ele>
						<time>2023-03-02T18:22:04Z</time>
					</trkpt>
					<trkpt lat="48.846260" lon="2.223910">
						<ele>29</ele>
						<time>2023-03-02T18:22:07Z</time>
					</trkpt>
					<trkpt lat="48.846590" lon="2.223880">
						<ele>31</ele>
						<time>2023-03-02T18:22:12Z</time>
					</trkpt>
					<trkpt lat="48.847160" lon="2.223780">
						<ele>31</ele>
						<time>2023-03-02T18:22:23Z</time>
					</trkpt>
					<trkpt lat="48.848690" lon="2.223960">
						<ele>27</ele>
						<time>2023-03-02T18:22:50Z</time>
					</trkpt>
					<trkpt lat="48.849020" lon="2.223940">
						<ele>28</ele>
						<time>2023-03-02T18:22:56Z</time>
					</trkpt>
					<trkpt lat="48.849210" lon="2.223900">
						<ele>29</ele>
						<time>2023-03-02T18:22:59Z</time>
					</trkpt>
					<trkpt lat="48.849490" lon="2.223910">
						<ele>30</ele>
						<time>2023-03-02T18:23:04Z</time>
					</trkpt>
					<trkpt lat="48.849780" lon="2.223850">
						<ele>31</ele>
						<time>2023-03-02T18:23:09Z</time>
					</trkpt>
					<trkpt lat="48.850070" lon="2.223810">
						<ele>32</ele>
						<time>2023-03-02T18:23:15Z</time>
					</trkpt>
					<trkpt lat="48.850820" lon="2.223630">
						<ele>30</ele>
						<time>2023-03-02T18:23:28Z</time>
					</trkpt>
					<trkpt lat="48.851180" lon="2.223500">
						<ele>29</ele>
						<time>2023-03-02T18:23:35Z</time>
					</trkpt>
					<trkpt lat="48.851510" lon="2.223420">
						<ele>28</ele>
						<time>2023-03-02T18:23:41Z</time>
					</trkpt>
					<trkpt lat="48.852230" lon="2.223110">
						<ele>29</ele>
						<time>2023-03-02T18:23:54Z</time>
					</trkpt>
					<trkpt lat="48.852410" lon="2.223010">
						<ele>29</ele>
						<time>2023-03-02T18:23:57Z</time>
					</trkpt>
					<trkpt lat="48.853330" lon="2.222700">
						<ele>27</ele>
						<time>2023-03-02T18:24:14Z</time>
					</trkpt>
					<trkpt lat="48.853860" lon="2.222620">
						<ele>28</ele>
						<time>2023-03-02T18:24:24Z</time>
					</trkpt>
					<trkpt lat="48.854670" lon="2.222710">
						<ele>29</ele>
						<time>2023-03-02T18:24:38Z</time>
					</trkpt>
					<trkpt lat="48.855700" lon="2.223000">
						<ele>30</ele>
						<time>2023-03-02T18:24:57Z</time>
					</trkpt>
					<trkpt lat="48.856630" lon="2.223300">
						<ele>31</ele>
						<time>2023-03-02T18:25:14Z</time>
					</trkpt>
					<trkpt lat="48.858360" lon="2.223740">
						<ele>32</ele>
						<time>2023-03-02T18:25:45Z</time>
					</trkpt>
					<trkpt lat="48.858870" lon="2.223900">
						<ele>30</ele>
						<time>2023-03-02T18:25:54Z</time>
					</trkpt>
					<trkpt lat="48.859300" lon="2.224100">
						<ele>29</ele>
						<time>2023-03-02T18:26:02Z</time>
					</trkpt>
					<trkpt lat="48.860390" lon="2.224660">
						<ele>30</ele>
						<time>2023-03-02T18:26:23Z</time>
					</trkpt>
					<trkpt lat="48.863310" lon="2.226220">
						<ele>28</ele>
						<time>2023-03-02T18:27:18Z</time>
					</trkpt>
					<trkpt lat="48.865370" lon="2.226980">
						<ele>34</ele>
						<time>2023-03-02T18:27:55Z</time>
					</trkpt>
					<trkpt lat="48.865440" lon="2.227040">
						<ele>35</ele>
						<time>2023-03-02T18:27:57Z</time>
					</trkpt>
					<trkpt lat="48.865760" lon="2.227190">
						<ele>36</ele>
						<time>2023-03-02T18:28:03Z</time>
					</trkpt>
					<trkpt lat="48.866020" lon="2.227410">
						<ele>35</ele>
						<time>2023-03-02T18:28:08Z</time>
					</trkpt>
					<trkpt lat="48.866110" lon="2.227400">
						<ele>34</ele>
						<time>2023-03-02T18:28:10Z</time>
					</trkpt>
					<trkpt lat="48.866160" lon="2.227290">
						<ele>35</ele>
						<time>2023-03-02T18:28:11Z</time>
					</trkpt>
					<trkpt lat="48.866230" lon="2.227360">
						<ele>34</ele>
						<time>2023-03-02T18:28:13Z</time>
					</trkpt>
					<trkpt lat="48.866280" lon="2.227470">
						<ele>34</ele>
						<time>2023-03-02T18:28:14Z</time>
					</trkpt>
					<trkpt lat="48.866300" lon="2.227490">
						<ele>33</ele>
						<time>2023-03-02T18:28:15Z</time>
					</trkpt>
					<trkpt lat="48.866540" lon="2.227750">
						<ele>33</ele>
						<time>2023-03-02T18:28:20Z</time>
					</trkpt>
					<trkpt lat="48.866700" lon="2.227880">
						<ele>32</ele>
						<time>2023-03-02T18:28:23Z</time>
					</trkpt>
					<trkpt lat="48.866920" lon="2.228050">
						<ele>33</ele>
						<time>2023-03-02T18:28:28Z</time>
					</trkpt>
					<trkpt lat="48.867440" lon="2.228520">
						<ele>31</ele>
						<time>2023-03-02T18:28:38Z</time>
					</trkpt>
					<trkpt lat="48.867540" lon="2.228550">
						<ele>31</ele>
						<time>2023-03-02T18:28:40Z</time>
					</trkpt>
					<trkpt lat="48.867630" lon="2.228650">
						<ele>31</ele>
						<time>2023-03-02T18:28:42Z</time>
					</trkpt>
					<trkpt lat="48.867670" lon="2.228670">
						<ele>32</ele>
						<time>2023-03-02T18:28:43Z</time>
					</trkpt>
					<trkpt lat="48.867730" lon="2.228740">
						<ele>32</ele>
						<time>2023-03-02T18:28:44Z</time>
					</trkpt>
					<trkpt lat="48.867810" lon="2.228680">
						<ele>33</ele>
						<time>2023-03-02T18:28:46Z</time>
					</trkpt>
					<trkpt lat="48.868990" lon="2.229990">
						<ele>34</ele>
						<time>2023-03-02T18:29:12Z</time>
					</trkpt>
					<trkpt lat="48.869090" lon="2.230050">
						<ele>34</ele>
						<time>2023-03-02T18:29:14Z</time>
					</trkpt>
					<trkpt lat="48.869170" lon="2.230130">
						<ele>34</ele>
						<time>2023-03-02T18:29:15Z</time>
					</trkpt>
					<trkpt lat="48.869240" lon="2.230260">
						<ele>33</ele>
						<time>2023-03-02T18:29:17Z</time>
					</trkpt>
					<trkpt lat="48.869760" lon="2.230800">
						<ele>35</ele>
						<time>2023-03-02T18:29:29Z</time>
					</trkpt>
					<trkpt lat="48.869910" lon="2.230900">
						<ele>35</ele>
						<time>2023-03-02T18:29:32Z</time>
					</trkpt>
					<trkpt lat="48.870010" lon="2.231090">
						<ele>34</ele>
						<time>2023-03-02T18:29:34Z</time>
					</trkpt>
					<trkpt lat="48.870860" lon="2.232000">
						<ele>33</ele>
						<time>2023-03-02T18:29:53Z</time>
					</trkpt>
					<trkpt lat="48.870990" lon="2.232070">
						<ele>32</ele>
						<time>2023-03-02T18:29:55Z</time>
					</trkpt>
					<trkpt lat="48.871090" lon="2.232270">
						<ele>31</ele>
						<time>2023-03-02T18:29:58Z</time>
					</trkpt>
					<trkpt lat="48.871560" lon="2.232780">
						<ele>31</ele>
						<time>2023-03-02T18:30:09Z</time>
					</trkpt>
					<trkpt lat="48.871690" lon="2.232860">
						<ele>31</ele>
						<time>2023-03-02T18:30:11Z</time>
					</trkpt>
					<trkpt lat="48.871800" lon="2.233050">
						<ele>32</ele>
						<time>2023-03-02T18:30:14Z</time>
					</trkpt>
					<trkpt lat="48.872080" lon="2.233350">
						<ele>35</ele>
						<time>2023-03-02T18:30:20Z</time>
					</trkpt>
					<trkpt lat="48.872210" lon="2.233430">
						<ele>37</ele>
						<time>2023-03-02T18:30:23Z</time>
					</trkpt>
					<trkpt lat="48.872300" lon="2.233620">
						<ele>38</ele>
						<time>2023-03-02T18:30:25Z</time>
					</trkpt>
					<trkpt lat="48.872720" lon="2.234190">
						<ele>36</ele>
						<time>2023-03-02T18:30:35Z</time>
					</trkpt>
					<trkpt lat="48.873730" lon="2.235870">
						<ele>30</ele>
						<time>2023-03-02T18:31:02Z</time>
					</trkpt>
					<trkpt lat="48.873850" lon="2.235900">
						<ele>31</ele>
						<time>2023-03-02T18:31:04Z</time>
					</trkpt>
					<trkpt lat="48.873930" lon="2.235990">
						<ele>31</ele>
						<time>2023-03-02T18:31:06Z</time>
					</trkpt>
					<trkpt lat="48.873950" lon="2.236210">
						<ele>30</ele>
						<time>2023-03-02T18:31:09Z</time>
					</trkpt>
					<trkpt lat="48.874440" lon="2.236910">
						<ele>31</ele>
						<time>2023-03-02T18:31:21Z</time>
					</trkpt>
					<trkpt lat="48.874570" lon="2.236980">
						<ele>33</ele>
						<time>2023-03-02T18:31:23Z</time>
					</trkpt>
					<trkpt lat="48.874620" lon="2.237100">
						<ele>33</ele>
						<time>2023-03-02T18:31:25Z</time>
					</trkpt>
					<trkpt lat="48.874630" lon="2.237210">
						<ele>33</ele>
						<time>2023-03-02T18:31:26Z</time>
					</trkpt>
					<trkpt lat="48.875080" lon="2.237870">
						<ele>36</ele>
						<time>2023-03-02T18:31:37Z</time>
					</trkpt>
					<trkpt lat="48.875140" lon="2.237880">
						<ele>36</ele>
						<time>2023-03-02T18:31:38Z</time>
					</trkpt>
					<trkpt lat="48.875250" lon="2.238000">
						<ele>35</ele>
						<time>2023-03-02T18:31:41Z</time>
					</trkpt>
					<trkpt lat="48.875280" lon="2.238140">
						<ele>35</ele>
						<time>2023-03-02T18:31:42Z</time>
					</trkpt>
					<trkpt lat="48.875990" lon="2.239140">
						<ele>34</ele>
						<time>2023-03-02T18:31:59Z</time>
					</trkpt>
					<trkpt lat="48.876750" lon="2.240120">
						<ele>33</ele>
						<time>2023-03-02T18:32:17Z</time>
					</trkpt>
					<trkpt lat="48.877280" lon="2.240840">
						<ele>33</ele>
						<time>2023-03-02T18:32:30Z</time>
					</trkpt>
					<trkpt lat="48.877370" lon="2.241010">
						<ele>34</ele>
						<time>2023-03-02T18:32:32Z</time>
					</trkpt>
					<trkpt lat="48.877680" lon="2.241430">
						<ele>34</ele>
						<time>2023-03-02T18:32:40Z</time>
					</trkpt>
					<trkpt lat="48.878390" lon="2.242270">
						<ele>33</ele>
						<time>2023-03-02T18:32:56Z</time>
					</trkpt>
					<trkpt lat="48.878470" lon="2.242310">
						<ele>33</ele>
						<time>2023-03-02T18:32:57Z</time>
					</trkpt>
					<trkpt lat="48.878600" lon="2.242500">
						<ele>33</ele>
						<time>2023-03-02T18:33:00Z</time>
					</trkpt>
					<trkpt lat="48.878530" lon="2.242580">
						<ele>33</ele>
						<time>2023-03-02T18:33:02Z</time>
					</trkpt>
					<trkpt lat="48.878710" lon="2.242800">
						<ele>32</ele>
						<time>2023-03-02T18:33:06Z</time>
					</trkpt>
					<trkpt lat="48.878640" lon="2.242880">
						<ele>32</ele>
						<time>2023-03-02T18:33:08Z</time>
					</trkpt>
					<trkpt lat="48.878630" lon="2.242990">
						<ele>32</ele>
						<time>2023-03-02T18:33:09Z</time>
					</trkpt>
					<trkpt lat="48.879210" lon="2.243730">
						<ele>33</ele>
						<time>2023-03-02T18:33:22Z</time>
					</trkpt>
					<trkpt lat="48.879380" lon="2.243980">
						<ele>34</ele>
						<time>2023-03-02T18:33:27Z</time>
					</trkpt>
					<trkpt lat="48.879580" lon="2.244230">
						<ele>35</ele>
						<time>2023-03-02T18:33:31Z</time>
					</trkpt>
					<trkpt lat="48.879630" lon="2.244320">
						<ele>35</ele>
						<time>2023-03-02T18:33:33Z</time>
					</trkpt>
					<trkpt lat="48.879920" lon="2.244630">
						<ele>34</ele>
						<time>2023-03-02T18:33:39Z</time>
					</trkpt>
					<trkpt lat="48.879960" lon="2.244730">
						<ele>33</ele>
						<time>2023-03-02T18:33:40Z</time>
					</trkpt>
					<trkpt lat="48.881180" lon="2.246020">
						<ele>34</ele>
						<time>2023-03-02T18:34:07Z</time>
					</trkpt>
					<trkpt lat="48.882890" lon="2.248300">
						<ele>33</ele>
						<time>2023-03-02T18:34:47Z</time>
					</trkpt>
					<trkpt lat="48.883150" lon="2.248660">
						<ele>32</ele>
						<time>2023-03-02T18:34:54Z</time>
					</trkpt>
					<trkpt lat="48.883870" lon="2.249540">
						<ele>31</ele>
						<time>2023-03-02T18:35:10Z</time>
					</trkpt>
					<trkpt lat="48.883920" lon="2.249650">
						<ele>31</ele>
						<time>2023-03-02T18:35:12Z</time>
					</trkpt>
					<trkpt lat="48.883990" lon="2.249740">
						<ele>31</ele>
						<time>2023-03-02T18:35:13Z</time>
					</trkpt>
					<trkpt lat="48.884800" lon="2.250610">
						<ele>37</ele>
						<time>2023-03-02T18:35:31Z</time>
					</trkpt>
					<trkpt lat="48.886520" lon="2.252520">
						<ele>33</ele>
						<time>2023-03-02T18:36:09Z</time>
					</trkpt>
					<trkpt lat="48.886920" lon="2.252870">
						<ele>34</ele>
						<time>2023-03-02T18:36:17Z</time>
					</trkpt>
					<trkpt lat="48.887310" lon="2.253180">
						<ele>34</ele>
						<time>2023-03-02T18:36:25Z</time>
					</trkpt>
					<trkpt lat="48.887790" lon="2.253620">
						<ele>37</ele>
						<time>2023-03-02T18:36:35Z</time>
					</trkpt>
					<trkpt lat="48.888320" lon="2.254180">
						<ele>40</ele>
						<time>2023-03-02T18:36:46Z</time>
					</trkpt>
					<trkpt lat="48.888970" lon="2.254990">
						<ele>32</ele>
						<time>2023-03-02T18:37:01Z</time>
					</trkpt>
					<trkpt lat="48.889750" lon="2.256040">
						<ele>37</ele>
						<time>2023-03-02T18:37:20Z</time>
					</trkpt>
					<trkpt lat="48.889850" lon="2.256100">
						<ele>36</ele>
						<time>2023-03-02T18:37:22Z</time>
					</trkpt>
					<trkpt lat="48.890020" lon="2.256300">
						<ele>34</ele>
						<time>2023-03-02T18:37:25Z</time>
					</trkpt>
					<trkpt lat="48.890080" lon="2.256310">
						<ele>34</ele>
						<time>2023-03-02T18:37:26Z</time>
					</trkpt>
					<trkpt lat="48.890120" lon="2.256270">
						<ele>34</ele>
						<time>2023-03-02T18:37:27Z</time>
					</trkpt>
					<trkpt lat="48.890000" lon="2.256110">
						<ele>36</ele>
						<time>2023-03-02T18:37:30Z</time>
					</trkpt>
					<trkpt lat="48.889990" lon="2.256000">
						<ele>38</ele>
						<time>2023-03-02T18:37:31Z</time>
					</trkpt>
					<trkpt lat="48.889770" lon="2.255700">
						<ele>39</ele>
						<time>2023-03-02T18:37:37Z</time>
					</trkpt>
					<trkpt lat="48.889630" lon="2.255510">
						<ele>38</ele>
						<time>2023-03-02T18:37:40Z</time>
					</trkpt>
					<trkpt lat="48.889580" lon="2.255410">
						<ele>37</ele>
						<time>2023-03-02T18:37:42Z</time>
					</trkpt>
					<trkpt lat="48.889560" lon="2.255280">
						<ele>37</ele>
						<time>2023-03-02T18:37:43Z</time>
					</trkpt>
					<trkpt lat="48.889400" lon="2.255570">
						<ele>37</ele>
						<time>2023-03-02T18:37:48Z</time>
					</trkpt>
					<trkpt lat="48.890310" lon="2.256770">
						<ele>30</ele>
						<time>2023-03-02T18:38:09Z</time>
					</trkpt>
					<trkpt lat="48.890990" lon="2.257580">
						<ele>39</ele>
						<time>2023-03-02T18:38:24Z</time>
					</trkpt>
					<trkpt lat="48.891800" lon="2.258610">
						<ele>34</ele>
						<time>2023-03-02T18:38:43Z</time>
					</trkpt>
					<trkpt lat="48.892210" lon="2.259070">
						<ele>30</ele>
						<time>2023-03-02T18:38:52Z</time>
					</trkpt>
					<trkpt lat="48.893960" lon="2.260710">
						<ele>42</ele>
						<time>2023-03-02T18:39:29Z</time>
					</trkpt>
					<trkpt lat="48.894330" lon="2.261110">
						<ele>39</ele>
						<time>2023-03-02T18:39:37Z</time>
					</trkpt>
					<trkpt lat="48.894920" lon="2.261850">
						<ele>32</ele>
						<time>2023-03-02T18:39:50Z</time>
					</trkpt>
					<trkpt lat="48.895210" lon="2.262130">
						<ele>31</ele>
						<time>2023-03-02T18:39:57Z</time>
					</trkpt>
					<trkpt lat="48.895650" lon="2.262650">
						<ele>30</ele>
						<time>2023-03-02T18:40:06Z</time>
					</trkpt>
					<trkpt lat="48.896010" lon="2.263180">
						<ele>32</ele>
						<time>2023-03-02T18:40:15Z</time>
					</trkpt>
					<trkpt lat="48.896270" lon="2.263610">
						<ele>33</ele>
						<time>2023-03-02T18:40:22Z</time>
					</trkpt>
					<trkpt lat="48.896490" lon="2.263970">
						<ele>34</ele>
						<time>2023-03-02T18:40:28Z</time>
					</trkpt>
					<trkpt lat="48.896660" lon="2.264310">
						<ele>34</ele>
						<time>2023-03-02T18:40:33Z</time>
					</trkpt>
					<trkpt lat="48.896760" lon="2.264530">
						<ele>35</ele>
						<time>2023-03-02T18:40:36Z</time>
					</trkpt>
					<trkpt lat="48.896850" lon="2.264830">
						<ele>37</ele>
						<time>2023-03-02T18:40:40Z</time>
					</trkpt>
					<trkpt lat="48.896810" lon="2.264860">
						<ele>36</ele>
						<time>2023-03-02T18:40:41Z</time>
					</trkpt>
					<trkpt lat="48.896710" lon="2.264860">
						<ele>35</ele>
						<time>2023-03-02T18:40:43Z</time>
					</trkpt>
					<trkpt lat="48.896690" lon="2.264880">
						<ele>35</ele>
						<time>2023-03-02T18:40:43Z</time>
					</trkpt>
					<trkpt lat="48.896810" lon="2.265190">
						<ele>36</ele>
						<time>2023-03-02T18:40:47Z</time>
					</trkpt>
					<trkpt lat="48.897180" lon="2.266230">
						<ele>34</ele>
						<time>2023-03-02T18:41:01Z</time>
					</trkpt>
					<trkpt lat="48.897690" lon="2.267470">
						<ele>28</ele>
						<time>2023-03-02T18:41:18Z</time>
					</trkpt>
					<trkpt lat="48.897180" lon="2.266230">
						<ele>34</ele>
						<time>2023-03-02T18:41:35Z</time>
					</trkpt>
					<trkpt lat="48.896810" lon="2.265190">
						<ele>36</ele>
						<time>2023-03-02T18:41:49Z</time>
					</trkpt>
					<trkpt lat="48.896690" lon="2.264880">
						<ele>35</ele>
						<time>2023-03-02T18:41:53Z</time>
					</trkpt>
					<trkpt lat="48.896710" lon="2.264860">
						<ele>35</ele>
						<time>2023-03-02T18:41:54Z</time>
					</trkpt>
					<trkpt lat="48.896810" lon="2.264860">
						<ele>36</ele>
						<time>2023-03-02T18:41:55Z</time>
					</trkpt>
					<trkpt lat="48.896850" lon="2.264830">
						<ele>37</ele>
						<time>2023-03-02T18:41:56Z</time>
					</trkpt>
					<trkpt lat="48.897440" lon="2.266480">
						<ele>32</ele>
						<time>2023-03-02T18:42:18Z</time>
					</trkpt>
					<trkpt lat="48.897740" lon="2.267440">
						<ele>29</ele>
						<time>2023-03-02T18:42:31Z</time>
					</trkpt>
					<trkpt lat="48.898500" lon="2.269290">
						<ele>33</ele>
						<time>2023-03-02T18:42:56Z</time>
					</trkpt>
					<trkpt lat="48.899830" lon="2.272980">
						<ele>40</ele>
						<time>2023-03-02T18:43:45Z</time>
					</trkpt>
					<trkpt lat="48.900010" lon="2.273450">
						<ele>45</ele>
						<time>2023-03-02T18:43:52Z</time>
					</trkpt>
					<trkpt lat="48.900390" lon="2.274570">
						<ele>36</ele>
						<time>2023-03-02T18:44:06Z</time>
					</trkpt>
					<trkpt lat="48.900590" lon="2.275240">
						<ele>32</ele>
						<time>2023-03-02T18:44:15Z</time>
					</trkpt>
					<trkpt lat="48.901020" lon="2.276830">
						<ele>29</ele>
						<time>2023-03-02T18:44:35Z</time>
					</trkpt>
					<trkpt lat="48.901520" lon="2.279020">
						<ele>28</ele>
						<time>2023-03-02T18:45:02Z</time>
					</trkpt>
					<trkpt lat="48.901830" lon="2.280230">
						<ele>28</ele>
						<time>2023-03-02T18:45:18Z</time>
					</trkpt>
					<trkpt lat="48.902200" lon="2.281600">
						<ele>29</ele>
						<time>2023-03-02T18:45:35Z</time>
					</trkpt>
					<trkpt lat="48.902530" lon="2.282650">
						<ele>30</ele>
						<time>2023-03-02T18:45:48Z</time>
					</trkpt>
					<trkpt lat="48.902910" lon="2.283600">
						<ele>32</ele>
						<time>2023-03-02T18:46:01Z</time>
					</trkpt>
					<trkpt lat="48.903330" lon="2.284480">
						<ele>36</ele>
						<time>2023-03-02T18:46:14Z</time>
					</trkpt>
					<trkpt lat="48.903600" lon="2.285000">
						<ele>33</ele>
						<time>2023-03-02T18:46:22Z</time>
					</trkpt>
					<trkpt lat="48.903790" lon="2.285470">
						<ele>30</ele>
						<time>2023-03-02T18:46:28Z</time>
					</trkpt>
					<trkpt lat="48.904260" lon="2.286480">
						<ele>28</ele>
						<time>2023-03-02T18:46:43Z</time>
					</trkpt>
					<trkpt lat="48.904720" lon="2.287410">
						<ele>30</ele>
						<time>2023-03-02T18:46:56Z</time>
					</trkpt>
					<trkpt lat="48.904910" lon="2.287810">
						<ele>30</ele>
						<time>2023-03-02T18:47:02Z</time>
					</trkpt>
					<trkpt lat="48.904870" lon="2.287900">
						<ele>30</ele>
						<time>2023-03-02T18:47:04Z</time>
					</trkpt>
					<trkpt lat="48.904850" lon="2.287930">
						<ele>30</ele>
						<time>2023-03-02T18:47:04Z</time>
					</trkpt>
					<trkpt lat="48.903510" lon="2.289480">
						<ele>31</ele>
						<time>2023-03-02T18:47:34Z</time>
					</trkpt>
					<trkpt lat="48.903410" lon="2.289610">
						<ele>31</ele>
						<time>2023-03-02T18:47:36Z</time>
					</trkpt>
					<trkpt lat="48.903370" lon="2.289560">
						<ele>31</ele>
						<time>2023-03-02T18:47:37Z</time>
					</trkpt>
					<trkpt lat="48.903300" lon="2.289540">
						<ele>31</ele>
						<time>2023-03-02T18:47:38Z</time>
					</trkpt>
					<trkpt lat="48.903230" lon="2.289590">
						<ele>32</ele>
						<time>2023-03-02T18:47:40Z</time>
					</trkpt>
					<trkpt lat="48.903190" lon="2.289700">
						<ele>32</ele>
						<time>2023-03-02T18:47:41Z</time>
					</trkpt>
					<trkpt lat="48.903220" lon="2.289820">
						<ele>32</ele>
						<time>2023-03-02T18:47:43Z</time>
					</trkpt>
					<trkpt lat="48.902900" lon="2.290170">
						<ele>34</ele>
						<time>2023-03-02T18:47:50Z</time>
					</trkpt>
					<trkpt lat="48.902510" lon="2.290560">
						<ele>36</ele>
						<time>2023-03-02T18:47:58Z</time>
					</trkpt>
					<trkpt lat="48.902180" lon="2.290860">
						<ele>35</ele>
						<time>2023-03-02T18:48:05Z</time>
					</trkpt>
					<trkpt lat="48.901630" lon="2.291360">
						<ele>33</ele>
						<time>2023-03-02T18:48:16Z</time>
					</trkpt>
					<trkpt lat="48.901470" lon="2.291590">
						<ele>33</ele>
						<time>2023-03-02T18:48:20Z</time>
					</trkpt>
					<trkpt lat="48.900870" lon="2.292630">
						<ele>33</ele>
						<time>2023-03-02T18:48:36Z</time>
					</trkpt>
					<trkpt lat="48.900750" lon="2.292660">
						<ele>33</ele>
						<time>2023-03-02T18:48:39Z</time>
					</trkpt>
					<trkpt lat="48.900210" lon="2.292710">
						<ele>34</ele>
						<time>2023-03-02T18:48:48Z</time>
					</trkpt>
					<trkpt lat="48.899980" lon="2.292830">
						<ele>34</ele>
						<time>2023-03-02T18:48:53Z</time>
					</trkpt>
					<trkpt lat="48.895910" lon="2.296460">
						<ele>37</ele>
						<time>2023-03-02T18:50:17Z</time>
					</trkpt>
					<trkpt lat="48.895510" lon="2.296850">
						<ele>37</ele>
						<time>2023-03-02T18:50:25Z</time>
					</trkpt>
					<trkpt lat="48.894860" lon="2.297690">
						<ele>39</ele>
						<time>2023-03-02T18:50:40Z</time>
					</trkpt>
					</trkseg>
				</trk>
			</gpx>